<?xml version="1.0" encoding="UTF-8" standalone="no" ?><gpx xmlns="http://www.topografix.com/GPX/1/1" xmlns:gpxx="http://www.garmin.com/xmlschemas/GpxExtensions/v3" xmlns:gpxtpx="http://www.garmin.com/xmlschemas/TrackPointExtension/v1" creator="Oregon 200" version="1.1" xmlns:xsi="http://www.w3.org/2001/XMLSchema-instance" xsi:schemaLocation="http://www.topografix.com/GPX/1/1 http://www.topografix.com/GPX/1/1/gpx.xsd http://www.garmin.com/xmlschemas/GpxExtensions/v3 http://www.garmin.com/xmlschemas/GpxExtensionsv3.xsd http://www.garmin.com/xmlschemas/TrackPointExtension/v1 http://www.garmin.com/xmlschemas/TrackPointExtensionv1.xsd"><metadata><link href="http://www.garmin.com"><text>Garmin International</text></link><time>2013-06-15T14:07:14Z</time></metadata><trk><name>ИЮН-15-13 17:07:11</name><trkseg><trkpt lat="54.149760" lon="27.099770"><ele>254.89</ele><time>2013-06-15T04:47:55Z</time></trkpt><trkpt lat="54.149537" lon="27.099752"><ele>247.68</ele><time>2013-06-15T04:48:10Z</time></trkpt><trkpt lat="54.149329" lon="27.099733"><ele>247.20</ele><time>2013-06-15T04:48:23Z</time></trkpt><trkpt lat="54.149252" lon="27.099730"><ele>245.75</ele><time>2013-06-15T04:48:28Z</time></trkpt><trkpt lat="54.149247" lon="27.099806"><ele>246.23</ele><time>2013-06-15T04:48:34Z</time></trkpt><trkpt lat="54.149256" lon="27.099838"><ele>245.75</ele><time>2013-06-15T04:48:36Z</time></trkpt><trkpt lat="54.149320" lon="27.099932"><ele>246.72</ele><time>2013-06-15T04:48:43Z</time></trkpt><trkpt lat="54.149328" lon="27.100010"><ele>246.23</ele><time>2013-06-15T04:48:46Z</time></trkpt><trkpt lat="54.149314" lon="27.100078"><ele>246.72</ele><time>2013-06-15T04:48:50Z</time></trkpt><trkpt lat="54.149253" lon="27.100222"><ele>245.27</ele><time>2013-06-15T04:48:57Z</time></trkpt><trkpt lat="54.149222" lon="27.100280"><ele>245.27</ele><time>2013-06-15T04:49:00Z</time></trkpt><trkpt lat="54.149094" lon="27.100407"><ele>244.79</ele><time>2013-06-15T04:49:12Z</time></trkpt><trkpt lat="54.149080" lon="27.100422"><ele>248.16</ele><time>2013-06-15T04:49:33Z</time></trkpt><trkpt lat="54.149080" lon="27.100425"><ele>248.16</ele><time>2013-06-15T04:49:58Z</time></trkpt><trkpt lat="54.149085" lon="27.100440"><ele>247.68</ele><time>2013-06-15T04:50:43Z</time></trkpt><trkpt lat="54.149084" lon="27.100479"><ele>246.23</ele><time>2013-06-15T04:51:00Z</time></trkpt><trkpt lat="54.149083" lon="27.100460"><ele>243.83</ele><time>2013-06-15T04:51:14Z</time></trkpt><trkpt lat="54.149089" lon="27.100467"><ele>244.31</ele><time>2013-06-15T04:51:31Z</time></trkpt><trkpt lat="54.149096" lon="27.100462"><ele>243.35</ele><time>2013-06-15T04:51:44Z</time></trkpt><trkpt lat="54.149097" lon="27.100468"><ele>243.35</ele><time>2013-06-15T04:51:46Z</time></trkpt><trkpt lat="54.149101" lon="27.100501"><ele>241.43</ele><time>2013-06-15T04:51:58Z</time></trkpt><trkpt lat="54.149082" lon="27.100495"><ele>238.54</ele><time>2013-06-15T05:05:37Z</time></trkpt><trkpt lat="54.149072" lon="27.100494"><ele>239.51</ele><time>2013-06-15T05:06:03Z</time></trkpt><trkpt lat="54.149070" lon="27.100488"><ele>239.99</ele><time>2013-06-15T05:06:19Z</time></trkpt><trkpt lat="54.149071" lon="27.100497"><ele>239.99</ele><time>2013-06-15T05:07:31Z</time></trkpt><trkpt lat="54.149085" lon="27.100484"><ele>238.54</ele><time>2013-06-15T05:07:46Z</time></trkpt><trkpt lat="54.149082" lon="27.100483"><ele>238.06</ele><time>2013-06-15T05:08:00Z</time></trkpt><trkpt lat="54.149085" lon="27.100485"><ele>237.58</ele><time>2013-06-15T05:08:12Z</time></trkpt><trkpt lat="54.149080" lon="27.100486"><ele>237.58</ele><time>2013-06-15T05:08:36Z</time></trkpt><trkpt lat="54.149077" lon="27.100491"><ele>237.58</ele><time>2013-06-15T05:08:57Z</time></trkpt><trkpt lat="54.149074" lon="27.100490"><ele>237.58</ele><time>2013-06-15T05:09:18Z</time></trkpt><trkpt lat="54.149090" lon="27.100422"><ele>239.99</ele><time>2013-06-15T05:09:39Z</time></trkpt><trkpt lat="54.149160" lon="27.100381"><ele>239.51</ele><time>2013-06-15T05:09:44Z</time></trkpt><trkpt lat="54.149512" lon="27.100414"><ele>239.02</ele><time>2013-06-15T05:10:00Z</time></trkpt><trkpt lat="54.150032" lon="27.100427"><ele>239.02</ele><time>2013-06-15T05:10:14Z</time></trkpt><trkpt lat="54.150158" lon="27.100755"><ele>239.02</ele><time>2013-06-15T05:10:22Z</time></trkpt><trkpt lat="54.150077" lon="27.101397"><ele>239.02</ele><time>2013-06-15T05:10:35Z</time></trkpt><trkpt lat="54.149743" lon="27.102186"><ele>239.51</ele><time>2013-06-15T05:10:51Z</time></trkpt><trkpt lat="54.149288" lon="27.103196"><ele>243.35</ele><time>2013-06-15T05:11:12Z</time></trkpt><trkpt lat="54.149091" lon="27.103779"><ele>244.31</ele><time>2013-06-15T05:11:26Z</time></trkpt><trkpt lat="54.148902" lon="27.104246"><ele>246.72</ele><time>2013-06-15T05:11:40Z</time></trkpt><trkpt lat="54.148579" lon="27.104646"><ele>251.04</ele><time>2013-06-15T05:11:55Z</time></trkpt><trkpt lat="54.148348" lon="27.105040"><ele>253.93</ele><time>2013-06-15T05:12:10Z</time></trkpt><trkpt lat="54.148153" lon="27.105348"><ele>259.69</ele><time>2013-06-15T05:12:25Z</time></trkpt><trkpt lat="54.147961" lon="27.105585"><ele>261.14</ele><time>2013-06-15T05:12:38Z</time></trkpt><trkpt lat="54.147876" lon="27.105731"><ele>262.10</ele><time>2013-06-15T05:12:45Z</time></trkpt><trkpt lat="54.147810" lon="27.105825"><ele>263.54</ele><time>2013-06-15T05:12:58Z</time></trkpt><trkpt lat="54.147799" lon="27.105868"><ele>264.02</ele><time>2013-06-15T05:13:19Z</time></trkpt><trkpt lat="54.147762" lon="27.105919"><ele>264.98</ele><time>2013-06-15T05:13:29Z</time></trkpt><trkpt lat="54.147768" lon="27.105934"><ele>264.50</ele><time>2013-06-15T05:13:46Z</time></trkpt><trkpt lat="54.147768" lon="27.105940"><ele>264.50</ele><time>2013-06-15T05:14:08Z</time></trkpt><trkpt lat="54.147766" lon="27.105942"><ele>264.50</ele><time>2013-06-15T05:14:38Z</time></trkpt><trkpt lat="54.147792" lon="27.105939"><ele>264.02</ele><time>2013-06-15T05:14:52Z</time></trkpt><trkpt lat="54.148025" lon="27.105564"><ele>262.10</ele><time>2013-06-15T05:15:05Z</time></trkpt><trkpt lat="54.148062" lon="27.105522"><ele>261.62</ele><time>2013-06-15T05:15:06Z</time></trkpt><trkpt lat="54.148138" lon="27.105446"><ele>260.65</ele><time>2013-06-15T05:15:08Z</time></trkpt><trkpt lat="54.148293" lon="27.105240"><ele>258.73</ele><time>2013-06-15T05:15:12Z</time></trkpt><trkpt lat="54.148500" lon="27.104843"><ele>254.89</ele><time>2013-06-15T05:15:18Z</time></trkpt><trkpt lat="54.148754" lon="27.104523"><ele>251.04</ele><time>2013-06-15T05:15:23Z</time></trkpt><trkpt lat="54.149056" lon="27.103947"><ele>245.75</ele><time>2013-06-15T05:15:32Z</time></trkpt><trkpt lat="54.149232" lon="27.103458"><ele>242.87</ele><time>2013-06-15T05:15:42Z</time></trkpt><trkpt lat="54.149247" lon="27.103448"><ele>242.87</ele><time>2013-06-15T05:15:43Z</time></trkpt><trkpt lat="54.149318" lon="27.103515"><ele>242.39</ele><time>2013-06-15T05:15:47Z</time></trkpt><trkpt lat="54.149639" lon="27.103944"><ele>243.35</ele><time>2013-06-15T05:16:02Z</time></trkpt><trkpt lat="54.149908" lon="27.104359"><ele>245.75</ele><time>2013-06-15T05:16:14Z</time></trkpt><trkpt lat="54.150116" lon="27.104860"><ele>249.60</ele><time>2013-06-15T05:16:28Z</time></trkpt><trkpt lat="54.150284" lon="27.105316"><ele>252.96</ele><time>2013-06-15T05:16:41Z</time></trkpt><trkpt lat="54.150294" lon="27.105723"><ele>257.29</ele><time>2013-06-15T05:16:55Z</time></trkpt><trkpt lat="54.150260" lon="27.105993"><ele>258.25</ele><time>2013-06-15T05:17:08Z</time></trkpt><trkpt lat="54.150262" lon="27.106121"><ele>258.73</ele><time>2013-06-15T05:17:22Z</time></trkpt><trkpt lat="54.150247" lon="27.106168"><ele>259.21</ele><time>2013-06-15T05:17:24Z</time></trkpt><trkpt lat="54.150278" lon="27.106742"><ele>266.90</ele><time>2013-06-15T05:17:38Z</time></trkpt><trkpt lat="54.150461" lon="27.107106"><ele>268.35</ele><time>2013-06-15T05:17:53Z</time></trkpt><trkpt lat="54.150518" lon="27.107212"><ele>268.35</ele><time>2013-06-15T05:17:59Z</time></trkpt><trkpt lat="54.150531" lon="27.107239"><ele>268.35</ele><time>2013-06-15T05:18:07Z</time></trkpt><trkpt lat="54.150539" lon="27.107251"><ele>268.35</ele><time>2013-06-15T05:18:09Z</time></trkpt><trkpt lat="54.150578" lon="27.107325"><ele>267.86</ele><time>2013-06-15T05:18:14Z</time></trkpt><trkpt lat="54.150622" lon="27.107443"><ele>266.90</ele><time>2013-06-15T05:18:20Z</time></trkpt><trkpt lat="54.150630" lon="27.107759"><ele>264.50</ele><time>2013-06-15T05:18:31Z</time></trkpt><trkpt lat="54.150769" lon="27.107817"><ele>263.06</ele><time>2013-06-15T05:18:41Z</time></trkpt><trkpt lat="54.151053" lon="27.107817"><ele>264.02</ele><time>2013-06-15T05:18:56Z</time></trkpt><trkpt lat="54.151202" lon="27.107792"><ele>264.98</ele><time>2013-06-15T05:19:07Z</time></trkpt><trkpt lat="54.151320" lon="27.107829"><ele>264.50</ele><time>2013-06-15T05:19:17Z</time></trkpt><trkpt lat="54.151486" lon="27.108303"><ele>265.46</ele><time>2013-06-15T05:19:28Z</time></trkpt><trkpt lat="54.151850" lon="27.108939"><ele>266.42</ele><time>2013-06-15T05:19:43Z</time></trkpt><trkpt lat="54.152243" lon="27.109344"><ele>266.42</ele><time>2013-06-15T05:19:56Z</time></trkpt><trkpt lat="54.152442" lon="27.109723"><ele>264.98</ele><time>2013-06-15T05:20:04Z</time></trkpt><trkpt lat="54.152455" lon="27.109793"><ele>264.98</ele><time>2013-06-15T05:20:05Z</time></trkpt><trkpt lat="54.152463" lon="27.109867"><ele>264.98</ele><time>2013-06-15T05:20:06Z</time></trkpt><trkpt lat="54.152465" lon="27.109946"><ele>264.98</ele><time>2013-06-15T05:20:07Z</time></trkpt><trkpt lat="54.152466" lon="27.110026"><ele>264.98</ele><time>2013-06-15T05:20:08Z</time></trkpt><trkpt lat="54.152476" lon="27.111213"><ele>265.46</ele><time>2013-06-15T05:20:25Z</time></trkpt><trkpt lat="54.152593" lon="27.112091"><ele>266.42</ele><time>2013-06-15T05:20:40Z</time></trkpt><trkpt lat="54.153016" lon="27.112766"><ele>269.31</ele><time>2013-06-15T05:20:56Z</time></trkpt><trkpt lat="54.153469" lon="27.113442"><ele>272.19</ele><time>2013-06-15T05:21:14Z</time></trkpt><trkpt lat="54.153995" lon="27.114148"><ele>274.11</ele><time>2013-06-15T05:21:35Z</time></trkpt><trkpt lat="54.154472" lon="27.114635"><ele>272.67</ele><time>2013-06-15T05:21:55Z</time></trkpt><trkpt lat="54.154991" lon="27.115152"><ele>268.83</ele><time>2013-06-15T05:22:08Z</time></trkpt><trkpt lat="54.155763" lon="27.115968"><ele>263.54</ele><time>2013-06-15T05:22:19Z</time></trkpt><trkpt lat="54.156214" lon="27.116481"><ele>264.50</ele><time>2013-06-15T05:22:29Z</time></trkpt><trkpt lat="54.156586" lon="27.116876"><ele>268.83</ele><time>2013-06-15T05:22:45Z</time></trkpt><trkpt lat="54.157022" lon="27.117322"><ele>271.71</ele><time>2013-06-15T05:23:02Z</time></trkpt><trkpt lat="54.157435" lon="27.117753"><ele>273.63</ele><time>2013-06-15T05:23:19Z</time></trkpt><trkpt lat="54.157624" lon="27.118375"><ele>274.59</ele><time>2013-06-15T05:23:35Z</time></trkpt><trkpt lat="54.157778" lon="27.119366"><ele>276.04</ele><time>2013-06-15T05:23:55Z</time></trkpt><trkpt lat="54.157931" lon="27.120209"><ele>277.96</ele><time>2013-06-15T05:24:10Z</time></trkpt><trkpt lat="54.158095" lon="27.120933"><ele>280.36</ele><time>2013-06-15T05:24:24Z</time></trkpt><trkpt lat="54.158447" lon="27.121957"><ele>278.92</ele><time>2013-06-15T05:24:42Z</time></trkpt><trkpt lat="54.158868" lon="27.122845"><ele>278.92</ele><time>2013-06-15T05:24:59Z</time></trkpt><trkpt lat="54.159395" lon="27.123823"><ele>277.00</ele><time>2013-06-15T05:25:14Z</time></trkpt><trkpt lat="54.159549" lon="27.124140"><ele>276.52</ele><time>2013-06-15T05:25:19Z</time></trkpt><trkpt lat="54.159575" lon="27.124196"><ele>276.04</ele><time>2013-06-15T05:25:20Z</time></trkpt><trkpt lat="54.159596" lon="27.124257"><ele>276.04</ele><time>2013-06-15T05:25:21Z</time></trkpt><trkpt lat="54.159616" lon="27.124324"><ele>276.04</ele><time>2013-06-15T05:25:22Z</time></trkpt><trkpt lat="54.159640" lon="27.124389"><ele>275.56</ele><time>2013-06-15T05:25:23Z</time></trkpt><trkpt lat="54.159936" lon="27.125647"><ele>272.67</ele><time>2013-06-15T05:25:40Z</time></trkpt><trkpt lat="54.160029" lon="27.126159"><ele>272.67</ele><time>2013-06-15T05:25:47Z</time></trkpt><trkpt lat="54.160309" lon="27.127292"><ele>275.07</ele><time>2013-06-15T05:26:03Z</time></trkpt><trkpt lat="54.160800" lon="27.128545"><ele>273.63</ele><time>2013-06-15T05:26:20Z</time></trkpt><trkpt lat="54.161139" lon="27.129781"><ele>270.75</ele><time>2013-06-15T05:26:32Z</time></trkpt><trkpt lat="54.161257" lon="27.131239"><ele>266.42</ele><time>2013-06-15T05:26:44Z</time></trkpt><trkpt lat="54.161461" lon="27.133291"><ele>263.06</ele><time>2013-06-15T05:27:00Z</time></trkpt><trkpt lat="54.161654" lon="27.135455"><ele>258.73</ele><time>2013-06-15T05:27:18Z</time></trkpt><trkpt lat="54.161803" lon="27.137681"><ele>252.00</ele><time>2013-06-15T05:27:31Z</time></trkpt><trkpt lat="54.162127" lon="27.140445"><ele>242.87</ele><time>2013-06-15T05:27:46Z</time></trkpt><trkpt lat="54.162287" lon="27.141656"><ele>239.02</ele><time>2013-06-15T05:27:55Z</time></trkpt><trkpt lat="54.162480" lon="27.143234"><ele>238.54</ele><time>2013-06-15T05:28:11Z</time></trkpt><trkpt lat="54.162637" lon="27.144482"><ele>239.02</ele><time>2013-06-15T05:28:26Z</time></trkpt><trkpt lat="54.162764" lon="27.145513"><ele>241.91</ele><time>2013-06-15T05:28:42Z</time></trkpt><trkpt lat="54.162871" lon="27.146474"><ele>243.83</ele><time>2013-06-15T05:28:59Z</time></trkpt><trkpt lat="54.163009" lon="27.147430"><ele>247.68</ele><time>2013-06-15T05:29:15Z</time></trkpt><trkpt lat="54.163175" lon="27.148705"><ele>249.12</ele><time>2013-06-15T05:29:34Z</time></trkpt><trkpt lat="54.163251" lon="27.149905"><ele>249.60</ele><time>2013-06-15T05:29:51Z</time></trkpt><trkpt lat="54.163168" lon="27.151338"><ele>247.68</ele><time>2013-06-15T05:30:10Z</time></trkpt><trkpt lat="54.162833" lon="27.152970"><ele>245.27</ele><time>2013-06-15T05:30:28Z</time></trkpt><trkpt lat="54.162437" lon="27.154616"><ele>243.35</ele><time>2013-06-15T05:30:48Z</time></trkpt><trkpt lat="54.162173" lon="27.155789"><ele>240.47</ele><time>2013-06-15T05:31:02Z</time></trkpt><trkpt lat="54.161701" lon="27.157979"><ele>233.74</ele><time>2013-06-15T05:31:22Z</time></trkpt><trkpt lat="54.161327" lon="27.159668"><ele>229.89</ele><time>2013-06-15T05:31:34Z</time></trkpt><trkpt lat="54.161130" lon="27.160598"><ele>230.37</ele><time>2013-06-15T05:31:45Z</time></trkpt><trkpt lat="54.160945" lon="27.161458"><ele>233.74</ele><time>2013-06-15T05:31:58Z</time></trkpt><trkpt lat="54.160737" lon="27.162411"><ele>234.22</ele><time>2013-06-15T05:32:12Z</time></trkpt><trkpt lat="54.160435" lon="27.163788"><ele>236.62</ele><time>2013-06-15T05:32:30Z</time></trkpt><trkpt lat="54.160105" lon="27.165333"><ele>234.22</ele><time>2013-06-15T05:32:48Z</time></trkpt><trkpt lat="54.159743" lon="27.167122"><ele>228.93</ele><time>2013-06-15T05:33:04Z</time></trkpt><trkpt lat="54.159533" lon="27.168848"><ele>224.12</ele><time>2013-06-15T05:33:18Z</time></trkpt><trkpt lat="54.159320" lon="27.171109"><ele>218.36</ele><time>2013-06-15T05:33:33Z</time></trkpt><trkpt lat="54.159253" lon="27.171908"><ele>220.28</ele><time>2013-06-15T05:33:43Z</time></trkpt><trkpt lat="54.159266" lon="27.172805"><ele>223.64</ele><time>2013-06-15T05:33:58Z</time></trkpt><trkpt lat="54.159502" lon="27.173539"><ele>225.09</ele><time>2013-06-15T05:34:12Z</time></trkpt><trkpt lat="54.159770" lon="27.174312"><ele>226.05</ele><time>2013-06-15T05:34:26Z</time></trkpt><trkpt lat="54.160147" lon="27.175532"><ele>226.53</ele><time>2013-06-15T05:34:44Z</time></trkpt><trkpt lat="54.160556" lon="27.176913"><ele>222.68</ele><time>2013-06-15T05:35:02Z</time></trkpt><trkpt lat="54.160978" lon="27.178397"><ele>219.80</ele><time>2013-06-15T05:35:21Z</time></trkpt><trkpt lat="54.161429" lon="27.179802"><ele>216.91</ele><time>2013-06-15T05:35:39Z</time></trkpt><trkpt lat="54.162002" lon="27.181472"><ele>213.55</ele><time>2013-06-15T05:36:02Z</time></trkpt><trkpt lat="54.162580" lon="27.183095"><ele>210.67</ele><time>2013-06-15T05:36:24Z</time></trkpt><trkpt lat="54.163124" lon="27.184165"><ele>209.22</ele><time>2013-06-15T05:36:41Z</time></trkpt><trkpt lat="54.163665" lon="27.185132"><ele>207.78</ele><time>2013-06-15T05:36:57Z</time></trkpt><trkpt lat="54.163939" lon="27.185722"><ele>207.30</ele><time>2013-06-15T05:37:06Z</time></trkpt><trkpt lat="54.163957" lon="27.185787"><ele>207.30</ele><time>2013-06-15T05:37:07Z</time></trkpt><trkpt lat="54.163970" lon="27.185851"><ele>207.30</ele><time>2013-06-15T05:37:08Z</time></trkpt><trkpt lat="54.163897" lon="27.186625"><ele>208.74</ele><time>2013-06-15T05:37:21Z</time></trkpt><trkpt lat="54.163620" lon="27.187317"><ele>214.03</ele><time>2013-06-15T05:37:37Z</time></trkpt><trkpt lat="54.163364" lon="27.187977"><ele>217.40</ele><time>2013-06-15T05:37:53Z</time></trkpt><trkpt lat="54.163238" lon="27.188735"><ele>218.36</ele><time>2013-06-15T05:38:09Z</time></trkpt><trkpt lat="54.163432" lon="27.189436"><ele>215.95</ele><time>2013-06-15T05:38:22Z</time></trkpt><trkpt lat="54.163896" lon="27.190276"><ele>213.07</ele><time>2013-06-15T05:38:37Z</time></trkpt><trkpt lat="54.164618" lon="27.191071"><ele>209.70</ele><time>2013-06-15T05:38:55Z</time></trkpt><trkpt lat="54.164796" lon="27.191273"><ele>209.22</ele><time>2013-06-15T05:39:00Z</time></trkpt><trkpt lat="54.165431" lon="27.191925"><ele>208.74</ele><time>2013-06-15T05:39:17Z</time></trkpt><trkpt lat="54.166110" lon="27.192615"><ele>207.78</ele><time>2013-06-15T05:39:34Z</time></trkpt><trkpt lat="54.166803" lon="27.193305"><ele>207.78</ele><time>2013-06-15T05:39:52Z</time></trkpt><trkpt lat="54.167461" lon="27.193956"><ele>207.30</ele><time>2013-06-15T05:40:08Z</time></trkpt><trkpt lat="54.168124" lon="27.194624"><ele>205.38</ele><time>2013-06-15T05:40:25Z</time></trkpt><trkpt lat="54.168231" lon="27.194738"><ele>204.90</ele><time>2013-06-15T05:40:28Z</time></trkpt><trkpt lat="54.168298" lon="27.194820"><ele>204.90</ele><time>2013-06-15T05:40:30Z</time></trkpt><trkpt lat="54.168562" lon="27.195091"><ele>205.38</ele><time>2013-06-15T05:40:37Z</time></trkpt><trkpt lat="54.169290" lon="27.195848"><ele>204.42</ele><time>2013-06-15T05:40:56Z</time></trkpt><trkpt lat="54.169858" lon="27.196467"><ele>203.46</ele><time>2013-06-15T05:41:11Z</time></trkpt><trkpt lat="54.170004" lon="27.196645"><ele>203.94</ele><time>2013-06-15T05:41:15Z</time></trkpt><trkpt lat="54.170268" lon="27.196951"><ele>202.49</ele><time>2013-06-15T05:41:22Z</time></trkpt><trkpt lat="54.170760" lon="27.197433"><ele>203.46</ele><time>2013-06-15T05:41:35Z</time></trkpt><trkpt lat="54.171307" lon="27.197997"><ele>202.01</ele><time>2013-06-15T05:41:51Z</time></trkpt><trkpt lat="54.171790" lon="27.198469"><ele>201.05</ele><time>2013-06-15T05:42:04Z</time></trkpt><trkpt lat="54.172365" lon="27.199067"><ele>202.49</ele><time>2013-06-15T05:42:19Z</time></trkpt><trkpt lat="54.172858" lon="27.199552"><ele>202.01</ele><time>2013-06-15T05:42:33Z</time></trkpt><trkpt lat="54.173386" lon="27.200109"><ele>200.57</ele><time>2013-06-15T05:42:49Z</time></trkpt><trkpt lat="54.173853" lon="27.200588"><ele>200.09</ele><time>2013-06-15T05:43:04Z</time></trkpt><trkpt lat="54.174311" lon="27.201056"><ele>200.57</ele><time>2013-06-15T05:43:18Z</time></trkpt><trkpt lat="54.174840" lon="27.201597"><ele>199.61</ele><time>2013-06-15T05:43:34Z</time></trkpt><trkpt lat="54.175381" lon="27.202169"><ele>199.61</ele><time>2013-06-15T05:43:51Z</time></trkpt><trkpt lat="54.175792" lon="27.202565"><ele>198.65</ele><time>2013-06-15T05:44:04Z</time></trkpt><trkpt lat="54.176266" lon="27.203064"><ele>199.61</ele><time>2013-06-15T05:44:23Z</time></trkpt><trkpt lat="54.176301" lon="27.203080"><ele>200.09</ele><time>2013-06-15T05:44:30Z</time></trkpt><trkpt lat="54.176382" lon="27.203264"><ele>201.05</ele><time>2013-06-15T05:44:42Z</time></trkpt><trkpt lat="54.176427" lon="27.203439"><ele>198.65</ele><time>2013-06-15T05:44:54Z</time></trkpt><trkpt lat="54.176449" lon="27.203440"><ele>198.17</ele><time>2013-06-15T05:45:11Z</time></trkpt><trkpt lat="54.176466" lon="27.203441"><ele>198.65</ele><time>2013-06-15T05:45:12Z</time></trkpt><trkpt lat="54.176480" lon="27.203442"><ele>198.65</ele><time>2013-06-15T05:45:13Z</time></trkpt><trkpt lat="54.176580" lon="27.203419"><ele>198.65</ele><time>2013-06-15T05:45:18Z</time></trkpt><trkpt lat="54.176603" lon="27.203427"><ele>198.65</ele><time>2013-06-15T05:45:19Z</time></trkpt><trkpt lat="54.176624" lon="27.203442"><ele>198.65</ele><time>2013-06-15T05:45:20Z</time></trkpt><trkpt lat="54.177033" lon="27.203918"><ele>199.13</ele><time>2013-06-15T05:45:36Z</time></trkpt><trkpt lat="54.177339" lon="27.204365"><ele>198.17</ele><time>2013-06-15T05:45:46Z</time></trkpt><trkpt lat="54.177736" lon="27.204901"><ele>197.69</ele><time>2013-06-15T05:45:59Z</time></trkpt><trkpt lat="54.177831" lon="27.205018"><ele>197.69</ele><time>2013-06-15T05:46:02Z</time></trkpt><trkpt lat="54.178048" lon="27.205319"><ele>198.17</ele><time>2013-06-15T05:46:09Z</time></trkpt><trkpt lat="54.178482" lon="27.205898"><ele>196.73</ele><time>2013-06-15T05:46:23Z</time></trkpt><trkpt lat="54.178516" lon="27.205943"><ele>196.73</ele><time>2013-06-15T05:46:24Z</time></trkpt><trkpt lat="54.179171" lon="27.206861"><ele>196.25</ele><time>2013-06-15T05:46:43Z</time></trkpt><trkpt lat="54.179381" lon="27.207146"><ele>195.77</ele><time>2013-06-15T05:46:49Z</time></trkpt><trkpt lat="54.179898" lon="27.207841"><ele>195.77</ele><time>2013-06-15T05:47:04Z</time></trkpt><trkpt lat="54.179934" lon="27.207884"><ele>195.77</ele><time>2013-06-15T05:47:05Z</time></trkpt><trkpt lat="54.180298" lon="27.208708"><ele>195.77</ele><time>2013-06-15T05:47:21Z</time></trkpt><trkpt lat="54.180048" lon="27.209308"><ele>195.28</ele><time>2013-06-15T05:47:33Z</time></trkpt><trkpt lat="54.180004" lon="27.209418"><ele>195.28</ele><time>2013-06-15T05:47:35Z</time></trkpt><trkpt lat="54.179623" lon="27.210191"><ele>194.80</ele><time>2013-06-15T05:47:50Z</time></trkpt><trkpt lat="54.179424" lon="27.210701"><ele>195.28</ele><time>2013-06-15T05:48:01Z</time></trkpt><trkpt lat="54.179207" lon="27.211185"><ele>195.28</ele><time>2013-06-15T05:48:15Z</time></trkpt><trkpt lat="54.178936" lon="27.211755"><ele>194.80</ele><time>2013-06-15T05:48:27Z</time></trkpt><trkpt lat="54.178716" lon="27.212276"><ele>194.80</ele><time>2013-06-15T05:48:38Z</time></trkpt><trkpt lat="54.178728" lon="27.212826"><ele>194.32</ele><time>2013-06-15T05:48:48Z</time></trkpt><trkpt lat="54.178897" lon="27.213470"><ele>193.36</ele><time>2013-06-15T05:49:01Z</time></trkpt><trkpt lat="54.179037" lon="27.213869"><ele>193.36</ele><time>2013-06-15T05:49:12Z</time></trkpt><trkpt lat="54.179145" lon="27.214291"><ele>194.32</ele><time>2013-06-15T05:49:24Z</time></trkpt><trkpt lat="54.179418" lon="27.215166"><ele>194.80</ele><time>2013-06-15T05:49:39Z</time></trkpt><trkpt lat="54.179677" lon="27.216039"><ele>194.80</ele><time>2013-06-15T05:49:54Z</time></trkpt><trkpt lat="54.180027" lon="27.217183"><ele>194.80</ele><time>2013-06-15T05:50:13Z</time></trkpt><trkpt lat="54.180409" lon="27.218425"><ele>193.84</ele><time>2013-06-15T05:50:33Z</time></trkpt><trkpt lat="54.180686" lon="27.219337"><ele>193.84</ele><time>2013-06-15T05:50:49Z</time></trkpt><trkpt lat="54.181004" lon="27.220356"><ele>192.88</ele><time>2013-06-15T05:51:06Z</time></trkpt><trkpt lat="54.181299" lon="27.221291"><ele>192.40</ele><time>2013-06-15T05:51:23Z</time></trkpt><trkpt lat="54.181543" lon="27.222176"><ele>192.88</ele><time>2013-06-15T05:51:40Z</time></trkpt><trkpt lat="54.181812" lon="27.223031"><ele>192.88</ele><time>2013-06-15T05:51:55Z</time></trkpt><trkpt lat="54.182080" lon="27.223939"><ele>192.40</ele><time>2013-06-15T05:52:10Z</time></trkpt><trkpt lat="54.182261" lon="27.224625"><ele>191.44</ele><time>2013-06-15T05:52:22Z</time></trkpt><trkpt lat="54.182309" lon="27.224810"><ele>190.96</ele><time>2013-06-15T05:52:25Z</time></trkpt><trkpt lat="54.182604" lon="27.225823"><ele>190.96</ele><time>2013-06-15T05:52:41Z</time></trkpt><trkpt lat="54.182964" lon="27.226897"><ele>192.88</ele><time>2013-06-15T05:53:00Z</time></trkpt><trkpt lat="54.183255" lon="27.227222"><ele>194.32</ele><time>2013-06-15T05:53:13Z</time></trkpt><trkpt lat="54.183527" lon="27.227346"><ele>194.80</ele><time>2013-06-15T05:53:23Z</time></trkpt><trkpt lat="54.183948" lon="27.227457"><ele>196.25</ele><time>2013-06-15T05:53:35Z</time></trkpt><trkpt lat="54.184004" lon="27.227474"><ele>196.73</ele><time>2013-06-15T05:53:37Z</time></trkpt><trkpt lat="54.184027" lon="27.227490"><ele>196.25</ele><time>2013-06-15T05:53:38Z</time></trkpt><trkpt lat="54.184054" lon="27.227496"><ele>196.25</ele><time>2013-06-15T05:53:39Z</time></trkpt><trkpt lat="54.184548" lon="27.227484"><ele>198.65</ele><time>2013-06-15T05:53:52Z</time></trkpt><trkpt lat="54.185129" lon="27.227401"><ele>199.61</ele><time>2013-06-15T05:54:07Z</time></trkpt><trkpt lat="54.185490" lon="27.227370"><ele>200.57</ele><time>2013-06-15T05:54:21Z</time></trkpt><trkpt lat="54.185547" lon="27.227356"><ele>200.57</ele><time>2013-06-15T05:54:24Z</time></trkpt><trkpt lat="54.185553" lon="27.227342"><ele>201.05</ele><time>2013-06-15T05:54:25Z</time></trkpt><trkpt lat="54.185558" lon="27.227320"><ele>201.05</ele><time>2013-06-15T05:54:26Z</time></trkpt><trkpt lat="54.185553" lon="27.227242"><ele>200.57</ele><time>2013-06-15T05:54:35Z</time></trkpt><trkpt lat="54.185539" lon="27.227230"><ele>200.57</ele><time>2013-06-15T05:54:36Z</time></trkpt><trkpt lat="54.185194" lon="27.227252"><ele>200.57</ele><time>2013-06-15T05:54:48Z</time></trkpt><trkpt lat="54.184831" lon="27.227286"><ele>200.57</ele><time>2013-06-15T05:55:00Z</time></trkpt><trkpt lat="54.184227" lon="27.227309"><ele>201.53</ele><time>2013-06-15T05:55:17Z</time></trkpt><trkpt lat="54.183864" lon="27.227254"><ele>204.90</ele><time>2013-06-15T05:55:27Z</time></trkpt><trkpt lat="54.183383" lon="27.227102"><ele>207.78</ele><time>2013-06-15T05:55:40Z</time></trkpt><trkpt lat="54.183350" lon="27.227071"><ele>207.78</ele><time>2013-06-15T05:55:52Z</time></trkpt><trkpt lat="54.183252" lon="27.227060"><ele>205.86</ele><time>2013-06-15T05:55:57Z</time></trkpt><trkpt lat="54.183228" lon="27.227082"><ele>204.90</ele><time>2013-06-15T05:55:59Z</time></trkpt><trkpt lat="54.183390" lon="27.227544"><ele>202.49</ele><time>2013-06-15T05:56:09Z</time></trkpt><trkpt lat="54.183674" lon="27.228135"><ele>199.61</ele><time>2013-06-15T05:56:20Z</time></trkpt><trkpt lat="54.183879" lon="27.228795"><ele>197.21</ele><time>2013-06-15T05:56:31Z</time></trkpt><trkpt lat="54.183904" lon="27.228847"><ele>196.73</ele><time>2013-06-15T05:56:32Z</time></trkpt><trkpt lat="54.184115" lon="27.229599"><ele>193.84</ele><time>2013-06-15T05:56:44Z</time></trkpt><trkpt lat="54.184253" lon="27.230158"><ele>194.32</ele><time>2013-06-15T05:56:57Z</time></trkpt><trkpt lat="54.184429" lon="27.230626"><ele>192.88</ele><time>2013-06-15T05:57:10Z</time></trkpt><trkpt lat="54.184453" lon="27.230714"><ele>193.36</ele><time>2013-06-15T05:57:13Z</time></trkpt><trkpt lat="54.184570" lon="27.230874"><ele>193.36</ele><time>2013-06-15T05:57:18Z</time></trkpt><trkpt lat="54.184860" lon="27.231453"><ele>193.36</ele><time>2013-06-15T05:57:32Z</time></trkpt><trkpt lat="54.184892" lon="27.231532"><ele>193.36</ele><time>2013-06-15T05:57:34Z</time></trkpt><trkpt lat="54.185093" lon="27.231996"><ele>190.48</ele><time>2013-06-15T05:57:45Z</time></trkpt><trkpt lat="54.185296" lon="27.232420"><ele>191.44</ele><time>2013-06-15T05:57:56Z</time></trkpt><trkpt lat="54.185513" lon="27.232773"><ele>192.40</ele><time>2013-06-15T05:58:06Z</time></trkpt><trkpt lat="54.185754" lon="27.233151"><ele>189.52</ele><time>2013-06-15T05:58:16Z</time></trkpt><trkpt lat="54.186083" lon="27.233464"><ele>190.96</ele><time>2013-06-15T05:58:27Z</time></trkpt><trkpt lat="54.186368" lon="27.233725"><ele>193.84</ele><time>2013-06-15T05:58:39Z</time></trkpt><trkpt lat="54.186721" lon="27.233875"><ele>195.28</ele><time>2013-06-15T05:58:50Z</time></trkpt><trkpt lat="54.187080" lon="27.234105"><ele>195.77</ele><time>2013-06-15T05:59:01Z</time></trkpt><trkpt lat="54.187509" lon="27.234365"><ele>196.25</ele><time>2013-06-15T05:59:13Z</time></trkpt><trkpt lat="54.187746" lon="27.234604"><ele>197.69</ele><time>2013-06-15T05:59:24Z</time></trkpt><trkpt lat="54.187995" lon="27.234815"><ele>198.65</ele><time>2013-06-15T05:59:33Z</time></trkpt><trkpt lat="54.188132" lon="27.234945"><ele>198.17</ele><time>2013-06-15T05:59:39Z</time></trkpt><trkpt lat="54.188398" lon="27.235197"><ele>199.13</ele><time>2013-06-15T05:59:50Z</time></trkpt><trkpt lat="54.188604" lon="27.235335"><ele>199.61</ele><time>2013-06-15T05:59:58Z</time></trkpt><trkpt lat="54.188857" lon="27.235436"><ele>199.61</ele><time>2013-06-15T06:00:10Z</time></trkpt><trkpt lat="54.189168" lon="27.235458"><ele>199.61</ele><time>2013-06-15T06:00:21Z</time></trkpt><trkpt lat="54.189444" lon="27.235494"><ele>196.73</ele><time>2013-06-15T06:00:32Z</time></trkpt><trkpt lat="54.189795" lon="27.235572"><ele>195.28</ele><time>2013-06-15T06:00:46Z</time></trkpt><trkpt lat="54.190018" lon="27.235633"><ele>196.73</ele><time>2013-06-15T06:00:56Z</time></trkpt><trkpt lat="54.190262" lon="27.235626"><ele>198.17</ele><time>2013-06-15T06:01:06Z</time></trkpt><trkpt lat="54.190585" lon="27.235636"><ele>197.69</ele><time>2013-06-15T06:01:18Z</time></trkpt><trkpt lat="54.190805" lon="27.235763"><ele>197.21</ele><time>2013-06-15T06:01:29Z</time></trkpt><trkpt lat="54.190861" lon="27.235827"><ele>195.77</ele><time>2013-06-15T06:01:32Z</time></trkpt><trkpt lat="54.191128" lon="27.236073"><ele>197.69</ele><time>2013-06-15T06:01:44Z</time></trkpt><trkpt lat="54.191460" lon="27.236195"><ele>198.65</ele><time>2013-06-15T06:01:57Z</time></trkpt><trkpt lat="54.191485" lon="27.236202"><ele>199.13</ele><time>2013-06-15T06:01:58Z</time></trkpt><trkpt lat="54.191594" lon="27.236263"><ele>200.09</ele><time>2013-06-15T06:02:03Z</time></trkpt><trkpt lat="54.192043" lon="27.236210"><ele>201.53</ele><time>2013-06-15T06:02:17Z</time></trkpt><trkpt lat="54.192263" lon="27.236187"><ele>202.01</ele><time>2013-06-15T06:02:29Z</time></trkpt><trkpt lat="54.192423" lon="27.236377"><ele>199.61</ele><time>2013-06-15T06:02:39Z</time></trkpt><trkpt lat="54.192648" lon="27.236750"><ele>196.73</ele><time>2013-06-15T06:02:51Z</time></trkpt><trkpt lat="54.192727" lon="27.236836"><ele>196.25</ele><time>2013-06-15T06:02:54Z</time></trkpt><trkpt lat="54.192991" lon="27.236972"><ele>200.57</ele><time>2013-06-15T06:03:05Z</time></trkpt><trkpt lat="54.193264" lon="27.237125"><ele>204.90</ele><time>2013-06-15T06:03:16Z</time></trkpt><trkpt lat="54.193415" lon="27.237473"><ele>206.34</ele><time>2013-06-15T06:03:25Z</time></trkpt><trkpt lat="54.193486" lon="27.237598"><ele>205.86</ele><time>2013-06-15T06:03:29Z</time></trkpt><trkpt lat="54.193781" lon="27.237896"><ele>202.98</ele><time>2013-06-15T06:03:39Z</time></trkpt><trkpt lat="54.194121" lon="27.238064"><ele>197.69</ele><time>2013-06-15T06:03:51Z</time></trkpt><trkpt lat="54.194541" lon="27.238160"><ele>194.80</ele><time>2013-06-15T06:04:05Z</time></trkpt><trkpt lat="54.194896" lon="27.238202"><ele>196.25</ele><time>2013-06-15T06:04:17Z</time></trkpt><trkpt lat="54.195310" lon="27.238027"><ele>193.84</ele><time>2013-06-15T06:04:30Z</time></trkpt><trkpt lat="54.195720" lon="27.237975"><ele>193.84</ele><time>2013-06-15T06:04:43Z</time></trkpt><trkpt lat="54.196110" lon="27.237845"><ele>193.36</ele><time>2013-06-15T06:04:55Z</time></trkpt><trkpt lat="54.196174" lon="27.237842"><ele>192.40</ele><time>2013-06-15T06:05:05Z</time></trkpt><trkpt lat="54.196189" lon="27.237863"><ele>192.40</ele><time>2013-06-15T06:05:12Z</time></trkpt><trkpt lat="54.196225" lon="27.237888"><ele>191.44</ele><time>2013-06-15T06:05:14Z</time></trkpt><trkpt lat="54.196242" lon="27.237892"><ele>191.44</ele><time>2013-06-15T06:05:15Z</time></trkpt><trkpt lat="54.196261" lon="27.237898"><ele>191.44</ele><time>2013-06-15T06:05:16Z</time></trkpt><trkpt lat="54.196286" lon="27.237896"><ele>190.96</ele><time>2013-06-15T06:05:17Z</time></trkpt><trkpt lat="54.196314" lon="27.237895"><ele>190.96</ele><time>2013-06-15T06:05:18Z</time></trkpt><trkpt lat="54.196341" lon="27.237902"><ele>190.48</ele><time>2013-06-15T06:05:19Z</time></trkpt><trkpt lat="54.196366" lon="27.237910"><ele>190.00</ele><time>2013-06-15T06:05:20Z</time></trkpt><trkpt lat="54.196390" lon="27.237916"><ele>189.52</ele><time>2013-06-15T06:05:21Z</time></trkpt><trkpt lat="54.196495" lon="27.237992"><ele>189.04</ele><time>2013-06-15T06:05:25Z</time></trkpt><trkpt lat="54.196508" lon="27.238015"><ele>189.04</ele><time>2013-06-15T06:05:26Z</time></trkpt><trkpt lat="54.196526" lon="27.238038"><ele>189.04</ele><time>2013-06-15T06:05:27Z</time></trkpt><trkpt lat="54.196546" lon="27.238054"><ele>189.04</ele><time>2013-06-15T06:05:28Z</time></trkpt><trkpt lat="54.196573" lon="27.238062"><ele>189.04</ele><time>2013-06-15T06:05:29Z</time></trkpt><trkpt lat="54.196607" lon="27.238066"><ele>189.04</ele><time>2013-06-15T06:05:30Z</time></trkpt><trkpt lat="54.196906" lon="27.238108"><ele>188.08</ele><time>2013-06-15T06:05:40Z</time></trkpt><trkpt lat="54.196950" lon="27.238118"><ele>188.08</ele><time>2013-06-15T06:05:42Z</time></trkpt><trkpt lat="54.196972" lon="27.238119"><ele>188.08</ele><time>2013-06-15T06:05:43Z</time></trkpt><trkpt lat="54.197227" lon="27.238134"><ele>190.00</ele><time>2013-06-15T06:05:55Z</time></trkpt><trkpt lat="54.197356" lon="27.238179"><ele>190.00</ele><time>2013-06-15T06:05:59Z</time></trkpt><trkpt lat="54.197794" lon="27.238186"><ele>197.69</ele><time>2013-06-15T06:06:10Z</time></trkpt><trkpt lat="54.198001" lon="27.238147"><ele>195.77</ele><time>2013-06-15T06:06:12Z</time></trkpt><trkpt lat="54.198054" lon="27.238119"><ele>195.77</ele><time>2013-06-15T06:06:13Z</time></trkpt><trkpt lat="54.198381" lon="27.237904"><ele>195.77</ele><time>2013-06-15T06:06:23Z</time></trkpt><trkpt lat="54.198516" lon="27.237899"><ele>195.28</ele><time>2013-06-15T06:06:34Z</time></trkpt><trkpt lat="54.198524" lon="27.237905"><ele>195.77</ele><time>2013-06-15T06:06:55Z</time></trkpt><trkpt lat="54.198535" lon="27.237924"><ele>196.25</ele><time>2013-06-15T06:06:57Z</time></trkpt><trkpt lat="54.198570" lon="27.237970"><ele>197.21</ele><time>2013-06-15T06:07:07Z</time></trkpt><trkpt lat="54.198644" lon="27.238145"><ele>202.01</ele><time>2013-06-15T06:07:18Z</time></trkpt><trkpt lat="54.198652" lon="27.238227"><ele>203.94</ele><time>2013-06-15T06:07:22Z</time></trkpt><trkpt lat="54.198795" lon="27.238447"><ele>204.90</ele><time>2013-06-15T06:07:37Z</time></trkpt><trkpt lat="54.198805" lon="27.238457"><ele>204.90</ele><time>2013-06-15T06:07:38Z</time></trkpt><trkpt lat="54.198865" lon="27.238520"><ele>204.90</ele><time>2013-06-15T06:07:44Z</time></trkpt><trkpt lat="54.198950" lon="27.238598"><ele>201.05</ele><time>2013-06-15T06:07:57Z</time></trkpt><trkpt lat="54.198966" lon="27.238571"><ele>200.09</ele><time>2013-06-15T06:09:22Z</time></trkpt><trkpt lat="54.198991" lon="27.238596"><ele>199.61</ele><time>2013-06-15T06:10:34Z</time></trkpt><trkpt lat="54.199063" lon="27.238542"><ele>200.57</ele><time>2013-06-15T06:10:43Z</time></trkpt><trkpt lat="54.199079" lon="27.238431"><ele>202.01</ele><time>2013-06-15T06:10:52Z</time></trkpt><trkpt lat="54.199071" lon="27.238390"><ele>203.94</ele><time>2013-06-15T06:11:05Z</time></trkpt><trkpt lat="54.199044" lon="27.238343"><ele>205.86</ele><time>2013-06-15T06:11:20Z</time></trkpt><trkpt lat="54.198947" lon="27.238136"><ele>204.42</ele><time>2013-06-15T06:12:09Z</time></trkpt><trkpt lat="54.198970" lon="27.238148"><ele>202.98</ele><time>2013-06-15T06:12:22Z</time></trkpt><trkpt lat="54.198970" lon="27.238148"><ele>202.98</ele><time>2013-06-15T06:12:39Z</time></trkpt><trkpt lat="54.198945" lon="27.238143"><ele>203.46</ele><time>2013-06-15T06:12:52Z</time></trkpt><trkpt lat="54.198938" lon="27.238151"><ele>204.42</ele><time>2013-06-15T06:13:09Z</time></trkpt><trkpt lat="54.198964" lon="27.238240"><ele>207.30</ele><time>2013-06-15T06:13:13Z</time></trkpt><trkpt lat="54.198953" lon="27.238371"><ele>206.34</ele><time>2013-06-15T06:13:16Z</time></trkpt><trkpt lat="54.199023" lon="27.238526"><ele>200.09</ele><time>2013-06-15T06:13:27Z</time></trkpt><trkpt lat="54.199023" lon="27.238547"><ele>200.09</ele><time>2013-06-15T06:13:47Z</time></trkpt><trkpt lat="54.199034" lon="27.238563"><ele>199.61</ele><time>2013-06-15T06:14:21Z</time></trkpt><trkpt lat="54.199034" lon="27.238563"><ele>199.61</ele><time>2013-06-15T06:14:47Z</time></trkpt><trkpt lat="54.199060" lon="27.238570"><ele>198.17</ele><time>2013-06-15T06:15:20Z</time></trkpt><trkpt lat="54.199060" lon="27.238564"><ele>197.21</ele><time>2013-06-15T06:15:50Z</time></trkpt><trkpt lat="54.199082" lon="27.238562"><ele>196.73</ele><time>2013-06-15T06:16:37Z</time></trkpt><trkpt lat="54.199159" lon="27.238630"><ele>197.69</ele><time>2013-06-15T06:16:49Z</time></trkpt><trkpt lat="54.199270" lon="27.238672"><ele>195.77</ele><time>2013-06-15T06:17:01Z</time></trkpt><trkpt lat="54.199243" lon="27.238574"><ele>194.80</ele><time>2013-06-15T06:17:17Z</time></trkpt><trkpt lat="54.199212" lon="27.238550"><ele>195.28</ele><time>2013-06-15T06:17:22Z</time></trkpt><trkpt lat="54.199109" lon="27.238560"><ele>198.65</ele><time>2013-06-15T06:17:35Z</time></trkpt><trkpt lat="54.199108" lon="27.238543"><ele>197.69</ele><time>2013-06-15T06:18:03Z</time></trkpt><trkpt lat="54.199062" lon="27.238452"><ele>197.21</ele><time>2013-06-15T06:18:14Z</time></trkpt><trkpt lat="54.198988" lon="27.238409"><ele>196.73</ele><time>2013-06-15T06:18:29Z</time></trkpt><trkpt lat="54.198911" lon="27.238344"><ele>197.69</ele><time>2013-06-15T06:18:44Z</time></trkpt><trkpt lat="54.198747" lon="27.238154"><ele>199.61</ele><time>2013-06-15T06:18:54Z</time></trkpt><trkpt lat="54.198610" lon="27.237966"><ele>199.13</ele><time>2013-06-15T06:19:07Z</time></trkpt><trkpt lat="54.198591" lon="27.237910"><ele>200.57</ele><time>2013-06-15T06:19:10Z</time></trkpt><trkpt lat="54.198582" lon="27.237845"><ele>200.57</ele><time>2013-06-15T06:19:13Z</time></trkpt><trkpt lat="54.198597" lon="27.237812"><ele>200.09</ele><time>2013-06-15T06:19:16Z</time></trkpt><trkpt lat="54.198715" lon="27.237809"><ele>201.53</ele><time>2013-06-15T06:19:30Z</time></trkpt><trkpt lat="54.198727" lon="27.237803"><ele>202.01</ele><time>2013-06-15T06:19:31Z</time></trkpt><trkpt lat="54.198885" lon="27.237759"><ele>204.42</ele><time>2013-06-15T06:19:43Z</time></trkpt><trkpt lat="54.198938" lon="27.237747"><ele>204.90</ele><time>2013-06-15T06:20:08Z</time></trkpt><trkpt lat="54.199184" lon="27.237710"><ele>203.46</ele><time>2013-06-15T06:20:43Z</time></trkpt><trkpt lat="54.199395" lon="27.237627"><ele>202.98</ele><time>2013-06-15T06:20:54Z</time></trkpt><trkpt lat="54.199709" lon="27.237345"><ele>200.57</ele><time>2013-06-15T06:21:05Z</time></trkpt><trkpt lat="54.200131" lon="27.237359"><ele>201.05</ele><time>2013-06-15T06:21:17Z</time></trkpt><trkpt lat="54.200395" lon="27.237355"><ele>202.49</ele><time>2013-06-15T06:21:26Z</time></trkpt><trkpt lat="54.200644" lon="27.237323"><ele>204.42</ele><time>2013-06-15T06:21:36Z</time></trkpt><trkpt lat="54.200977" lon="27.237252"><ele>204.42</ele><time>2013-06-15T06:21:46Z</time></trkpt><trkpt lat="54.201301" lon="27.237064"><ele>202.98</ele><time>2013-06-15T06:21:57Z</time></trkpt><trkpt lat="54.201681" lon="27.237083"><ele>202.49</ele><time>2013-06-15T06:22:10Z</time></trkpt><trkpt lat="54.201952" lon="27.237053"><ele>202.49</ele><time>2013-06-15T06:22:21Z</time></trkpt><trkpt lat="54.202283" lon="27.236897"><ele>203.46</ele><time>2013-06-15T06:22:33Z</time></trkpt><trkpt lat="54.202629" lon="27.236586"><ele>202.49</ele><time>2013-06-15T06:22:46Z</time></trkpt><trkpt lat="54.202890" lon="27.236380"><ele>203.94</ele><time>2013-06-15T06:22:57Z</time></trkpt><trkpt lat="54.203187" lon="27.236233"><ele>205.86</ele><time>2013-06-15T06:23:07Z</time></trkpt><trkpt lat="54.203515" lon="27.236099"><ele>205.86</ele><time>2013-06-15T06:23:16Z</time></trkpt><trkpt lat="54.203958" lon="27.235930"><ele>206.82</ele><time>2013-06-15T06:23:27Z</time></trkpt><trkpt lat="54.204317" lon="27.235768"><ele>206.34</ele><time>2013-06-15T06:23:38Z</time></trkpt><trkpt lat="54.204415" lon="27.235750"><ele>206.34</ele><time>2013-06-15T06:23:41Z</time></trkpt><trkpt lat="54.204506" lon="27.235700"><ele>206.34</ele><time>2013-06-15T06:23:46Z</time></trkpt><trkpt lat="54.204910" lon="27.235577"><ele>206.34</ele><time>2013-06-15T06:23:57Z</time></trkpt><trkpt lat="54.205307" lon="27.235390"><ele>204.42</ele><time>2013-06-15T06:24:07Z</time></trkpt><trkpt lat="54.205770" lon="27.235203"><ele>201.05</ele><time>2013-06-15T06:24:20Z</time></trkpt><trkpt lat="54.206196" lon="27.235057"><ele>201.05</ele><time>2013-06-15T06:24:30Z</time></trkpt><trkpt lat="54.206530" lon="27.234901"><ele>202.98</ele><time>2013-06-15T06:24:42Z</time></trkpt><trkpt lat="54.206885" lon="27.234769"><ele>202.01</ele><time>2013-06-15T06:24:55Z</time></trkpt><trkpt lat="54.207621" lon="27.234334"><ele>193.36</ele><time>2013-06-15T06:25:10Z</time></trkpt><trkpt lat="54.208139" lon="27.234090"><ele>192.88</ele><time>2013-06-15T06:25:27Z</time></trkpt><trkpt lat="54.208613" lon="27.233832"><ele>191.44</ele><time>2013-06-15T06:25:44Z</time></trkpt><trkpt lat="54.208992" lon="27.233465"><ele>191.44</ele><time>2013-06-15T06:25:58Z</time></trkpt><trkpt lat="54.209350" lon="27.232928"><ele>189.52</ele><time>2013-06-15T06:26:14Z</time></trkpt><trkpt lat="54.209617" lon="27.232431"><ele>190.00</ele><time>2013-06-15T06:26:29Z</time></trkpt><trkpt lat="54.209905" lon="27.232000"><ele>189.52</ele><time>2013-06-15T06:26:42Z</time></trkpt><trkpt lat="54.210218" lon="27.231692"><ele>190.48</ele><time>2013-06-15T06:26:55Z</time></trkpt><trkpt lat="54.210573" lon="27.231605"><ele>190.48</ele><time>2013-06-15T06:27:09Z</time></trkpt><trkpt lat="54.211085" lon="27.231595"><ele>190.48</ele><time>2013-06-15T06:27:25Z</time></trkpt><trkpt lat="54.211623" lon="27.231588"><ele>190.00</ele><time>2013-06-15T06:27:41Z</time></trkpt><trkpt lat="54.212012" lon="27.231587"><ele>190.00</ele><time>2013-06-15T06:27:54Z</time></trkpt><trkpt lat="54.212208" lon="27.231562"><ele>190.00</ele><time>2013-06-15T06:27:59Z</time></trkpt><trkpt lat="54.212833" lon="27.231473"><ele>190.96</ele><time>2013-06-15T06:28:15Z</time></trkpt><trkpt lat="54.213592" lon="27.231243"><ele>190.00</ele><time>2013-06-15T06:28:35Z</time></trkpt><trkpt lat="54.214227" lon="27.230952"><ele>190.96</ele><time>2013-06-15T06:28:51Z</time></trkpt><trkpt lat="54.214264" lon="27.230924"><ele>190.96</ele><time>2013-06-15T06:28:52Z</time></trkpt><trkpt lat="54.214300" lon="27.230897"><ele>190.96</ele><time>2013-06-15T06:28:53Z</time></trkpt><trkpt lat="54.214719" lon="27.230611"><ele>190.48</ele><time>2013-06-15T06:29:06Z</time></trkpt><trkpt lat="54.215308" lon="27.230518"><ele>190.48</ele><time>2013-06-15T06:29:22Z</time></trkpt><trkpt lat="54.215931" lon="27.230545"><ele>190.96</ele><time>2013-06-15T06:29:39Z</time></trkpt><trkpt lat="54.216504" lon="27.230519"><ele>190.00</ele><time>2013-06-15T06:29:55Z</time></trkpt><trkpt lat="54.217052" lon="27.230465"><ele>189.52</ele><time>2013-06-15T06:30:10Z</time></trkpt><trkpt lat="54.217672" lon="27.230528"><ele>189.52</ele><time>2013-06-15T06:30:27Z</time></trkpt><trkpt lat="54.218171" lon="27.230567"><ele>190.00</ele><time>2013-06-15T06:30:42Z</time></trkpt><trkpt lat="54.218773" lon="27.230575"><ele>189.52</ele><time>2013-06-15T06:30:59Z</time></trkpt><trkpt lat="54.219326" lon="27.230547"><ele>189.52</ele><time>2013-06-15T06:31:14Z</time></trkpt><trkpt lat="54.219892" lon="27.230527"><ele>189.04</ele><time>2013-06-15T06:31:30Z</time></trkpt><trkpt lat="54.220439" lon="27.230525"><ele>188.08</ele><time>2013-06-15T06:31:46Z</time></trkpt><trkpt lat="54.221211" lon="27.230630"><ele>186.63</ele><time>2013-06-15T06:32:06Z</time></trkpt><trkpt lat="54.221849" lon="27.230794"><ele>187.11</ele><time>2013-06-15T06:32:22Z</time></trkpt><trkpt lat="54.222477" lon="27.230955"><ele>186.63</ele><time>2013-06-15T06:32:39Z</time></trkpt><trkpt lat="54.222925" lon="27.231075"><ele>185.67</ele><time>2013-06-15T06:32:55Z</time></trkpt><trkpt lat="54.223276" lon="27.231219"><ele>186.63</ele><time>2013-06-15T06:33:12Z</time></trkpt><trkpt lat="54.223622" lon="27.231371"><ele>187.11</ele><time>2013-06-15T06:33:28Z</time></trkpt><trkpt lat="54.223798" lon="27.231451"><ele>187.59</ele><time>2013-06-15T06:33:39Z</time></trkpt><trkpt lat="54.223832" lon="27.231473"><ele>186.63</ele><time>2013-06-15T06:33:55Z</time></trkpt><trkpt lat="54.223851" lon="27.231465"><ele>186.15</ele><time>2013-06-15T06:34:11Z</time></trkpt><trkpt lat="54.223839" lon="27.231439"><ele>186.63</ele><time>2013-06-15T06:34:13Z</time></trkpt><trkpt lat="54.223827" lon="27.231427"><ele>186.63</ele><time>2013-06-15T06:34:14Z</time></trkpt><trkpt lat="54.223814" lon="27.231415"><ele>186.63</ele><time>2013-06-15T06:34:15Z</time></trkpt><trkpt lat="54.223798" lon="27.231401"><ele>186.63</ele><time>2013-06-15T06:34:16Z</time></trkpt><trkpt lat="54.223776" lon="27.231382"><ele>187.11</ele><time>2013-06-15T06:34:17Z</time></trkpt><trkpt lat="54.223755" lon="27.231368"><ele>187.11</ele><time>2013-06-15T06:34:18Z</time></trkpt><trkpt lat="54.223733" lon="27.231345"><ele>187.11</ele><time>2013-06-15T06:34:19Z</time></trkpt><trkpt lat="54.223707" lon="27.231321"><ele>187.11</ele><time>2013-06-15T06:34:20Z</time></trkpt><trkpt lat="54.223246" lon="27.231111"><ele>187.11</ele><time>2013-06-15T06:34:33Z</time></trkpt><trkpt lat="54.222629" lon="27.230892"><ele>187.11</ele><time>2013-06-15T06:34:49Z</time></trkpt><trkpt lat="54.221968" lon="27.230736"><ele>187.11</ele><time>2013-06-15T06:35:06Z</time></trkpt><trkpt lat="54.221226" lon="27.230549"><ele>188.08</ele><time>2013-06-15T06:35:25Z</time></trkpt><trkpt lat="54.220500" lon="27.230442"><ele>189.52</ele><time>2013-06-15T06:35:44Z</time></trkpt><trkpt lat="54.219795" lon="27.230458"><ele>189.52</ele><time>2013-06-15T06:36:03Z</time></trkpt><trkpt lat="54.219480" lon="27.230425"><ele>188.56</ele><time>2013-06-15T06:36:13Z</time></trkpt><trkpt lat="54.219469" lon="27.230385"><ele>188.56</ele><time>2013-06-15T06:36:14Z</time></trkpt><trkpt lat="54.219462" lon="27.230335"><ele>188.56</ele><time>2013-06-15T06:36:15Z</time></trkpt><trkpt lat="54.219458" lon="27.230280"><ele>188.56</ele><time>2013-06-15T06:36:16Z</time></trkpt><trkpt lat="54.219456" lon="27.230222"><ele>188.08</ele><time>2013-06-15T06:36:17Z</time></trkpt><trkpt lat="54.219457" lon="27.229466"><ele>188.08</ele><time>2013-06-15T06:36:32Z</time></trkpt><trkpt lat="54.219459" lon="27.228953"><ele>187.11</ele><time>2013-06-15T06:36:47Z</time></trkpt><trkpt lat="54.219447" lon="27.228374"><ele>188.08</ele><time>2013-06-15T06:37:02Z</time></trkpt><trkpt lat="54.219390" lon="27.227950"><ele>189.04</ele><time>2013-06-15T06:37:17Z</time></trkpt><trkpt lat="54.219379" lon="27.227896"><ele>190.00</ele><time>2013-06-15T06:37:25Z</time></trkpt><trkpt lat="54.219377" lon="27.227881"><ele>190.00</ele><time>2013-06-15T06:37:26Z</time></trkpt><trkpt lat="54.219373" lon="27.227862"><ele>190.48</ele><time>2013-06-15T06:37:27Z</time></trkpt><trkpt lat="54.219355" lon="27.227649"><ele>191.44</ele><time>2013-06-15T06:37:41Z</time></trkpt><trkpt lat="54.219356" lon="27.227643"><ele>190.96</ele><time>2013-06-15T06:38:01Z</time></trkpt><trkpt lat="54.219412" lon="27.227623"><ele>190.00</ele><time>2013-06-15T06:38:10Z</time></trkpt><trkpt lat="54.219434" lon="27.227675"><ele>189.52</ele><time>2013-06-15T06:38:15Z</time></trkpt><trkpt lat="54.219477" lon="27.227760"><ele>190.48</ele><time>2013-06-15T06:38:21Z</time></trkpt><trkpt lat="54.219492" lon="27.227830"><ele>191.44</ele><time>2013-06-15T06:38:25Z</time></trkpt><trkpt lat="54.219545" lon="27.227939"><ele>192.40</ele><time>2013-06-15T06:38:32Z</time></trkpt><trkpt lat="54.219609" lon="27.228088"><ele>192.40</ele><time>2013-06-15T06:38:45Z</time></trkpt><trkpt lat="54.219693" lon="27.228259"><ele>192.40</ele><time>2013-06-15T06:38:58Z</time></trkpt><trkpt lat="54.219880" lon="27.228575"><ele>191.92</ele><time>2013-06-15T06:39:08Z</time></trkpt><trkpt lat="54.220174" lon="27.228810"><ele>190.96</ele><time>2013-06-15T06:39:18Z</time></trkpt><trkpt lat="54.220466" lon="27.228870"><ele>189.04</ele><time>2013-06-15T06:39:28Z</time></trkpt><trkpt lat="54.220895" lon="27.228734"><ele>188.08</ele><time>2013-06-15T06:39:43Z</time></trkpt><trkpt lat="54.220966" lon="27.228700"><ele>188.56</ele><time>2013-06-15T06:39:46Z</time></trkpt><trkpt lat="54.220990" lon="27.228700"><ele>188.08</ele><time>2013-06-15T06:39:59Z</time></trkpt><trkpt lat="54.221020" lon="27.228660"><ele>188.08</ele><time>2013-06-15T06:40:14Z</time></trkpt><trkpt lat="54.221022" lon="27.228656"><ele>188.08</ele><time>2013-06-15T06:40:40Z</time></trkpt><trkpt lat="54.221159" lon="27.228614"><ele>189.04</ele><time>2013-06-15T06:40:57Z</time></trkpt><trkpt lat="54.221531" lon="27.228331"><ele>189.04</ele><time>2013-06-15T06:41:10Z</time></trkpt><trkpt lat="54.221831" lon="27.227994"><ele>189.04</ele><time>2013-06-15T06:41:23Z</time></trkpt><trkpt lat="54.222134" lon="27.227642"><ele>192.40</ele><time>2013-06-15T06:41:37Z</time></trkpt><trkpt lat="54.222213" lon="27.227568"><ele>193.36</ele><time>2013-06-15T06:41:42Z</time></trkpt><trkpt lat="54.222401" lon="27.227415"><ele>193.84</ele><time>2013-06-15T06:41:51Z</time></trkpt><trkpt lat="54.222712" lon="27.227106"><ele>194.80</ele><time>2013-06-15T06:42:04Z</time></trkpt><trkpt lat="54.222972" lon="27.226871"><ele>195.28</ele><time>2013-06-15T06:42:14Z</time></trkpt><trkpt lat="54.223280" lon="27.226605"><ele>200.57</ele><time>2013-06-15T06:42:27Z</time></trkpt><trkpt lat="54.223575" lon="27.226276"><ele>202.49</ele><time>2013-06-15T06:42:37Z</time></trkpt><trkpt lat="54.223866" lon="27.225964"><ele>202.49</ele><time>2013-06-15T06:42:46Z</time></trkpt><trkpt lat="54.224241" lon="27.225565"><ele>202.98</ele><time>2013-06-15T06:42:58Z</time></trkpt><trkpt lat="54.224555" lon="27.225138"><ele>202.98</ele><time>2013-06-15T06:43:11Z</time></trkpt><trkpt lat="54.224870" lon="27.224870"><ele>203.94</ele><time>2013-06-15T06:43:22Z</time></trkpt><trkpt lat="54.224930" lon="27.224787"><ele>203.46</ele><time>2013-06-15T06:43:25Z</time></trkpt><trkpt lat="54.225030" lon="27.224708"><ele>203.46</ele><time>2013-06-15T06:43:29Z</time></trkpt><trkpt lat="54.225114" lon="27.224685"><ele>203.46</ele><time>2013-06-15T06:43:46Z</time></trkpt><trkpt lat="54.225162" lon="27.224634"><ele>202.98</ele><time>2013-06-15T06:44:03Z</time></trkpt><trkpt lat="54.225283" lon="27.224447"><ele>200.57</ele><time>2013-06-15T06:47:00Z</time></trkpt><trkpt lat="54.225299" lon="27.224392"><ele>199.61</ele><time>2013-06-15T06:47:09Z</time></trkpt><trkpt lat="54.225256" lon="27.224418"><ele>197.69</ele><time>2013-06-15T06:47:15Z</time></trkpt><trkpt lat="54.225202" lon="27.224419"><ele>198.65</ele><time>2013-06-15T06:47:19Z</time></trkpt><trkpt lat="54.225034" lon="27.224504"><ele>202.01</ele><time>2013-06-15T06:47:30Z</time></trkpt><trkpt lat="54.224960" lon="27.224593"><ele>203.46</ele><time>2013-06-15T06:47:34Z</time></trkpt><trkpt lat="54.224634" lon="27.224795"><ele>211.15</ele><time>2013-06-15T06:47:46Z</time></trkpt><trkpt lat="54.224417" lon="27.225069"><ele>217.40</ele><time>2013-06-15T06:47:56Z</time></trkpt><trkpt lat="54.224370" lon="27.225096"><ele>218.36</ele><time>2013-06-15T06:48:07Z</time></trkpt><trkpt lat="54.224370" lon="27.225096"><ele>218.36</ele><time>2013-06-15T06:48:27Z</time></trkpt><trkpt lat="54.224346" lon="27.225100"><ele>218.36</ele><time>2013-06-15T06:48:33Z</time></trkpt><trkpt lat="54.224365" lon="27.225147"><ele>218.36</ele><time>2013-06-15T06:48:53Z</time></trkpt><trkpt lat="54.224367" lon="27.225212"><ele>216.91</ele><time>2013-06-15T06:51:35Z</time></trkpt><trkpt lat="54.224359" lon="27.225249"><ele>216.43</ele><time>2013-06-15T06:55:17Z</time></trkpt><trkpt lat="54.224347" lon="27.225241"><ele>216.43</ele><time>2013-06-15T06:55:41Z</time></trkpt><trkpt lat="54.224399" lon="27.225243"><ele>218.36</ele><time>2013-06-15T06:56:03Z</time></trkpt><trkpt lat="54.224434" lon="27.225192"><ele>219.80</ele><time>2013-06-15T06:56:07Z</time></trkpt><trkpt lat="54.224500" lon="27.225108"><ele>221.24</ele><time>2013-06-15T06:56:11Z</time></trkpt><trkpt lat="54.224623" lon="27.224999"><ele>222.68</ele><time>2013-06-15T06:56:19Z</time></trkpt><trkpt lat="54.224832" lon="27.224894"><ele>221.24</ele><time>2013-06-15T06:56:32Z</time></trkpt><trkpt lat="54.224874" lon="27.224854"><ele>220.76</ele><time>2013-06-15T06:57:37Z</time></trkpt><trkpt lat="54.225061" lon="27.224716"><ele>219.32</ele><time>2013-06-15T06:57:49Z</time></trkpt><trkpt lat="54.225149" lon="27.224644"><ele>217.40</ele><time>2013-06-15T06:58:04Z</time></trkpt><trkpt lat="54.225149" lon="27.224644"><ele>217.40</ele><time>2013-06-15T06:58:07Z</time></trkpt><trkpt lat="54.225230" lon="27.224525"><ele>216.43</ele><time>2013-06-15T06:58:12Z</time></trkpt><trkpt lat="54.225394" lon="27.224420"><ele>213.07</ele><time>2013-06-15T06:58:22Z</time></trkpt><trkpt lat="54.225463" lon="27.224360"><ele>212.11</ele><time>2013-06-15T06:58:26Z</time></trkpt><trkpt lat="54.225517" lon="27.224214"><ele>212.59</ele><time>2013-06-15T06:58:31Z</time></trkpt><trkpt lat="54.225898" lon="27.223614"><ele>212.11</ele><time>2013-06-15T06:58:46Z</time></trkpt><trkpt lat="54.226273" lon="27.223060"><ele>204.42</ele><time>2013-06-15T06:58:58Z</time></trkpt><trkpt lat="54.226585" lon="27.222459"><ele>200.57</ele><time>2013-06-15T06:59:12Z</time></trkpt><trkpt lat="54.226881" lon="27.221852"><ele>197.69</ele><time>2013-06-15T06:59:26Z</time></trkpt><trkpt lat="54.227070" lon="27.221466"><ele>197.69</ele><time>2013-06-15T06:59:36Z</time></trkpt><trkpt lat="54.227406" lon="27.221007"><ele>196.25</ele><time>2013-06-15T06:59:49Z</time></trkpt><trkpt lat="54.227671" lon="27.220665"><ele>194.80</ele><time>2013-06-15T07:00:00Z</time></trkpt><trkpt lat="54.227998" lon="27.220269"><ele>193.36</ele><time>2013-06-15T07:00:13Z</time></trkpt><trkpt lat="54.228327" lon="27.219940"><ele>194.80</ele><time>2013-06-15T07:00:27Z</time></trkpt><trkpt lat="54.228582" lon="27.219782"><ele>196.73</ele><time>2013-06-15T07:00:38Z</time></trkpt><trkpt lat="54.228904" lon="27.219562"><ele>198.65</ele><time>2013-06-15T07:00:50Z</time></trkpt><trkpt lat="54.229249" lon="27.219253"><ele>198.17</ele><time>2013-06-15T07:01:02Z</time></trkpt><trkpt lat="54.229611" lon="27.218978"><ele>198.17</ele><time>2013-06-15T07:01:14Z</time></trkpt><trkpt lat="54.229898" lon="27.218764"><ele>198.65</ele><time>2013-06-15T07:01:23Z</time></trkpt><trkpt lat="54.230177" lon="27.218526"><ele>196.73</ele><time>2013-06-15T07:01:34Z</time></trkpt><trkpt lat="54.230464" lon="27.218269"><ele>195.77</ele><time>2013-06-15T07:01:44Z</time></trkpt><trkpt lat="54.230758" lon="27.218045"><ele>196.25</ele><time>2013-06-15T07:01:55Z</time></trkpt><trkpt lat="54.231049" lon="27.217788"><ele>195.28</ele><time>2013-06-15T07:02:06Z</time></trkpt><trkpt lat="54.231329" lon="27.217360"><ele>194.80</ele><time>2013-06-15T07:02:18Z</time></trkpt><trkpt lat="54.231410" lon="27.217238"><ele>194.80</ele><time>2013-06-15T07:02:22Z</time></trkpt><trkpt lat="54.231507" lon="27.217091"><ele>193.84</ele><time>2013-06-15T07:02:26Z</time></trkpt><trkpt lat="54.231806" lon="27.216604"><ele>195.77</ele><time>2013-06-15T07:02:39Z</time></trkpt><trkpt lat="54.232080" lon="27.216154"><ele>198.17</ele><time>2013-06-15T07:02:52Z</time></trkpt><trkpt lat="54.232355" lon="27.215846"><ele>202.01</ele><time>2013-06-15T07:03:05Z</time></trkpt><trkpt lat="54.232538" lon="27.215686"><ele>202.01</ele><time>2013-06-15T07:03:15Z</time></trkpt><trkpt lat="54.232748" lon="27.215449"><ele>202.49</ele><time>2013-06-15T07:03:26Z</time></trkpt><trkpt lat="54.233116" lon="27.215073"><ele>202.49</ele><time>2013-06-15T07:03:39Z</time></trkpt><trkpt lat="54.233388" lon="27.214722"><ele>201.53</ele><time>2013-06-15T07:03:51Z</time></trkpt><trkpt lat="54.233541" lon="27.214561"><ele>202.01</ele><time>2013-06-15T07:04:01Z</time></trkpt><trkpt lat="54.233624" lon="27.214458"><ele>201.53</ele><time>2013-06-15T07:04:33Z</time></trkpt><trkpt lat="54.233708" lon="27.214367"><ele>200.57</ele><time>2013-06-15T07:04:37Z</time></trkpt><trkpt lat="54.234044" lon="27.214061"><ele>195.77</ele><time>2013-06-15T07:04:50Z</time></trkpt><trkpt lat="54.234361" lon="27.213733"><ele>193.36</ele><time>2013-06-15T07:05:02Z</time></trkpt><trkpt lat="54.234663" lon="27.213320"><ele>192.40</ele><time>2013-06-15T07:05:15Z</time></trkpt><trkpt lat="54.234950" lon="27.212934"><ele>192.88</ele><time>2013-06-15T07:05:25Z</time></trkpt><trkpt lat="54.235242" lon="27.212606"><ele>191.92</ele><time>2013-06-15T07:05:37Z</time></trkpt><trkpt lat="54.235506" lon="27.212351"><ele>192.40</ele><time>2013-06-15T07:05:48Z</time></trkpt><trkpt lat="54.235525" lon="27.212338"><ele>192.40</ele><time>2013-06-15T07:05:49Z</time></trkpt><trkpt lat="54.235809" lon="27.212005"><ele>191.44</ele><time>2013-06-15T07:06:02Z</time></trkpt><trkpt lat="54.236041" lon="27.211753"><ele>191.44</ele><time>2013-06-15T07:06:12Z</time></trkpt><trkpt lat="54.236289" lon="27.211435"><ele>192.88</ele><time>2013-06-15T07:06:25Z</time></trkpt><trkpt lat="54.236528" lon="27.211177"><ele>191.44</ele><time>2013-06-15T07:06:36Z</time></trkpt><trkpt lat="54.236849" lon="27.210840"><ele>189.52</ele><time>2013-06-15T07:06:47Z</time></trkpt><trkpt lat="54.237002" lon="27.210644"><ele>189.04</ele><time>2013-06-15T07:06:55Z</time></trkpt><trkpt lat="54.237257" lon="27.210323"><ele>186.63</ele><time>2013-06-15T07:07:08Z</time></trkpt><trkpt lat="54.237338" lon="27.210218"><ele>186.63</ele><time>2013-06-15T07:07:12Z</time></trkpt><trkpt lat="54.237458" lon="27.210073"><ele>186.15</ele><time>2013-06-15T07:07:17Z</time></trkpt><trkpt lat="54.237699" lon="27.209814"><ele>187.11</ele><time>2013-06-15T07:07:27Z</time></trkpt><trkpt lat="54.237955" lon="27.209447"><ele>185.19</ele><time>2013-06-15T07:07:39Z</time></trkpt><trkpt lat="54.238209" lon="27.209167"><ele>185.67</ele><time>2013-06-15T07:07:49Z</time></trkpt><trkpt lat="54.238487" lon="27.208819"><ele>185.67</ele><time>2013-06-15T07:08:00Z</time></trkpt><trkpt lat="54.238806" lon="27.208523"><ele>186.63</ele><time>2013-06-15T07:08:13Z</time></trkpt><trkpt lat="54.239198" lon="27.208103"><ele>189.04</ele><time>2013-06-15T07:08:28Z</time></trkpt><trkpt lat="54.239467" lon="27.207770"><ele>187.59</ele><time>2013-06-15T07:08:40Z</time></trkpt><trkpt lat="54.239701" lon="27.207460"><ele>187.11</ele><time>2013-06-15T07:08:52Z</time></trkpt><trkpt lat="54.239887" lon="27.207192"><ele>185.19</ele><time>2013-06-15T07:09:04Z</time></trkpt><trkpt lat="54.240255" lon="27.206764"><ele>183.75</ele><time>2013-06-15T07:09:18Z</time></trkpt><trkpt lat="54.240556" lon="27.206463"><ele>183.75</ele><time>2013-06-15T07:09:31Z</time></trkpt><trkpt lat="54.240771" lon="27.206280"><ele>187.11</ele><time>2013-06-15T07:09:42Z</time></trkpt><trkpt lat="54.240913" lon="27.206214"><ele>192.40</ele><time>2013-06-15T07:09:54Z</time></trkpt><trkpt lat="54.241165" lon="27.206162"><ele>200.57</ele><time>2013-06-15T07:10:05Z</time></trkpt><trkpt lat="54.241197" lon="27.206166"><ele>201.53</ele><time>2013-06-15T07:10:07Z</time></trkpt><trkpt lat="54.241276" lon="27.206144"><ele>202.49</ele><time>2013-06-15T07:10:11Z</time></trkpt><trkpt lat="54.241663" lon="27.206110"><ele>205.38</ele><time>2013-06-15T07:10:22Z</time></trkpt><trkpt lat="54.242017" lon="27.206081"><ele>205.38</ele><time>2013-06-15T07:10:32Z</time></trkpt><trkpt lat="54.242265" lon="27.206180"><ele>204.42</ele><time>2013-06-15T07:10:40Z</time></trkpt><trkpt lat="54.242622" lon="27.206416"><ele>200.09</ele><time>2013-06-15T07:10:52Z</time></trkpt><trkpt lat="54.242967" lon="27.206602"><ele>195.77</ele><time>2013-06-15T07:11:04Z</time></trkpt><trkpt lat="54.243186" lon="27.206886"><ele>191.92</ele><time>2013-06-15T07:11:15Z</time></trkpt><trkpt lat="54.243407" lon="27.207195"><ele>189.04</ele><time>2013-06-15T07:11:25Z</time></trkpt><trkpt lat="54.243720" lon="27.207586"><ele>188.08</ele><time>2013-06-15T07:11:38Z</time></trkpt><trkpt lat="54.243979" lon="27.207849"><ele>188.08</ele><time>2013-06-15T07:11:48Z</time></trkpt><trkpt lat="54.244233" lon="27.208119"><ele>188.56</ele><time>2013-06-15T07:11:59Z</time></trkpt><trkpt lat="54.244381" lon="27.208339"><ele>189.04</ele><time>2013-06-15T07:12:07Z</time></trkpt><trkpt lat="54.244761" lon="27.208577"><ele>187.59</ele><time>2013-06-15T07:12:20Z</time></trkpt><trkpt lat="54.245074" lon="27.208761"><ele>188.56</ele><time>2013-06-15T07:12:33Z</time></trkpt><trkpt lat="54.245416" lon="27.208860"><ele>192.40</ele><time>2013-06-15T07:12:45Z</time></trkpt><trkpt lat="54.245737" lon="27.208969"><ele>197.21</ele><time>2013-06-15T07:12:57Z</time></trkpt><trkpt lat="54.246020" lon="27.208935"><ele>199.13</ele><time>2013-06-15T07:13:07Z</time></trkpt><trkpt lat="54.246302" lon="27.208915"><ele>200.09</ele><time>2013-06-15T07:13:18Z</time></trkpt><trkpt lat="54.246609" lon="27.208822"><ele>202.49</ele><time>2013-06-15T07:13:31Z</time></trkpt><trkpt lat="54.246876" lon="27.209067"><ele>202.49</ele><time>2013-06-15T07:13:42Z</time></trkpt><trkpt lat="54.247057" lon="27.209349"><ele>199.13</ele><time>2013-06-15T07:13:51Z</time></trkpt><trkpt lat="54.247212" lon="27.209451"><ele>196.73</ele><time>2013-06-15T07:13:58Z</time></trkpt><trkpt lat="54.247437" lon="27.209710"><ele>196.73</ele><time>2013-06-15T07:14:08Z</time></trkpt><trkpt lat="54.247641" lon="27.210024"><ele>197.21</ele><time>2013-06-15T07:14:18Z</time></trkpt><trkpt lat="54.247873" lon="27.210396"><ele>193.36</ele><time>2013-06-15T07:14:31Z</time></trkpt><trkpt lat="54.248099" lon="27.210623"><ele>190.96</ele><time>2013-06-15T07:14:41Z</time></trkpt><trkpt lat="54.248341" lon="27.210770"><ele>191.44</ele><time>2013-06-15T07:14:52Z</time></trkpt><trkpt lat="54.248596" lon="27.210863"><ele>192.40</ele><time>2013-06-15T07:15:03Z</time></trkpt><trkpt lat="54.248720" lon="27.210894"><ele>194.32</ele><time>2013-06-15T07:15:09Z</time></trkpt><trkpt lat="54.249051" lon="27.210888"><ele>200.57</ele><time>2013-06-15T07:15:23Z</time></trkpt><trkpt lat="54.249287" lon="27.210817"><ele>207.30</ele><time>2013-06-15T07:15:34Z</time></trkpt><trkpt lat="54.249617" lon="27.210672"><ele>207.30</ele><time>2013-06-15T07:15:47Z</time></trkpt><trkpt lat="54.249946" lon="27.210505"><ele>208.26</ele><time>2013-06-15T07:15:59Z</time></trkpt><trkpt lat="54.250346" lon="27.210424"><ele>207.30</ele><time>2013-06-15T07:16:12Z</time></trkpt><trkpt lat="54.250688" lon="27.210345"><ele>206.82</ele><time>2013-06-15T07:16:23Z</time></trkpt><trkpt lat="54.251045" lon="27.210277"><ele>205.38</ele><time>2013-06-15T07:16:36Z</time></trkpt><trkpt lat="54.251409" lon="27.210221"><ele>199.61</ele><time>2013-06-15T07:16:50Z</time></trkpt><trkpt lat="54.251568" lon="27.210181"><ele>199.13</ele><time>2013-06-15T07:16:58Z</time></trkpt><trkpt lat="54.251898" lon="27.209930"><ele>199.13</ele><time>2013-06-15T07:17:11Z</time></trkpt><trkpt lat="54.252356" lon="27.209629"><ele>195.28</ele><time>2013-06-15T07:17:26Z</time></trkpt><trkpt lat="54.252680" lon="27.209509"><ele>194.32</ele><time>2013-06-15T07:17:36Z</time></trkpt><trkpt lat="54.253019" lon="27.209507"><ele>195.77</ele><time>2013-06-15T07:17:48Z</time></trkpt><trkpt lat="54.253372" lon="27.209583"><ele>197.69</ele><time>2013-06-15T07:18:01Z</time></trkpt><trkpt lat="54.253702" lon="27.209550"><ele>198.17</ele><time>2013-06-15T07:18:13Z</time></trkpt><trkpt lat="54.254003" lon="27.209535"><ele>199.13</ele><time>2013-06-15T07:18:25Z</time></trkpt><trkpt lat="54.254347" lon="27.209514"><ele>200.57</ele><time>2013-06-15T07:18:39Z</time></trkpt><trkpt lat="54.254642" lon="27.209522"><ele>202.01</ele><time>2013-06-15T07:18:50Z</time></trkpt><trkpt lat="54.254888" lon="27.209485"><ele>200.09</ele><time>2013-06-15T07:19:01Z</time></trkpt><trkpt lat="54.255241" lon="27.209372"><ele>200.09</ele><time>2013-06-15T07:19:12Z</time></trkpt><trkpt lat="54.255621" lon="27.209304"><ele>202.49</ele><time>2013-06-15T07:19:25Z</time></trkpt><trkpt lat="54.256019" lon="27.209359"><ele>202.98</ele><time>2013-06-15T07:19:37Z</time></trkpt><trkpt lat="54.256447" lon="27.209316"><ele>201.05</ele><time>2013-06-15T07:19:51Z</time></trkpt><trkpt lat="54.256851" lon="27.209298"><ele>199.13</ele><time>2013-06-15T07:20:04Z</time></trkpt><trkpt lat="54.257180" lon="27.209337"><ele>196.25</ele><time>2013-06-15T07:20:18Z</time></trkpt><trkpt lat="54.257585" lon="27.209284"><ele>188.08</ele><time>2013-06-15T07:20:31Z</time></trkpt><trkpt lat="54.258222" lon="27.209128"><ele>183.75</ele><time>2013-06-15T07:20:48Z</time></trkpt><trkpt lat="54.258869" lon="27.208961"><ele>181.83</ele><time>2013-06-15T07:21:05Z</time></trkpt><trkpt lat="54.259494" lon="27.208903"><ele>181.35</ele><time>2013-06-15T07:21:22Z</time></trkpt><trkpt lat="54.259845" lon="27.209328"><ele>180.87</ele><time>2013-06-15T07:21:34Z</time></trkpt><trkpt lat="54.260251" lon="27.209777"><ele>180.38</ele><time>2013-06-15T07:21:49Z</time></trkpt><trkpt lat="54.260710" lon="27.209939"><ele>179.90</ele><time>2013-06-15T07:22:04Z</time></trkpt><trkpt lat="54.261248" lon="27.210029"><ele>179.42</ele><time>2013-06-15T07:22:20Z</time></trkpt><trkpt lat="54.261785" lon="27.210222"><ele>179.42</ele><time>2013-06-15T07:22:37Z</time></trkpt><trkpt lat="54.262341" lon="27.210222"><ele>180.38</ele><time>2013-06-15T07:22:55Z</time></trkpt><trkpt lat="54.262906" lon="27.210235"><ele>179.90</ele><time>2013-06-15T07:23:12Z</time></trkpt><trkpt lat="54.263442" lon="27.210183"><ele>179.90</ele><time>2013-06-15T07:23:28Z</time></trkpt><trkpt lat="54.263960" lon="27.209874"><ele>179.90</ele><time>2013-06-15T07:23:45Z</time></trkpt><trkpt lat="54.264451" lon="27.209426"><ele>179.90</ele><time>2013-06-15T07:24:03Z</time></trkpt><trkpt lat="54.264914" lon="27.209047"><ele>179.90</ele><time>2013-06-15T07:24:19Z</time></trkpt><trkpt lat="54.265377" lon="27.208918"><ele>179.42</ele><time>2013-06-15T07:24:35Z</time></trkpt><trkpt lat="54.265781" lon="27.208894"><ele>179.42</ele><time>2013-06-15T07:24:50Z</time></trkpt><trkpt lat="54.266010" lon="27.208863"><ele>179.90</ele><time>2013-06-15T07:25:02Z</time></trkpt><trkpt lat="54.266528" lon="27.208759"><ele>179.90</ele><time>2013-06-15T07:25:16Z</time></trkpt><trkpt lat="54.267128" lon="27.208742"><ele>180.38</ele><time>2013-06-15T07:25:32Z</time></trkpt><trkpt lat="54.267462" lon="27.208753"><ele>180.38</ele><time>2013-06-15T07:25:45Z</time></trkpt><trkpt lat="54.267510" lon="27.208749"><ele>179.90</ele><time>2013-06-15T07:25:54Z</time></trkpt><trkpt lat="54.267675" lon="27.208714"><ele>179.42</ele><time>2013-06-15T07:26:07Z</time></trkpt><trkpt lat="54.267913" lon="27.208650"><ele>179.42</ele><time>2013-06-15T07:26:19Z</time></trkpt><trkpt lat="54.267951" lon="27.208631"><ele>179.90</ele><time>2013-06-15T07:26:26Z</time></trkpt><trkpt lat="54.267987" lon="27.208606"><ele>180.38</ele><time>2013-06-15T07:26:29Z</time></trkpt><trkpt lat="54.268105" lon="27.208592"><ele>180.87</ele><time>2013-06-15T07:26:43Z</time></trkpt><trkpt lat="54.268105" lon="27.208592"><ele>180.87</ele><time>2013-06-15T07:26:46Z</time></trkpt><trkpt lat="54.268146" lon="27.208591"><ele>180.87</ele><time>2013-06-15T07:26:59Z</time></trkpt><trkpt lat="54.268162" lon="27.208595"><ele>180.87</ele><time>2013-06-15T07:27:07Z</time></trkpt><trkpt lat="54.268436" lon="27.208517"><ele>181.35</ele><time>2013-06-15T07:27:20Z</time></trkpt><trkpt lat="54.268826" lon="27.208406"><ele>180.87</ele><time>2013-06-15T07:27:34Z</time></trkpt><trkpt lat="54.269232" lon="27.208311"><ele>180.38</ele><time>2013-06-15T07:27:50Z</time></trkpt><trkpt lat="54.269260" lon="27.208336"><ele>179.42</ele><time>2013-06-15T07:27:57Z</time></trkpt><trkpt lat="54.269303" lon="27.208390"><ele>179.90</ele><time>2013-06-15T07:28:06Z</time></trkpt><trkpt lat="54.269376" lon="27.208363"><ele>180.38</ele><time>2013-06-15T07:28:11Z</time></trkpt><trkpt lat="54.269493" lon="27.208276"><ele>179.90</ele><time>2013-06-15T07:28:23Z</time></trkpt><trkpt lat="54.269740" lon="27.208182"><ele>180.38</ele><time>2013-06-15T07:28:36Z</time></trkpt><trkpt lat="54.269962" lon="27.208082"><ele>180.38</ele><time>2013-06-15T07:28:48Z</time></trkpt><trkpt lat="54.270227" lon="27.208049"><ele>180.87</ele><time>2013-06-15T07:28:59Z</time></trkpt><trkpt lat="54.270700" lon="27.207925"><ele>180.38</ele><time>2013-06-15T07:29:14Z</time></trkpt><trkpt lat="54.271133" lon="27.207855"><ele>180.38</ele><time>2013-06-15T07:29:27Z</time></trkpt><trkpt lat="54.271668" lon="27.207777"><ele>180.38</ele><time>2013-06-15T07:29:42Z</time></trkpt><trkpt lat="54.272194" lon="27.207712"><ele>180.38</ele><time>2013-06-15T07:30:00Z</time></trkpt><trkpt lat="54.272270" lon="27.207698"><ele>180.38</ele><time>2013-06-15T07:30:05Z</time></trkpt><trkpt lat="54.272292" lon="27.207613"><ele>181.35</ele><time>2013-06-15T07:30:15Z</time></trkpt><trkpt lat="54.272297" lon="27.207561"><ele>180.38</ele><time>2013-06-15T07:30:26Z</time></trkpt><trkpt lat="54.272317" lon="27.207502"><ele>180.38</ele><time>2013-06-15T07:30:44Z</time></trkpt><trkpt lat="54.272321" lon="27.207483"><ele>180.38</ele><time>2013-06-15T07:30:58Z</time></trkpt><trkpt lat="54.272323" lon="27.207446"><ele>180.38</ele><time>2013-06-15T07:31:00Z</time></trkpt><trkpt lat="54.272325" lon="27.207328"><ele>179.90</ele><time>2013-06-15T07:31:05Z</time></trkpt><trkpt lat="54.272463" lon="27.206566"><ele>180.38</ele><time>2013-06-15T07:31:19Z</time></trkpt><trkpt lat="54.272610" lon="27.205824"><ele>180.38</ele><time>2013-06-15T07:31:32Z</time></trkpt><trkpt lat="54.272701" lon="27.205170"><ele>180.38</ele><time>2013-06-15T07:31:44Z</time></trkpt><trkpt lat="54.272897" lon="27.204695"><ele>181.83</ele><time>2013-06-15T07:31:55Z</time></trkpt><trkpt lat="54.273100" lon="27.204190"><ele>188.08</ele><time>2013-06-15T07:32:08Z</time></trkpt><trkpt lat="54.273288" lon="27.203638"><ele>191.92</ele><time>2013-06-15T07:32:22Z</time></trkpt><trkpt lat="54.273527" lon="27.203200"><ele>190.48</ele><time>2013-06-15T07:32:34Z</time></trkpt><trkpt lat="54.273806" lon="27.202726"><ele>188.56</ele><time>2013-06-15T07:32:48Z</time></trkpt><trkpt lat="54.274080" lon="27.202408"><ele>186.63</ele><time>2013-06-15T07:32:59Z</time></trkpt><trkpt lat="54.274430" lon="27.201943"><ele>186.63</ele><time>2013-06-15T07:33:13Z</time></trkpt><trkpt lat="54.274681" lon="27.201424"><ele>185.67</ele><time>2013-06-15T07:33:26Z</time></trkpt><trkpt lat="54.274937" lon="27.200833"><ele>185.19</ele><time>2013-06-15T07:33:41Z</time></trkpt><trkpt lat="54.275229" lon="27.200342"><ele>185.19</ele><time>2013-06-15T07:33:53Z</time></trkpt><trkpt lat="54.275445" lon="27.199804"><ele>184.71</ele><time>2013-06-15T07:34:06Z</time></trkpt><trkpt lat="54.275582" lon="27.199212"><ele>184.71</ele><time>2013-06-15T07:34:18Z</time></trkpt><trkpt lat="54.275747" lon="27.198561"><ele>187.11</ele><time>2013-06-15T07:34:31Z</time></trkpt><trkpt lat="54.275911" lon="27.198012"><ele>187.59</ele><time>2013-06-15T07:34:42Z</time></trkpt><trkpt lat="54.276137" lon="27.197526"><ele>189.04</ele><time>2013-06-15T07:34:54Z</time></trkpt><trkpt lat="54.276408" lon="27.197119"><ele>185.67</ele><time>2013-06-15T07:35:08Z</time></trkpt><trkpt lat="54.276424" lon="27.197105"><ele>185.67</ele><time>2013-06-15T07:35:09Z</time></trkpt><trkpt lat="54.276693" lon="27.196805"><ele>181.35</ele><time>2013-06-15T07:35:22Z</time></trkpt><trkpt lat="54.277017" lon="27.196543"><ele>180.38</ele><time>2013-06-15T07:35:33Z</time></trkpt><trkpt lat="54.277372" lon="27.196224"><ele>181.83</ele><time>2013-06-15T07:35:44Z</time></trkpt><trkpt lat="54.277711" lon="27.195852"><ele>183.27</ele><time>2013-06-15T07:35:57Z</time></trkpt><trkpt lat="54.277929" lon="27.195599"><ele>180.87</ele><time>2013-06-15T07:36:08Z</time></trkpt><trkpt lat="54.278074" lon="27.195405"><ele>180.87</ele><time>2013-06-15T07:36:16Z</time></trkpt><trkpt lat="54.278167" lon="27.195276"><ele>180.87</ele><time>2013-06-15T07:36:20Z</time></trkpt><trkpt lat="54.278457" lon="27.194810"><ele>183.27</ele><time>2013-06-15T07:36:32Z</time></trkpt><trkpt lat="54.278659" lon="27.194360"><ele>185.19</ele><time>2013-06-15T07:36:41Z</time></trkpt><trkpt lat="54.278732" lon="27.194050"><ele>188.08</ele><time>2013-06-15T07:36:47Z</time></trkpt><trkpt lat="54.278895" lon="27.193272"><ele>189.04</ele><time>2013-06-15T07:37:01Z</time></trkpt><trkpt lat="54.278891" lon="27.193096"><ele>187.59</ele><time>2013-06-15T07:37:13Z</time></trkpt><trkpt lat="54.278891" lon="27.193096"><ele>187.59</ele><time>2013-06-15T07:37:14Z</time></trkpt><trkpt lat="54.278912" lon="27.193068"><ele>188.08</ele><time>2013-06-15T07:37:25Z</time></trkpt><trkpt lat="54.278924" lon="27.193045"><ele>189.04</ele><time>2013-06-15T07:37:32Z</time></trkpt><trkpt lat="54.279101" lon="27.192775"><ele>190.00</ele><time>2013-06-15T07:37:43Z</time></trkpt><trkpt lat="54.279485" lon="27.192359"><ele>186.15</ele><time>2013-06-15T07:37:54Z</time></trkpt><trkpt lat="54.279813" lon="27.191786"><ele>184.71</ele><time>2013-06-15T07:38:07Z</time></trkpt><trkpt lat="54.280078" lon="27.191530"><ele>186.15</ele><time>2013-06-15T07:38:18Z</time></trkpt><trkpt lat="54.280365" lon="27.191511"><ele>186.63</ele><time>2013-06-15T07:38:28Z</time></trkpt><trkpt lat="54.280775" lon="27.191640"><ele>192.40</ele><time>2013-06-15T07:38:40Z</time></trkpt><trkpt lat="54.281026" lon="27.191690"><ele>194.80</ele><time>2013-06-15T07:38:49Z</time></trkpt><trkpt lat="54.281352" lon="27.191640"><ele>199.61</ele><time>2013-06-15T07:39:02Z</time></trkpt><trkpt lat="54.281819" lon="27.191316"><ele>197.21</ele><time>2013-06-15T07:39:15Z</time></trkpt><trkpt lat="54.282134" lon="27.190990"><ele>197.21</ele><time>2013-06-15T07:39:27Z</time></trkpt><trkpt lat="54.282473" lon="27.190568"><ele>197.69</ele><time>2013-06-15T07:39:41Z</time></trkpt><trkpt lat="54.282771" lon="27.190192"><ele>195.77</ele><time>2013-06-15T07:39:52Z</time></trkpt><trkpt lat="54.283043" lon="27.189789"><ele>195.28</ele><time>2013-06-15T07:40:02Z</time></trkpt><trkpt lat="54.283272" lon="27.189268"><ele>191.44</ele><time>2013-06-15T07:40:14Z</time></trkpt><trkpt lat="54.283502" lon="27.188570"><ele>189.52</ele><time>2013-06-15T07:40:28Z</time></trkpt><trkpt lat="54.283706" lon="27.188051"><ele>190.00</ele><time>2013-06-15T07:40:39Z</time></trkpt><trkpt lat="54.283865" lon="27.187369"><ele>191.44</ele><time>2013-06-15T07:40:53Z</time></trkpt><trkpt lat="54.283973" lon="27.186850"><ele>192.40</ele><time>2013-06-15T07:41:04Z</time></trkpt><trkpt lat="54.284174" lon="27.186229"><ele>191.44</ele><time>2013-06-15T07:41:17Z</time></trkpt><trkpt lat="54.284427" lon="27.185733"><ele>189.52</ele><time>2013-06-15T07:41:30Z</time></trkpt><trkpt lat="54.284634" lon="27.185331"><ele>186.15</ele><time>2013-06-15T07:41:41Z</time></trkpt><trkpt lat="54.284735" lon="27.185061"><ele>186.15</ele><time>2013-06-15T07:41:47Z</time></trkpt><trkpt lat="54.284880" lon="27.184758"><ele>188.08</ele><time>2013-06-15T07:41:54Z</time></trkpt><trkpt lat="54.285119" lon="27.184187"><ele>189.52</ele><time>2013-06-15T07:42:06Z</time></trkpt><trkpt lat="54.285337" lon="27.183506"><ele>187.11</ele><time>2013-06-15T07:42:20Z</time></trkpt><trkpt lat="54.285485" lon="27.182907"><ele>188.56</ele><time>2013-06-15T07:42:34Z</time></trkpt><trkpt lat="54.285692" lon="27.182528"><ele>187.59</ele><time>2013-06-15T07:42:44Z</time></trkpt><trkpt lat="54.285954" lon="27.182056"><ele>186.63</ele><time>2013-06-15T07:42:57Z</time></trkpt><trkpt lat="54.286165" lon="27.181693"><ele>187.11</ele><time>2013-06-15T07:43:08Z</time></trkpt><trkpt lat="54.286349" lon="27.181247"><ele>185.19</ele><time>2013-06-15T07:43:19Z</time></trkpt><trkpt lat="54.286519" lon="27.180738"><ele>184.71</ele><time>2013-06-15T07:43:29Z</time></trkpt><trkpt lat="54.286727" lon="27.180135"><ele>185.67</ele><time>2013-06-15T07:43:41Z</time></trkpt><trkpt lat="54.286903" lon="27.179614"><ele>183.75</ele><time>2013-06-15T07:43:52Z</time></trkpt><trkpt lat="54.287093" lon="27.179198"><ele>185.67</ele><time>2013-06-15T07:44:03Z</time></trkpt><trkpt lat="54.287248" lon="27.178682"><ele>187.59</ele><time>2013-06-15T07:44:14Z</time></trkpt><trkpt lat="54.287412" lon="27.178190"><ele>188.08</ele><time>2013-06-15T07:44:25Z</time></trkpt><trkpt lat="54.287415" lon="27.178192"><ele>188.08</ele><time>2013-06-15T07:44:31Z</time></trkpt><trkpt lat="54.287477" lon="27.178124"><ele>188.56</ele><time>2013-06-15T07:44:36Z</time></trkpt><trkpt lat="54.287613" lon="27.177806"><ele>188.08</ele><time>2013-06-15T07:44:47Z</time></trkpt><trkpt lat="54.287656" lon="27.177630"><ele>188.08</ele><time>2013-06-15T07:44:51Z</time></trkpt><trkpt lat="54.287836" lon="27.176934"><ele>185.19</ele><time>2013-06-15T07:45:02Z</time></trkpt><trkpt lat="54.287951" lon="27.176435"><ele>182.79</ele><time>2013-06-15T07:45:14Z</time></trkpt><trkpt lat="54.288133" lon="27.175860"><ele>181.35</ele><time>2013-06-15T07:45:27Z</time></trkpt><trkpt lat="54.288353" lon="27.175364"><ele>178.94</ele><time>2013-06-15T07:45:38Z</time></trkpt><trkpt lat="54.288564" lon="27.174930"><ele>178.94</ele><time>2013-06-15T07:45:50Z</time></trkpt><trkpt lat="54.288866" lon="27.174683"><ele>176.54</ele><time>2013-06-15T07:46:00Z</time></trkpt><trkpt lat="54.289010" lon="27.174517"><ele>174.62</ele><time>2013-06-15T07:46:11Z</time></trkpt><trkpt lat="54.289040" lon="27.174477"><ele>174.62</ele><time>2013-06-15T07:46:20Z</time></trkpt><trkpt lat="54.289188" lon="27.174344"><ele>176.54</ele><time>2013-06-15T07:46:29Z</time></trkpt><trkpt lat="54.289255" lon="27.174297"><ele>177.98</ele><time>2013-06-15T07:46:32Z</time></trkpt><trkpt lat="54.289301" lon="27.174270"><ele>179.42</ele><time>2013-06-15T07:46:42Z</time></trkpt><trkpt lat="54.289388" lon="27.174212"><ele>181.35</ele><time>2013-06-15T07:46:47Z</time></trkpt><trkpt lat="54.289788" lon="27.173909"><ele>182.79</ele><time>2013-06-15T07:46:59Z</time></trkpt><trkpt lat="54.289876" lon="27.173845"><ele>182.79</ele><time>2013-06-15T07:47:02Z</time></trkpt><trkpt lat="54.290065" lon="27.173697"><ele>181.83</ele><time>2013-06-15T07:47:15Z</time></trkpt><trkpt lat="54.290158" lon="27.173622"><ele>182.31</ele><time>2013-06-15T07:47:26Z</time></trkpt><trkpt lat="54.290349" lon="27.173383"><ele>181.35</ele><time>2013-06-15T07:47:37Z</time></trkpt><trkpt lat="54.290733" lon="27.172869"><ele>180.87</ele><time>2013-06-15T07:47:50Z</time></trkpt><trkpt lat="54.291161" lon="27.172341"><ele>183.75</ele><time>2013-06-15T07:48:02Z</time></trkpt><trkpt lat="54.291608" lon="27.171737"><ele>184.23</ele><time>2013-06-15T07:48:15Z</time></trkpt><trkpt lat="54.291706" lon="27.171604"><ele>184.71</ele><time>2013-06-15T07:48:18Z</time></trkpt><trkpt lat="54.292148" lon="27.171061"><ele>182.31</ele><time>2013-06-15T07:48:31Z</time></trkpt><trkpt lat="54.292517" lon="27.170992"><ele>181.35</ele><time>2013-06-15T07:48:40Z</time></trkpt><trkpt lat="54.292745" lon="27.170973"><ele>182.31</ele><time>2013-06-15T07:48:45Z</time></trkpt><trkpt lat="54.293088" lon="27.170936"><ele>181.35</ele><time>2013-06-15T07:48:52Z</time></trkpt><trkpt lat="54.293183" lon="27.170925"><ele>180.87</ele><time>2013-06-15T07:48:54Z</time></trkpt><trkpt lat="54.293404" lon="27.170854"><ele>179.90</ele><time>2013-06-15T07:48:59Z</time></trkpt><trkpt lat="54.293899" lon="27.170674"><ele>177.02</ele><time>2013-06-15T07:49:10Z</time></trkpt><trkpt lat="54.294386" lon="27.170623"><ele>176.54</ele><time>2013-06-15T07:49:21Z</time></trkpt><trkpt lat="54.294836" lon="27.170626"><ele>177.50</ele><time>2013-06-15T07:49:33Z</time></trkpt><trkpt lat="54.295248" lon="27.170627"><ele>179.42</ele><time>2013-06-15T07:49:45Z</time></trkpt><trkpt lat="54.295634" lon="27.170662"><ele>183.27</ele><time>2013-06-15T07:49:56Z</time></trkpt><trkpt lat="54.295957" lon="27.170747"><ele>186.15</ele><time>2013-06-15T07:50:03Z</time></trkpt><trkpt lat="54.296365" lon="27.170742"><ele>190.00</ele><time>2013-06-15T07:50:15Z</time></trkpt><trkpt lat="54.296708" lon="27.170570"><ele>186.63</ele><time>2013-06-15T07:50:26Z</time></trkpt><trkpt lat="54.297013" lon="27.170362"><ele>183.75</ele><time>2013-06-15T07:50:38Z</time></trkpt><trkpt lat="54.297007" lon="27.170326"><ele>185.19</ele><time>2013-06-15T07:50:49Z</time></trkpt><trkpt lat="54.296994" lon="27.170258"><ele>185.19</ele><time>2013-06-15T07:51:05Z</time></trkpt><trkpt lat="54.297026" lon="27.170151"><ele>178.94</ele><time>2013-06-15T08:08:09Z</time></trkpt><trkpt lat="54.297030" lon="27.170167"><ele>178.46</ele><time>2013-06-15T08:08:42Z</time></trkpt><trkpt lat="54.297034" lon="27.170187"><ele>177.50</ele><time>2013-06-15T08:09:54Z</time></trkpt><trkpt lat="54.297166" lon="27.169924"><ele>178.94</ele><time>2013-06-15T08:10:04Z</time></trkpt><trkpt lat="54.297365" lon="27.169485"><ele>181.83</ele><time>2013-06-15T08:10:14Z</time></trkpt><trkpt lat="54.297659" lon="27.168743"><ele>181.83</ele><time>2013-06-15T08:10:28Z</time></trkpt><trkpt lat="54.297808" lon="27.168461"><ele>181.35</ele><time>2013-06-15T08:10:36Z</time></trkpt><trkpt lat="54.298057" lon="27.167943"><ele>181.83</ele><time>2013-06-15T08:10:48Z</time></trkpt><trkpt lat="54.298244" lon="27.167426"><ele>182.31</ele><time>2013-06-15T08:10:59Z</time></trkpt><trkpt lat="54.298380" lon="27.167046"><ele>183.27</ele><time>2013-06-15T08:11:08Z</time></trkpt><trkpt lat="54.298532" lon="27.166655"><ele>185.19</ele><time>2013-06-15T08:11:19Z</time></trkpt><trkpt lat="54.298646" lon="27.166360"><ele>187.11</ele><time>2013-06-15T08:11:30Z</time></trkpt><trkpt lat="54.298782" lon="27.166001"><ele>188.56</ele><time>2013-06-15T08:11:39Z</time></trkpt><trkpt lat="54.298876" lon="27.165560"><ele>190.48</ele><time>2013-06-15T08:11:49Z</time></trkpt><trkpt lat="54.298916" lon="27.165020"><ele>192.40</ele><time>2013-06-15T08:12:03Z</time></trkpt><trkpt lat="54.298967" lon="27.164447"><ele>191.92</ele><time>2013-06-15T08:12:14Z</time></trkpt><trkpt lat="54.299073" lon="27.163933"><ele>190.00</ele><time>2013-06-15T08:12:27Z</time></trkpt><trkpt lat="54.299131" lon="27.163711"><ele>189.52</ele><time>2013-06-15T08:12:39Z</time></trkpt><trkpt lat="54.299198" lon="27.163445"><ele>194.80</ele><time>2013-06-15T08:12:50Z</time></trkpt><trkpt lat="54.299219" lon="27.163412"><ele>195.77</ele><time>2013-06-15T08:12:54Z</time></trkpt><trkpt lat="54.299255" lon="27.163248"><ele>197.21</ele><time>2013-06-15T08:13:05Z</time></trkpt><trkpt lat="54.299300" lon="27.162948"><ele>200.09</ele><time>2013-06-15T08:13:14Z</time></trkpt><trkpt lat="54.299423" lon="27.162301"><ele>199.61</ele><time>2013-06-15T08:13:26Z</time></trkpt><trkpt lat="54.299544" lon="27.161685"><ele>195.28</ele><time>2013-06-15T08:13:40Z</time></trkpt><trkpt lat="54.299668" lon="27.161154"><ele>191.92</ele><time>2013-06-15T08:13:52Z</time></trkpt><trkpt lat="54.299757" lon="27.160676"><ele>190.48</ele><time>2013-06-15T08:14:03Z</time></trkpt><trkpt lat="54.299858" lon="27.160151"><ele>187.59</ele><time>2013-06-15T08:14:15Z</time></trkpt><trkpt lat="54.299997" lon="27.159658"><ele>186.15</ele><time>2013-06-15T08:14:28Z</time></trkpt><trkpt lat="54.300074" lon="27.159425"><ele>184.23</ele><time>2013-06-15T08:14:40Z</time></trkpt><trkpt lat="54.300164" lon="27.158977"><ele>185.67</ele><time>2013-06-15T08:14:53Z</time></trkpt><trkpt lat="54.300265" lon="27.158695"><ele>184.71</ele><time>2013-06-15T08:15:04Z</time></trkpt><trkpt lat="54.300431" lon="27.158396"><ele>184.23</ele><time>2013-06-15T08:15:15Z</time></trkpt><trkpt lat="54.300662" lon="27.158021"><ele>183.27</ele><time>2013-06-15T08:15:28Z</time></trkpt><trkpt lat="54.300834" lon="27.157800"><ele>182.79</ele><time>2013-06-15T08:15:41Z</time></trkpt><trkpt lat="54.300851" lon="27.157742"><ele>183.27</ele><time>2013-06-15T08:15:59Z</time></trkpt><trkpt lat="54.300857" lon="27.157697"><ele>183.27</ele><time>2013-06-15T08:16:01Z</time></trkpt><trkpt lat="54.300893" lon="27.157496"><ele>184.23</ele><time>2013-06-15T08:16:10Z</time></trkpt><trkpt lat="54.300902" lon="27.157386"><ele>184.71</ele><time>2013-06-15T08:16:13Z</time></trkpt><trkpt lat="54.300955" lon="27.157211"><ele>184.71</ele><time>2013-06-15T08:16:19Z</time></trkpt><trkpt lat="54.300802" lon="27.156673"><ele>181.83</ele><time>2013-06-15T08:16:34Z</time></trkpt><trkpt lat="54.300728" lon="27.156442"><ele>180.87</ele><time>2013-06-15T08:16:40Z</time></trkpt><trkpt lat="54.300622" lon="27.155963"><ele>180.38</ele><time>2013-06-15T08:16:55Z</time></trkpt><trkpt lat="54.300611" lon="27.155861"><ele>180.38</ele><time>2013-06-15T08:17:09Z</time></trkpt><trkpt lat="54.300614" lon="27.155655"><ele>181.35</ele><time>2013-06-15T08:17:25Z</time></trkpt><trkpt lat="54.300617" lon="27.155577"><ele>180.38</ele><time>2013-06-15T08:17:36Z</time></trkpt><trkpt lat="54.300599" lon="27.155547"><ele>178.94</ele><time>2013-06-15T08:17:56Z</time></trkpt><trkpt lat="54.300595" lon="27.155539"><ele>178.94</ele><time>2013-06-15T08:18:05Z</time></trkpt><trkpt lat="54.300535" lon="27.155208"><ele>178.46</ele><time>2013-06-15T08:18:19Z</time></trkpt><trkpt lat="54.300434" lon="27.154757"><ele>178.46</ele><time>2013-06-15T08:18:33Z</time></trkpt><trkpt lat="54.300381" lon="27.154580"><ele>177.50</ele><time>2013-06-15T08:18:44Z</time></trkpt><trkpt lat="54.300379" lon="27.154528"><ele>177.50</ele><time>2013-06-15T08:18:47Z</time></trkpt><trkpt lat="54.300369" lon="27.154383"><ele>179.42</ele><time>2013-06-15T08:18:56Z</time></trkpt><trkpt lat="54.300351" lon="27.154156"><ele>181.83</ele><time>2013-06-15T08:19:11Z</time></trkpt><trkpt lat="54.300352" lon="27.154134"><ele>182.31</ele><time>2013-06-15T08:19:13Z</time></trkpt><trkpt lat="54.300320" lon="27.153406"><ele>181.35</ele><time>2013-06-15T08:19:27Z</time></trkpt><trkpt lat="54.300311" lon="27.152617"><ele>179.42</ele><time>2013-06-15T08:19:42Z</time></trkpt><trkpt lat="54.300317" lon="27.151852"><ele>177.50</ele><time>2013-06-15T08:19:57Z</time></trkpt><trkpt lat="54.300305" lon="27.151316"><ele>177.98</ele><time>2013-06-15T08:20:11Z</time></trkpt><trkpt lat="54.300311" lon="27.150707"><ele>176.54</ele><time>2013-06-15T08:20:26Z</time></trkpt><trkpt lat="54.300316" lon="27.150666"><ele>177.02</ele><time>2013-06-15T08:20:28Z</time></trkpt><trkpt lat="54.300331" lon="27.150496"><ele>177.02</ele><time>2013-06-15T08:20:36Z</time></trkpt><trkpt lat="54.300325" lon="27.150458"><ele>177.98</ele><time>2013-06-15T08:20:49Z</time></trkpt><trkpt lat="54.300305" lon="27.150314"><ele>177.50</ele><time>2013-06-15T08:21:03Z</time></trkpt><trkpt lat="54.300376" lon="27.150128"><ele>176.54</ele><time>2013-06-15T08:21:17Z</time></trkpt><trkpt lat="54.300350" lon="27.149976"><ele>175.58</ele><time>2013-06-15T08:21:29Z</time></trkpt><trkpt lat="54.300292" lon="27.149908"><ele>175.58</ele><time>2013-06-15T08:21:37Z</time></trkpt><trkpt lat="54.300282" lon="27.149872"><ele>176.54</ele><time>2013-06-15T08:21:41Z</time></trkpt><trkpt lat="54.300281" lon="27.149410"><ele>176.54</ele><time>2013-06-15T08:21:53Z</time></trkpt><trkpt lat="54.300285" lon="27.148560"><ele>175.58</ele><time>2013-06-15T08:22:09Z</time></trkpt><trkpt lat="54.300271" lon="27.148280"><ele>176.54</ele><time>2013-06-15T08:22:16Z</time></trkpt><trkpt lat="54.300270" lon="27.148026"><ele>177.02</ele><time>2013-06-15T08:22:24Z</time></trkpt><trkpt lat="54.300288" lon="27.147554"><ele>178.94</ele><time>2013-06-15T08:22:35Z</time></trkpt><trkpt lat="54.300200" lon="27.147126"><ele>179.42</ele><time>2013-06-15T08:22:48Z</time></trkpt><trkpt lat="54.300159" lon="27.146964"><ele>178.94</ele><time>2013-06-15T08:22:54Z</time></trkpt><trkpt lat="54.300122" lon="27.146818"><ele>179.42</ele><time>2013-06-15T08:22:59Z</time></trkpt><trkpt lat="54.300030" lon="27.146548"><ele>178.94</ele><time>2013-06-15T08:23:07Z</time></trkpt><trkpt lat="54.299844" lon="27.146052"><ele>177.98</ele><time>2013-06-15T08:23:21Z</time></trkpt><trkpt lat="54.299673" lon="27.145568"><ele>177.50</ele><time>2013-06-15T08:23:35Z</time></trkpt><trkpt lat="54.299586" lon="27.145301"><ele>175.58</ele><time>2013-06-15T08:23:45Z</time></trkpt><trkpt lat="54.299463" lon="27.144966"><ele>174.62</ele><time>2013-06-15T08:23:56Z</time></trkpt><trkpt lat="54.299307" lon="27.144552"><ele>174.14</ele><time>2013-06-15T08:24:09Z</time></trkpt><trkpt lat="54.299133" lon="27.144080"><ele>174.14</ele><time>2013-06-15T08:24:22Z</time></trkpt><trkpt lat="54.299041" lon="27.143832"><ele>173.66</ele><time>2013-06-15T08:24:31Z</time></trkpt><trkpt lat="54.298905" lon="27.143391"><ele>173.17</ele><time>2013-06-15T08:24:45Z</time></trkpt><trkpt lat="54.298829" lon="27.143140"><ele>173.66</ele><time>2013-06-15T08:24:54Z</time></trkpt><trkpt lat="54.298784" lon="27.143047"><ele>174.14</ele><time>2013-06-15T08:24:59Z</time></trkpt><trkpt lat="54.298769" lon="27.143022"><ele>173.17</ele><time>2013-06-15T08:25:07Z</time></trkpt><trkpt lat="54.298743" lon="27.142987"><ele>172.69</ele><time>2013-06-15T08:25:16Z</time></trkpt><trkpt lat="54.298678" lon="27.142837"><ele>174.62</ele><time>2013-06-15T08:25:29Z</time></trkpt><trkpt lat="54.298567" lon="27.142455"><ele>173.17</ele><time>2013-06-15T08:25:39Z</time></trkpt><trkpt lat="54.298435" lon="27.142227"><ele>170.77</ele><time>2013-06-15T08:25:46Z</time></trkpt><trkpt lat="54.298329" lon="27.141837"><ele>172.21</ele><time>2013-06-15T08:25:58Z</time></trkpt><trkpt lat="54.298216" lon="27.141509"><ele>173.66</ele><time>2013-06-15T08:26:08Z</time></trkpt><trkpt lat="54.298095" lon="27.141079"><ele>176.06</ele><time>2013-06-15T08:26:20Z</time></trkpt><trkpt lat="54.297873" lon="27.140561"><ele>176.54</ele><time>2013-06-15T08:26:35Z</time></trkpt><trkpt lat="54.297701" lon="27.140062"><ele>176.06</ele><time>2013-06-15T08:26:51Z</time></trkpt><trkpt lat="54.297532" lon="27.139510"><ele>176.06</ele><time>2013-06-15T08:27:07Z</time></trkpt><trkpt lat="54.297292" lon="27.138891"><ele>176.54</ele><time>2013-06-15T08:27:22Z</time></trkpt><trkpt lat="54.297039" lon="27.138212"><ele>175.58</ele><time>2013-06-15T08:27:38Z</time></trkpt><trkpt lat="54.296845" lon="27.137677"><ele>176.54</ele><time>2013-06-15T08:27:52Z</time></trkpt><trkpt lat="54.296628" lon="27.137071"><ele>177.50</ele><time>2013-06-15T08:28:07Z</time></trkpt><trkpt lat="54.296444" lon="27.136520"><ele>177.98</ele><time>2013-06-15T08:28:20Z</time></trkpt><trkpt lat="54.296247" lon="27.135972"><ele>177.50</ele><time>2013-06-15T08:28:33Z</time></trkpt><trkpt lat="54.296006" lon="27.135273"><ele>178.94</ele><time>2013-06-15T08:28:49Z</time></trkpt><trkpt lat="54.295797" lon="27.134701"><ele>179.90</ele><time>2013-06-15T08:29:03Z</time></trkpt><trkpt lat="54.295648" lon="27.134145"><ele>179.90</ele><time>2013-06-15T08:29:17Z</time></trkpt><trkpt lat="54.295710" lon="27.133590"><ele>176.54</ele><time>2013-06-15T08:29:30Z</time></trkpt><trkpt lat="54.295741" lon="27.133447"><ele>175.58</ele><time>2013-06-15T08:29:42Z</time></trkpt><trkpt lat="54.295739" lon="27.133440"><ele>175.58</ele><time>2013-06-15T08:30:00Z</time></trkpt><trkpt lat="54.295742" lon="27.133438"><ele>175.10</ele><time>2013-06-15T08:30:22Z</time></trkpt><trkpt lat="54.295737" lon="27.133442"><ele>175.10</ele><time>2013-06-15T08:31:35Z</time></trkpt><trkpt lat="54.295801" lon="27.133212"><ele>174.62</ele><time>2013-06-15T08:32:01Z</time></trkpt><trkpt lat="54.295955" lon="27.132718"><ele>173.66</ele><time>2013-06-15T08:32:13Z</time></trkpt><trkpt lat="54.296166" lon="27.132056"><ele>175.10</ele><time>2013-06-15T08:32:28Z</time></trkpt><trkpt lat="54.296360" lon="27.131448"><ele>173.66</ele><time>2013-06-15T08:32:41Z</time></trkpt><trkpt lat="54.296574" lon="27.130786"><ele>172.21</ele><time>2013-06-15T08:32:55Z</time></trkpt><trkpt lat="54.296758" lon="27.129972"><ele>171.73</ele><time>2013-06-15T08:33:11Z</time></trkpt><trkpt lat="54.296934" lon="27.129355"><ele>171.73</ele><time>2013-06-15T08:33:27Z</time></trkpt><trkpt lat="54.297126" lon="27.128700"><ele>171.25</ele><time>2013-06-15T08:33:43Z</time></trkpt><trkpt lat="54.297307" lon="27.128050"><ele>170.77</ele><time>2013-06-15T08:33:58Z</time></trkpt><trkpt lat="54.297511" lon="27.127312"><ele>170.77</ele><time>2013-06-15T08:34:15Z</time></trkpt><trkpt lat="54.297723" lon="27.126661"><ele>170.77</ele><time>2013-06-15T08:34:30Z</time></trkpt><trkpt lat="54.297932" lon="27.126074"><ele>173.17</ele><time>2013-06-15T08:34:45Z</time></trkpt><trkpt lat="54.298088" lon="27.125498"><ele>172.69</ele><time>2013-06-15T08:34:58Z</time></trkpt><trkpt lat="54.298259" lon="27.124886"><ele>171.73</ele><time>2013-06-15T08:35:12Z</time></trkpt><trkpt lat="54.298471" lon="27.124112"><ele>171.73</ele><time>2013-06-15T08:35:29Z</time></trkpt><trkpt lat="54.298644" lon="27.123477"><ele>170.77</ele><time>2013-06-15T08:35:43Z</time></trkpt><trkpt lat="54.298837" lon="27.122824"><ele>169.33</ele><time>2013-06-15T08:35:57Z</time></trkpt><trkpt lat="54.299092" lon="27.121999"><ele>170.77</ele><time>2013-06-15T08:36:15Z</time></trkpt><trkpt lat="54.299315" lon="27.121293"><ele>171.25</ele><time>2013-06-15T08:36:30Z</time></trkpt><trkpt lat="54.299538" lon="27.120549"><ele>170.77</ele><time>2013-06-15T08:36:46Z</time></trkpt><trkpt lat="54.299746" lon="27.119870"><ele>170.29</ele><time>2013-06-15T08:37:00Z</time></trkpt><trkpt lat="54.299965" lon="27.119164"><ele>168.85</ele><time>2013-06-15T08:37:15Z</time></trkpt><trkpt lat="54.300212" lon="27.118324"><ele>166.93</ele><time>2013-06-15T08:37:31Z</time></trkpt><trkpt lat="54.300481" lon="27.117377"><ele>166.45</ele><time>2013-06-15T08:37:48Z</time></trkpt><trkpt lat="54.300674" lon="27.116741"><ele>166.45</ele><time>2013-06-15T08:38:01Z</time></trkpt><trkpt lat="54.300864" lon="27.116021"><ele>167.41</ele><time>2013-06-15T08:38:16Z</time></trkpt><trkpt lat="54.301137" lon="27.115088"><ele>166.93</ele><time>2013-06-15T08:38:33Z</time></trkpt><trkpt lat="54.301375" lon="27.114251"><ele>167.89</ele><time>2013-06-15T08:38:49Z</time></trkpt><trkpt lat="54.301641" lon="27.113340"><ele>167.89</ele><time>2013-06-15T08:39:06Z</time></trkpt><trkpt lat="54.301840" lon="27.112633"><ele>167.89</ele><time>2013-06-15T08:39:21Z</time></trkpt><trkpt lat="54.302083" lon="27.111861"><ele>168.37</ele><time>2013-06-15T08:39:38Z</time></trkpt><trkpt lat="54.302270" lon="27.111209"><ele>167.89</ele><time>2013-06-15T08:39:55Z</time></trkpt><trkpt lat="54.302491" lon="27.110495"><ele>167.41</ele><time>2013-06-15T08:40:12Z</time></trkpt><trkpt lat="54.302693" lon="27.109804"><ele>168.37</ele><time>2013-06-15T08:40:28Z</time></trkpt><trkpt lat="54.302869" lon="27.109253"><ele>169.33</ele><time>2013-06-15T08:40:41Z</time></trkpt><trkpt lat="54.302945" lon="27.109044"><ele>170.77</ele><time>2013-06-15T08:40:54Z</time></trkpt><trkpt lat="54.302973" lon="27.108938"><ele>170.77</ele><time>2013-06-15T08:41:15Z</time></trkpt><trkpt lat="54.303086" lon="27.108556"><ele>171.25</ele><time>2013-06-15T08:41:29Z</time></trkpt><trkpt lat="54.303251" lon="27.107926"><ele>170.29</ele><time>2013-06-15T08:41:45Z</time></trkpt><trkpt lat="54.303401" lon="27.107365"><ele>169.81</ele><time>2013-06-15T08:41:57Z</time></trkpt><trkpt lat="54.303544" lon="27.106501"><ele>169.33</ele><time>2013-06-15T08:42:13Z</time></trkpt><trkpt lat="54.303486" lon="27.105816"><ele>169.33</ele><time>2013-06-15T08:42:26Z</time></trkpt><trkpt lat="54.303432" lon="27.104724"><ele>169.33</ele><time>2013-06-15T08:42:44Z</time></trkpt><trkpt lat="54.303400" lon="27.103817"><ele>169.81</ele><time>2013-06-15T08:42:59Z</time></trkpt><trkpt lat="54.303334" lon="27.102934"><ele>168.85</ele><time>2013-06-15T08:43:15Z</time></trkpt><trkpt lat="54.303310" lon="27.102304"><ele>170.29</ele><time>2013-06-15T08:43:31Z</time></trkpt><trkpt lat="54.303297" lon="27.102285"><ele>170.29</ele><time>2013-06-15T08:43:46Z</time></trkpt><trkpt lat="54.303312" lon="27.102286"><ele>170.29</ele><time>2013-06-15T08:44:09Z</time></trkpt><trkpt lat="54.303472" lon="27.102223"><ele>170.29</ele><time>2013-06-15T08:44:23Z</time></trkpt><trkpt lat="54.303471" lon="27.102209"><ele>170.29</ele><time>2013-06-15T08:44:24Z</time></trkpt><trkpt lat="54.303420" lon="27.101574"><ele>169.81</ele><time>2013-06-15T08:44:36Z</time></trkpt><trkpt lat="54.303417" lon="27.100900"><ele>171.73</ele><time>2013-06-15T08:44:48Z</time></trkpt><trkpt lat="54.303409" lon="27.100289"><ele>175.58</ele><time>2013-06-15T08:44:58Z</time></trkpt><trkpt lat="54.303369" lon="27.099635"><ele>177.98</ele><time>2013-06-15T08:45:09Z</time></trkpt><trkpt lat="54.303360" lon="27.099218"><ele>177.50</ele><time>2013-06-15T08:45:18Z</time></trkpt><trkpt lat="54.303343" lon="27.098707"><ele>177.50</ele><time>2013-06-15T08:45:32Z</time></trkpt><trkpt lat="54.303307" lon="27.098004"><ele>174.62</ele><time>2013-06-15T08:45:44Z</time></trkpt><trkpt lat="54.303249" lon="27.097225"><ele>171.73</ele><time>2013-06-15T08:45:57Z</time></trkpt><trkpt lat="54.303185" lon="27.096422"><ele>172.69</ele><time>2013-06-15T08:46:11Z</time></trkpt><trkpt lat="54.303189" lon="27.095869"><ele>176.06</ele><time>2013-06-15T08:46:23Z</time></trkpt><trkpt lat="54.303141" lon="27.095206"><ele>177.50</ele><time>2013-06-15T08:46:36Z</time></trkpt><trkpt lat="54.303137" lon="27.094747"><ele>179.90</ele><time>2013-06-15T08:46:46Z</time></trkpt><trkpt lat="54.303099" lon="27.094275"><ele>180.38</ele><time>2013-06-15T08:46:58Z</time></trkpt><trkpt lat="54.303126" lon="27.093916"><ele>179.90</ele><time>2013-06-15T08:47:08Z</time></trkpt><trkpt lat="54.303156" lon="27.093493"><ele>178.94</ele><time>2013-06-15T08:47:20Z</time></trkpt><trkpt lat="54.303167" lon="27.093400"><ele>179.42</ele><time>2013-06-15T08:47:24Z</time></trkpt><trkpt lat="54.303101" lon="27.093245"><ele>178.94</ele><time>2013-06-15T08:47:29Z</time></trkpt><trkpt lat="54.303068" lon="27.092701"><ele>178.46</ele><time>2013-06-15T08:47:41Z</time></trkpt><trkpt lat="54.303028" lon="27.092148"><ele>179.90</ele><time>2013-06-15T08:47:53Z</time></trkpt><trkpt lat="54.302998" lon="27.091748"><ele>183.27</ele><time>2013-06-15T08:48:04Z</time></trkpt><trkpt lat="54.303006" lon="27.091242"><ele>187.59</ele><time>2013-06-15T08:48:17Z</time></trkpt><trkpt lat="54.302963" lon="27.090758"><ele>189.04</ele><time>2013-06-15T08:48:29Z</time></trkpt><trkpt lat="54.302989" lon="27.090229"><ele>189.52</ele><time>2013-06-15T08:48:44Z</time></trkpt><trkpt lat="54.303018" lon="27.090027"><ele>187.11</ele><time>2013-06-15T08:48:49Z</time></trkpt><trkpt lat="54.302900" lon="27.089856"><ele>182.79</ele><time>2013-06-15T08:48:55Z</time></trkpt><trkpt lat="54.302805" lon="27.089835"><ele>179.42</ele><time>2013-06-15T08:49:00Z</time></trkpt><trkpt lat="54.302782" lon="27.089743"><ele>176.54</ele><time>2013-06-15T08:49:07Z</time></trkpt><trkpt lat="54.302770" lon="27.089390"><ele>176.06</ele><time>2013-06-15T08:49:21Z</time></trkpt><trkpt lat="54.302765" lon="27.089074"><ele>173.66</ele><time>2013-06-15T08:49:34Z</time></trkpt><trkpt lat="54.302743" lon="27.089001"><ele>170.29</ele><time>2013-06-15T08:49:45Z</time></trkpt><trkpt lat="54.302744" lon="27.088986"><ele>170.29</ele><time>2013-06-15T08:50:01Z</time></trkpt><trkpt lat="54.302734" lon="27.088979"><ele>169.33</ele><time>2013-06-15T08:50:22Z</time></trkpt><trkpt lat="54.302727" lon="27.089053"><ele>169.33</ele><time>2013-06-15T08:50:29Z</time></trkpt><trkpt lat="54.302719" lon="27.089271"><ele>170.29</ele><time>2013-06-15T08:50:43Z</time></trkpt><trkpt lat="54.302734" lon="27.089550"><ele>171.73</ele><time>2013-06-15T08:50:57Z</time></trkpt><trkpt lat="54.302768" lon="27.089852"><ele>173.17</ele><time>2013-06-15T08:51:12Z</time></trkpt><trkpt lat="54.302792" lon="27.089883"><ele>172.69</ele><time>2013-06-15T08:51:14Z</time></trkpt><trkpt lat="54.302928" lon="27.089942"><ele>170.29</ele><time>2013-06-15T08:51:24Z</time></trkpt><trkpt lat="54.302950" lon="27.090121"><ele>168.85</ele><time>2013-06-15T08:51:33Z</time></trkpt><trkpt lat="54.302937" lon="27.090224"><ele>168.37</ele><time>2013-06-15T08:51:43Z</time></trkpt><trkpt lat="54.302931" lon="27.090249"><ele>168.85</ele><time>2013-06-15T08:51:45Z</time></trkpt><trkpt lat="54.302928" lon="27.090265"><ele>168.85</ele><time>2013-06-15T08:51:47Z</time></trkpt><trkpt lat="54.302892" lon="27.090795"><ele>167.89</ele><time>2013-06-15T08:51:59Z</time></trkpt><trkpt lat="54.302903" lon="27.091398"><ele>168.37</ele><time>2013-06-15T08:52:11Z</time></trkpt><trkpt lat="54.302930" lon="27.092014"><ele>168.37</ele><time>2013-06-15T08:52:24Z</time></trkpt><trkpt lat="54.302963" lon="27.092496"><ele>166.93</ele><time>2013-06-15T08:52:34Z</time></trkpt><trkpt lat="54.302987" lon="27.093015"><ele>165.48</ele><time>2013-06-15T08:52:45Z</time></trkpt><trkpt lat="54.302990" lon="27.093037"><ele>165.48</ele><time>2013-06-15T08:52:46Z</time></trkpt><trkpt lat="54.303089" lon="27.093234"><ele>166.45</ele><time>2013-06-15T08:52:59Z</time></trkpt><trkpt lat="54.303108" lon="27.093220"><ele>165.96</ele><time>2013-06-15T08:54:03Z</time></trkpt><trkpt lat="54.303112" lon="27.093215"><ele>165.96</ele><time>2013-06-15T08:54:04Z</time></trkpt><trkpt lat="54.303259" lon="27.092957"><ele>167.89</ele><time>2013-06-15T08:54:15Z</time></trkpt><trkpt lat="54.303441" lon="27.092482"><ele>173.66</ele><time>2013-06-15T08:54:25Z</time></trkpt><trkpt lat="54.303611" lon="27.092120"><ele>177.02</ele><time>2013-06-15T08:54:36Z</time></trkpt><trkpt lat="54.303783" lon="27.091875"><ele>177.98</ele><time>2013-06-15T08:54:46Z</time></trkpt><trkpt lat="54.304003" lon="27.091539"><ele>181.35</ele><time>2013-06-15T08:54:59Z</time></trkpt><trkpt lat="54.304119" lon="27.091246"><ele>181.35</ele><time>2013-06-15T08:55:09Z</time></trkpt><trkpt lat="54.304309" lon="27.090720"><ele>178.46</ele><time>2013-06-15T08:55:22Z</time></trkpt><trkpt lat="54.304487" lon="27.090331"><ele>177.02</ele><time>2013-06-15T08:55:34Z</time></trkpt><trkpt lat="54.304681" lon="27.090070"><ele>176.06</ele><time>2013-06-15T08:55:44Z</time></trkpt><trkpt lat="54.304909" lon="27.089818"><ele>177.02</ele><time>2013-06-15T08:55:56Z</time></trkpt><trkpt lat="54.304943" lon="27.089789"><ele>176.54</ele><time>2013-06-15T08:55:58Z</time></trkpt><trkpt lat="54.305121" lon="27.089492"><ele>177.50</ele><time>2013-06-15T08:56:12Z</time></trkpt><trkpt lat="54.305095" lon="27.088925"><ele>179.42</ele><time>2013-06-15T08:56:26Z</time></trkpt><trkpt lat="54.305081" lon="27.088789"><ele>179.90</ele><time>2013-06-15T08:56:40Z</time></trkpt><trkpt lat="54.305123" lon="27.088837"><ele>177.98</ele><time>2013-06-15T08:56:53Z</time></trkpt><trkpt lat="54.305136" lon="27.088852"><ele>177.50</ele><time>2013-06-15T08:56:55Z</time></trkpt><trkpt lat="54.305216" lon="27.088914"><ele>176.54</ele><time>2013-06-15T08:57:01Z</time></trkpt><trkpt lat="54.305399" lon="27.088695"><ele>175.10</ele><time>2013-06-15T08:57:13Z</time></trkpt><trkpt lat="54.305521" lon="27.088469"><ele>177.98</ele><time>2013-06-15T08:57:20Z</time></trkpt><trkpt lat="54.305697" lon="27.088404"><ele>181.83</ele><time>2013-06-15T08:57:31Z</time></trkpt><trkpt lat="54.305952" lon="27.088385"><ele>185.67</ele><time>2013-06-15T08:57:43Z</time></trkpt><trkpt lat="54.306189" lon="27.088420"><ele>190.48</ele><time>2013-06-15T08:57:55Z</time></trkpt><trkpt lat="54.306224" lon="27.088412"><ele>191.44</ele><time>2013-06-15T08:57:57Z</time></trkpt><trkpt lat="54.306320" lon="27.088211"><ele>193.36</ele><time>2013-06-15T08:58:05Z</time></trkpt><trkpt lat="54.306438" lon="27.088029"><ele>191.92</ele><time>2013-06-15T08:58:18Z</time></trkpt><trkpt lat="54.306487" lon="27.087876"><ele>188.56</ele><time>2013-06-15T08:58:33Z</time></trkpt><trkpt lat="54.306514" lon="27.087722"><ele>188.56</ele><time>2013-06-15T08:58:45Z</time></trkpt><trkpt lat="54.306516" lon="27.087650"><ele>188.08</ele><time>2013-06-15T08:59:00Z</time></trkpt><trkpt lat="54.306550" lon="27.087602"><ele>184.23</ele><time>2013-06-15T08:59:17Z</time></trkpt><trkpt lat="54.306432" lon="27.087612"><ele>186.63</ele><time>2013-06-15T08:59:30Z</time></trkpt><trkpt lat="54.306423" lon="27.087645"><ele>188.08</ele><time>2013-06-15T08:59:33Z</time></trkpt><trkpt lat="54.306392" lon="27.087743"><ele>190.96</ele><time>2013-06-15T08:59:50Z</time></trkpt><trkpt lat="54.306321" lon="27.087877"><ele>191.92</ele><time>2013-06-15T09:00:06Z</time></trkpt><trkpt lat="54.306305" lon="27.088044"><ele>193.36</ele><time>2013-06-15T09:01:31Z</time></trkpt><trkpt lat="54.306300" lon="27.088056"><ele>193.84</ele><time>2013-06-15T09:01:33Z</time></trkpt><trkpt lat="54.306440" lon="27.088308"><ele>197.21</ele><time>2013-06-15T09:01:44Z</time></trkpt><trkpt lat="54.306474" lon="27.088372"><ele>197.21</ele><time>2013-06-15T09:01:47Z</time></trkpt><trkpt lat="54.306706" lon="27.088563"><ele>196.73</ele><time>2013-06-15T09:01:59Z</time></trkpt><trkpt lat="54.306824" lon="27.088640"><ele>195.28</ele><time>2013-06-15T09:02:05Z</time></trkpt><trkpt lat="54.306965" lon="27.088667"><ele>194.32</ele><time>2013-06-15T09:02:12Z</time></trkpt><trkpt lat="54.307251" lon="27.088752"><ele>187.11</ele><time>2013-06-15T09:02:26Z</time></trkpt><trkpt lat="54.307493" lon="27.088921"><ele>185.67</ele><time>2013-06-15T09:02:38Z</time></trkpt><trkpt lat="54.307649" lon="27.089080"><ele>185.67</ele><time>2013-06-15T09:02:47Z</time></trkpt><trkpt lat="54.307710" lon="27.089125"><ele>185.19</ele><time>2013-06-15T09:02:50Z</time></trkpt><trkpt lat="54.307837" lon="27.089114"><ele>184.23</ele><time>2013-06-15T09:02:56Z</time></trkpt><trkpt lat="54.307959" lon="27.089110"><ele>183.75</ele><time>2013-06-15T09:03:06Z</time></trkpt><trkpt lat="54.308017" lon="27.089105"><ele>184.71</ele><time>2013-06-15T09:03:11Z</time></trkpt><trkpt lat="54.308180" lon="27.089199"><ele>185.19</ele><time>2013-06-15T09:03:21Z</time></trkpt><trkpt lat="54.308354" lon="27.089377"><ele>185.19</ele><time>2013-06-15T09:03:33Z</time></trkpt><trkpt lat="54.308454" lon="27.089434"><ele>184.23</ele><time>2013-06-15T09:03:38Z</time></trkpt><trkpt lat="54.308485" lon="27.089441"><ele>183.75</ele><time>2013-06-15T09:03:40Z</time></trkpt><trkpt lat="54.308618" lon="27.089558"><ele>181.35</ele><time>2013-06-15T09:03:47Z</time></trkpt><trkpt lat="54.308877" lon="27.089865"><ele>179.42</ele><time>2013-06-15T09:04:01Z</time></trkpt><trkpt lat="54.308933" lon="27.089918"><ele>177.98</ele><time>2013-06-15T09:04:13Z</time></trkpt><trkpt lat="54.308923" lon="27.089929"><ele>177.98</ele><time>2013-06-15T09:04:30Z</time></trkpt><trkpt lat="54.308968" lon="27.089997"><ele>178.46</ele><time>2013-06-15T09:05:13Z</time></trkpt><trkpt lat="54.308985" lon="27.090013"><ele>179.42</ele><time>2013-06-15T09:06:04Z</time></trkpt><trkpt lat="54.309169" lon="27.090333"><ele>177.98</ele><time>2013-06-15T09:06:15Z</time></trkpt><trkpt lat="54.309427" lon="27.090627"><ele>176.54</ele><time>2013-06-15T09:06:26Z</time></trkpt><trkpt lat="54.309665" lon="27.090951"><ele>173.66</ele><time>2013-06-15T09:06:39Z</time></trkpt><trkpt lat="54.309772" lon="27.091035"><ele>173.66</ele><time>2013-06-15T09:06:46Z</time></trkpt><trkpt lat="54.309815" lon="27.091130"><ele>174.62</ele><time>2013-06-15T09:06:51Z</time></trkpt><trkpt lat="54.309946" lon="27.091439"><ele>176.54</ele><time>2013-06-15T09:07:03Z</time></trkpt><trkpt lat="54.310016" lon="27.091642"><ele>177.98</ele><time>2013-06-15T09:07:13Z</time></trkpt><trkpt lat="54.310061" lon="27.091803"><ele>177.98</ele><time>2013-06-15T09:07:25Z</time></trkpt><trkpt lat="54.310076" lon="27.091880"><ele>178.46</ele><time>2013-06-15T09:07:37Z</time></trkpt><trkpt lat="54.310109" lon="27.091952"><ele>178.94</ele><time>2013-06-15T09:07:50Z</time></trkpt><trkpt lat="54.310123" lon="27.091978"><ele>179.42</ele><time>2013-06-15T09:07:52Z</time></trkpt><trkpt lat="54.310212" lon="27.092182"><ele>178.46</ele><time>2013-06-15T09:08:03Z</time></trkpt><trkpt lat="54.310350" lon="27.092300"><ele>179.42</ele><time>2013-06-15T09:08:16Z</time></trkpt><trkpt lat="54.310375" lon="27.092317"><ele>178.94</ele><time>2013-06-15T09:08:40Z</time></trkpt><trkpt lat="54.310373" lon="27.092342"><ele>179.90</ele><time>2013-06-15T09:08:50Z</time></trkpt><trkpt lat="54.310227" lon="27.092408"><ele>182.31</ele><time>2013-06-15T09:09:01Z</time></trkpt><trkpt lat="54.310020" lon="27.092581"><ele>186.15</ele><time>2013-06-15T09:09:11Z</time></trkpt><trkpt lat="54.309845" lon="27.092781"><ele>186.63</ele><time>2013-06-15T09:09:22Z</time></trkpt><trkpt lat="54.309825" lon="27.092797"><ele>187.11</ele><time>2013-06-15T09:09:26Z</time></trkpt><trkpt lat="54.309686" lon="27.093097"><ele>189.04</ele><time>2013-06-15T09:09:37Z</time></trkpt><trkpt lat="54.309562" lon="27.093247"><ele>190.96</ele><time>2013-06-15T09:09:45Z</time></trkpt><trkpt lat="54.309513" lon="27.093336"><ele>191.92</ele><time>2013-06-15T09:09:49Z</time></trkpt><trkpt lat="54.309291" lon="27.093705"><ele>197.21</ele><time>2013-06-15T09:10:02Z</time></trkpt><trkpt lat="54.309113" lon="27.094053"><ele>199.61</ele><time>2013-06-15T09:10:15Z</time></trkpt><trkpt lat="54.308929" lon="27.094417"><ele>198.65</ele><time>2013-06-15T09:10:26Z</time></trkpt><trkpt lat="54.308819" lon="27.094694"><ele>197.21</ele><time>2013-06-15T09:10:37Z</time></trkpt><trkpt lat="54.308831" lon="27.094707"><ele>196.25</ele><time>2013-06-15T09:10:40Z</time></trkpt><trkpt lat="54.308808" lon="27.094731"><ele>197.21</ele><time>2013-06-15T09:11:02Z</time></trkpt><trkpt lat="54.308782" lon="27.094738"><ele>197.21</ele><time>2013-06-15T09:11:37Z</time></trkpt><trkpt lat="54.308767" lon="27.094788"><ele>198.17</ele><time>2013-06-15T09:11:56Z</time></trkpt><trkpt lat="54.308747" lon="27.094898"><ele>199.61</ele><time>2013-06-15T09:12:07Z</time></trkpt><trkpt lat="54.308721" lon="27.094975"><ele>200.09</ele><time>2013-06-15T09:12:16Z</time></trkpt><trkpt lat="54.308635" lon="27.095074"><ele>200.57</ele><time>2013-06-15T09:12:22Z</time></trkpt><trkpt lat="54.308444" lon="27.095366"><ele>200.09</ele><time>2013-06-15T09:12:34Z</time></trkpt><trkpt lat="54.308466" lon="27.095693"><ele>198.17</ele><time>2013-06-15T09:12:46Z</time></trkpt><trkpt lat="54.308468" lon="27.095720"><ele>197.69</ele><time>2013-06-15T09:12:48Z</time></trkpt><trkpt lat="54.308473" lon="27.095798"><ele>197.21</ele><time>2013-06-15T09:12:57Z</time></trkpt><trkpt lat="54.308466" lon="27.095845"><ele>197.21</ele><time>2013-06-15T09:13:00Z</time></trkpt><trkpt lat="54.308464" lon="27.095988"><ele>198.17</ele><time>2013-06-15T09:13:12Z</time></trkpt><trkpt lat="54.308469" lon="27.095992"><ele>198.17</ele><time>2013-06-15T09:13:17Z</time></trkpt><trkpt lat="54.308466" lon="27.096036"><ele>198.65</ele><time>2013-06-15T09:13:30Z</time></trkpt><trkpt lat="54.308471" lon="27.096211"><ele>200.57</ele><time>2013-06-15T09:13:42Z</time></trkpt><trkpt lat="54.308482" lon="27.096370"><ele>202.98</ele><time>2013-06-15T09:14:00Z</time></trkpt><trkpt lat="54.308493" lon="27.096420"><ele>204.42</ele><time>2013-06-15T09:14:13Z</time></trkpt><trkpt lat="54.308529" lon="27.096404"><ele>202.98</ele><time>2013-06-15T09:19:12Z</time></trkpt><trkpt lat="54.308509" lon="27.096789"><ele>203.94</ele><time>2013-06-15T09:19:23Z</time></trkpt><trkpt lat="54.308404" lon="27.097381"><ele>204.42</ele><time>2013-06-15T09:19:34Z</time></trkpt><trkpt lat="54.308352" lon="27.097870"><ele>204.42</ele><time>2013-06-15T09:19:45Z</time></trkpt><trkpt lat="54.308263" lon="27.098321"><ele>201.53</ele><time>2013-06-15T09:19:56Z</time></trkpt><trkpt lat="54.308134" lon="27.098613"><ele>197.69</ele><time>2013-06-15T09:20:11Z</time></trkpt><trkpt lat="54.308132" lon="27.098657"><ele>197.21</ele><time>2013-06-15T09:20:17Z</time></trkpt><trkpt lat="54.308319" lon="27.098945"><ele>196.25</ele><time>2013-06-15T09:20:30Z</time></trkpt><trkpt lat="54.308631" lon="27.099362"><ele>192.88</ele><time>2013-06-15T09:20:43Z</time></trkpt><trkpt lat="54.308697" lon="27.099455"><ele>190.96</ele><time>2013-06-15T09:20:46Z</time></trkpt><trkpt lat="54.309002" lon="27.099800"><ele>186.15</ele><time>2013-06-15T09:21:01Z</time></trkpt><trkpt lat="54.309170" lon="27.100077"><ele>184.71</ele><time>2013-06-15T09:21:13Z</time></trkpt><trkpt lat="54.309296" lon="27.100315"><ele>184.71</ele><time>2013-06-15T09:21:26Z</time></trkpt><trkpt lat="54.309325" lon="27.100344"><ele>184.23</ele><time>2013-06-15T09:21:33Z</time></trkpt><trkpt lat="54.309360" lon="27.100440"><ele>184.71</ele><time>2013-06-15T09:21:46Z</time></trkpt><trkpt lat="54.309418" lon="27.100640"><ele>185.19</ele><time>2013-06-15T09:22:12Z</time></trkpt><trkpt lat="54.309443" lon="27.100724"><ele>185.67</ele><time>2013-06-15T09:22:25Z</time></trkpt><trkpt lat="54.309489" lon="27.100776"><ele>186.15</ele><time>2013-06-15T09:22:37Z</time></trkpt><trkpt lat="54.309516" lon="27.100829"><ele>187.11</ele><time>2013-06-15T09:22:48Z</time></trkpt><trkpt lat="54.309550" lon="27.100943"><ele>190.00</ele><time>2013-06-15T09:23:08Z</time></trkpt><trkpt lat="54.309557" lon="27.100962"><ele>190.96</ele><time>2013-06-15T09:23:09Z</time></trkpt><trkpt lat="54.309631" lon="27.101126"><ele>192.88</ele><time>2013-06-15T09:23:21Z</time></trkpt><trkpt lat="54.309646" lon="27.101204"><ele>197.69</ele><time>2013-06-15T09:23:34Z</time></trkpt><trkpt lat="54.309702" lon="27.101230"><ele>199.61</ele><time>2013-06-15T09:23:57Z</time></trkpt><trkpt lat="54.309706" lon="27.101243"><ele>200.09</ele><time>2013-06-15T09:24:59Z</time></trkpt><trkpt lat="54.309757" lon="27.101315"><ele>198.17</ele><time>2013-06-15T09:26:33Z</time></trkpt><trkpt lat="54.309757" lon="27.101315"><ele>198.17</ele><time>2013-06-15T09:26:36Z</time></trkpt><trkpt lat="54.310038" lon="27.101387"><ele>195.28</ele><time>2013-06-15T09:26:48Z</time></trkpt><trkpt lat="54.310336" lon="27.101412"><ele>193.36</ele><time>2013-06-15T09:26:57Z</time></trkpt><trkpt lat="54.310632" lon="27.101448"><ele>193.36</ele><time>2013-06-15T09:27:07Z</time></trkpt><trkpt lat="54.310966" lon="27.101483"><ele>195.28</ele><time>2013-06-15T09:27:17Z</time></trkpt><trkpt lat="54.311503" lon="27.101469"><ele>196.73</ele><time>2013-06-15T09:27:31Z</time></trkpt><trkpt lat="54.311848" lon="27.101414"><ele>197.21</ele><time>2013-06-15T09:27:40Z</time></trkpt><trkpt lat="54.312356" lon="27.101342"><ele>196.73</ele><time>2013-06-15T09:27:53Z</time></trkpt><trkpt lat="54.312685" lon="27.101297"><ele>192.88</ele><time>2013-06-15T09:28:01Z</time></trkpt><trkpt lat="54.312729" lon="27.101288"><ele>192.40</ele><time>2013-06-15T09:28:02Z</time></trkpt><trkpt lat="54.312976" lon="27.101230"><ele>191.44</ele><time>2013-06-15T09:28:08Z</time></trkpt><trkpt lat="54.313454" lon="27.101151"><ele>190.48</ele><time>2013-06-15T09:28:20Z</time></trkpt><trkpt lat="54.313839" lon="27.101142"><ele>190.48</ele><time>2013-06-15T09:28:33Z</time></trkpt><trkpt lat="54.314290" lon="27.101052"><ele>189.04</ele><time>2013-06-15T09:28:44Z</time></trkpt><trkpt lat="54.314803" lon="27.100868"><ele>185.19</ele><time>2013-06-15T09:28:55Z</time></trkpt><trkpt lat="54.315394" lon="27.100687"><ele>175.58</ele><time>2013-06-15T09:29:09Z</time></trkpt><trkpt lat="54.315906" lon="27.100601"><ele>175.10</ele><time>2013-06-15T09:29:23Z</time></trkpt><trkpt lat="54.316310" lon="27.100519"><ele>173.17</ele><time>2013-06-15T09:29:33Z</time></trkpt><trkpt lat="54.316773" lon="27.100414"><ele>170.77</ele><time>2013-06-15T09:29:46Z</time></trkpt><trkpt lat="54.317272" lon="27.100316"><ele>169.81</ele><time>2013-06-15T09:30:01Z</time></trkpt><trkpt lat="54.317817" lon="27.100179"><ele>169.33</ele><time>2013-06-15T09:30:19Z</time></trkpt><trkpt lat="54.318185" lon="27.100138"><ele>168.85</ele><time>2013-06-15T09:30:33Z</time></trkpt><trkpt lat="54.318557" lon="27.100056"><ele>168.37</ele><time>2013-06-15T09:30:47Z</time></trkpt><trkpt lat="54.318951" lon="27.100007"><ele>168.37</ele><time>2013-06-15T09:31:00Z</time></trkpt><trkpt lat="54.319339" lon="27.099953"><ele>167.89</ele><time>2013-06-15T09:31:14Z</time></trkpt><trkpt lat="54.319769" lon="27.099877"><ele>167.89</ele><time>2013-06-15T09:31:28Z</time></trkpt><trkpt lat="54.320238" lon="27.099828"><ele>166.93</ele><time>2013-06-15T09:31:43Z</time></trkpt><trkpt lat="54.320667" lon="27.099732"><ele>167.89</ele><time>2013-06-15T09:31:57Z</time></trkpt><trkpt lat="54.321147" lon="27.099657"><ele>168.37</ele><time>2013-06-15T09:32:12Z</time></trkpt><trkpt lat="54.321608" lon="27.099571"><ele>167.41</ele><time>2013-06-15T09:32:26Z</time></trkpt><trkpt lat="54.322026" lon="27.099509"><ele>167.89</ele><time>2013-06-15T09:32:39Z</time></trkpt><trkpt lat="54.322547" lon="27.099438"><ele>167.89</ele><time>2013-06-15T09:32:53Z</time></trkpt><trkpt lat="54.322997" lon="27.099330"><ele>167.89</ele><time>2013-06-15T09:33:08Z</time></trkpt><trkpt lat="54.323470" lon="27.099251"><ele>168.85</ele><time>2013-06-15T09:33:22Z</time></trkpt><trkpt lat="54.324025" lon="27.099155"><ele>168.85</ele><time>2013-06-15T09:33:36Z</time></trkpt><trkpt lat="54.324603" lon="27.099083"><ele>167.89</ele><time>2013-06-15T09:33:51Z</time></trkpt><trkpt lat="54.325144" lon="27.099033"><ele>168.85</ele><time>2013-06-15T09:34:05Z</time></trkpt><trkpt lat="54.325585" lon="27.098982"><ele>168.85</ele><time>2013-06-15T09:34:18Z</time></trkpt><trkpt lat="54.325906" lon="27.099347"><ele>168.37</ele><time>2013-06-15T09:34:29Z</time></trkpt><trkpt lat="54.326376" lon="27.099624"><ele>167.89</ele><time>2013-06-15T09:34:43Z</time></trkpt><trkpt lat="54.326816" lon="27.099441"><ele>167.41</ele><time>2013-06-15T09:34:57Z</time></trkpt><trkpt lat="54.327300" lon="27.099218"><ele>167.89</ele><time>2013-06-15T09:35:13Z</time></trkpt><trkpt lat="54.327811" lon="27.098969"><ele>168.37</ele><time>2013-06-15T09:35:30Z</time></trkpt><trkpt lat="54.328399" lon="27.098673"><ele>167.89</ele><time>2013-06-15T09:35:49Z</time></trkpt><trkpt lat="54.328942" lon="27.098419"><ele>167.89</ele><time>2013-06-15T09:36:07Z</time></trkpt><trkpt lat="54.329368" lon="27.098199"><ele>167.89</ele><time>2013-06-15T09:36:21Z</time></trkpt><trkpt lat="54.329746" lon="27.098003"><ele>167.89</ele><time>2013-06-15T09:36:35Z</time></trkpt><trkpt lat="54.330062" lon="27.097853"><ele>168.37</ele><time>2013-06-15T09:36:47Z</time></trkpt><trkpt lat="54.330473" lon="27.097643"><ele>168.85</ele><time>2013-06-15T09:37:02Z</time></trkpt><trkpt lat="54.330825" lon="27.097479"><ele>168.85</ele><time>2013-06-15T09:37:15Z</time></trkpt><trkpt lat="54.331335" lon="27.097234"><ele>168.85</ele><time>2013-06-15T09:37:32Z</time></trkpt><trkpt lat="54.331911" lon="27.096955"><ele>168.37</ele><time>2013-06-15T09:37:51Z</time></trkpt><trkpt lat="54.332394" lon="27.096714"><ele>167.89</ele><time>2013-06-15T09:38:07Z</time></trkpt><trkpt lat="54.332927" lon="27.096469"><ele>168.37</ele><time>2013-06-15T09:38:24Z</time></trkpt><trkpt lat="54.333329" lon="27.096269"><ele>168.85</ele><time>2013-06-15T09:38:38Z</time></trkpt><trkpt lat="54.333795" lon="27.096063"><ele>168.85</ele><time>2013-06-15T09:38:54Z</time></trkpt><trkpt lat="54.334168" lon="27.095867"><ele>168.85</ele><time>2013-06-15T09:39:09Z</time></trkpt><trkpt lat="54.334513" lon="27.095699"><ele>168.37</ele><time>2013-06-15T09:39:23Z</time></trkpt><trkpt lat="54.334749" lon="27.095547"><ele>168.85</ele><time>2013-06-15T09:39:36Z</time></trkpt><trkpt lat="54.334753" lon="27.095544"><ele>168.37</ele><time>2013-06-15T09:39:54Z</time></trkpt><trkpt lat="54.334784" lon="27.095537"><ele>169.33</ele><time>2013-06-15T09:40:01Z</time></trkpt><trkpt lat="54.334797" lon="27.095526"><ele>169.33</ele><time>2013-06-15T09:40:02Z</time></trkpt><trkpt lat="54.334977" lon="27.095476"><ele>169.33</ele><time>2013-06-15T09:40:13Z</time></trkpt><trkpt lat="54.335020" lon="27.095468"><ele>168.85</ele><time>2013-06-15T09:40:17Z</time></trkpt><trkpt lat="54.335032" lon="27.095457"><ele>168.85</ele><time>2013-06-15T09:40:18Z</time></trkpt><trkpt lat="54.335046" lon="27.095449"><ele>168.85</ele><time>2013-06-15T09:40:19Z</time></trkpt><trkpt lat="54.335062" lon="27.095441"><ele>169.33</ele><time>2013-06-15T09:40:20Z</time></trkpt><trkpt lat="54.335080" lon="27.095434"><ele>169.33</ele><time>2013-06-15T09:40:21Z</time></trkpt><trkpt lat="54.335399" lon="27.095308"><ele>170.29</ele><time>2013-06-15T09:40:34Z</time></trkpt><trkpt lat="54.335917" lon="27.095134"><ele>170.77</ele><time>2013-06-15T09:40:51Z</time></trkpt><trkpt lat="54.336279" lon="27.095038"><ele>170.77</ele><time>2013-06-15T09:41:06Z</time></trkpt><trkpt lat="54.336645" lon="27.094831"><ele>171.73</ele><time>2013-06-15T09:41:21Z</time></trkpt><trkpt lat="54.337073" lon="27.094629"><ele>172.21</ele><time>2013-06-15T09:41:38Z</time></trkpt><trkpt lat="54.337455" lon="27.094559"><ele>173.66</ele><time>2013-06-15T09:41:54Z</time></trkpt><trkpt lat="54.337856" lon="27.094809"><ele>173.66</ele><time>2013-06-15T09:42:10Z</time></trkpt><trkpt lat="54.338182" lon="27.095140"><ele>174.62</ele><time>2013-06-15T09:42:24Z</time></trkpt><trkpt lat="54.338560" lon="27.095328"><ele>176.54</ele><time>2013-06-15T09:42:40Z</time></trkpt><trkpt lat="54.338890" lon="27.095552"><ele>177.50</ele><time>2013-06-15T09:42:55Z</time></trkpt><trkpt lat="54.339219" lon="27.095875"><ele>180.87</ele><time>2013-06-15T09:43:10Z</time></trkpt><trkpt lat="54.339614" lon="27.096139"><ele>183.27</ele><time>2013-06-15T09:43:27Z</time></trkpt><trkpt lat="54.340038" lon="27.096248"><ele>184.23</ele><time>2013-06-15T09:43:45Z</time></trkpt><trkpt lat="54.340111" lon="27.096344"><ele>185.19</ele><time>2013-06-15T09:43:57Z</time></trkpt><trkpt lat="54.340111" lon="27.096344"><ele>185.19</ele><time>2013-06-15T09:44:15Z</time></trkpt><trkpt lat="54.340109" lon="27.096351"><ele>185.19</ele><time>2013-06-15T09:44:27Z</time></trkpt><trkpt lat="54.340108" lon="27.096355"><ele>185.19</ele><time>2013-06-15T09:44:53Z</time></trkpt><trkpt lat="54.340111" lon="27.096360"><ele>185.19</ele><time>2013-06-15T09:45:14Z</time></trkpt><trkpt lat="54.340117" lon="27.096419"><ele>185.67</ele><time>2013-06-15T09:45:29Z</time></trkpt><trkpt lat="54.340118" lon="27.096421"><ele>185.67</ele><time>2013-06-15T09:45:45Z</time></trkpt><trkpt lat="54.340115" lon="27.096434"><ele>185.19</ele><time>2013-06-15T09:46:13Z</time></trkpt><trkpt lat="54.340115" lon="27.096442"><ele>185.19</ele><time>2013-06-15T09:46:47Z</time></trkpt><trkpt lat="54.340115" lon="27.096445"><ele>185.67</ele><time>2013-06-15T09:47:56Z</time></trkpt><trkpt lat="54.340111" lon="27.096439"><ele>185.67</ele><time>2013-06-15T09:48:26Z</time></trkpt><trkpt lat="54.340111" lon="27.096439"><ele>185.67</ele><time>2013-06-15T09:48:48Z</time></trkpt><trkpt lat="54.340113" lon="27.096445"><ele>185.67</ele><time>2013-06-15T09:49:32Z</time></trkpt><trkpt lat="54.340114" lon="27.096450"><ele>185.67</ele><time>2013-06-15T09:51:02Z</time></trkpt><trkpt lat="54.340143" lon="27.096441"><ele>185.67</ele><time>2013-06-15T09:51:16Z</time></trkpt><trkpt lat="54.340143" lon="27.096441"><ele>185.67</ele><time>2013-06-15T09:51:42Z</time></trkpt><trkpt lat="54.340146" lon="27.096443"><ele>185.67</ele><time>2013-06-15T09:52:20Z</time></trkpt><trkpt lat="54.340146" lon="27.096437"><ele>186.15</ele><time>2013-06-15T09:53:59Z</time></trkpt><trkpt lat="54.340146" lon="27.096437"><ele>186.15</ele><time>2013-06-15T09:54:21Z</time></trkpt><trkpt lat="54.340173" lon="27.096439"><ele>186.63</ele><time>2013-06-15T09:54:36Z</time></trkpt><trkpt lat="54.340247" lon="27.096613"><ele>187.11</ele><time>2013-06-15T09:54:51Z</time></trkpt><trkpt lat="54.340512" lon="27.097205"><ele>186.15</ele><time>2013-06-15T09:55:09Z</time></trkpt><trkpt lat="54.340551" lon="27.097738"><ele>185.19</ele><time>2013-06-15T09:55:23Z</time></trkpt><trkpt lat="54.340562" lon="27.098303"><ele>185.19</ele><time>2013-06-15T09:55:36Z</time></trkpt><trkpt lat="54.340563" lon="27.098384"><ele>185.19</ele><time>2013-06-15T09:55:46Z</time></trkpt><trkpt lat="54.340573" lon="27.098488"><ele>185.67</ele><time>2013-06-15T09:55:56Z</time></trkpt><trkpt lat="54.340579" lon="27.098711"><ele>185.19</ele><time>2013-06-15T09:56:08Z</time></trkpt><trkpt lat="54.340594" lon="27.098781"><ele>184.23</ele><time>2013-06-15T09:56:11Z</time></trkpt><trkpt lat="54.340618" lon="27.099118"><ele>183.27</ele><time>2013-06-15T09:56:25Z</time></trkpt><trkpt lat="54.340620" lon="27.099223"><ele>183.27</ele><time>2013-06-15T09:56:30Z</time></trkpt><trkpt lat="54.340624" lon="27.099249"><ele>183.27</ele><time>2013-06-15T09:56:31Z</time></trkpt><trkpt lat="54.340646" lon="27.099515"><ele>181.35</ele><time>2013-06-15T09:56:43Z</time></trkpt><trkpt lat="54.340646" lon="27.099559"><ele>181.35</ele><time>2013-06-15T09:56:45Z</time></trkpt><trkpt lat="54.340648" lon="27.099583"><ele>181.35</ele><time>2013-06-15T09:56:46Z</time></trkpt><trkpt lat="54.340648" lon="27.099605"><ele>181.35</ele><time>2013-06-15T09:56:47Z</time></trkpt><trkpt lat="54.340654" lon="27.099625"><ele>181.35</ele><time>2013-06-15T09:56:48Z</time></trkpt><trkpt lat="54.340663" lon="27.099645"><ele>181.35</ele><time>2013-06-15T09:56:49Z</time></trkpt><trkpt lat="54.340669" lon="27.099665"><ele>181.35</ele><time>2013-06-15T09:56:50Z</time></trkpt><trkpt lat="54.340680" lon="27.099886"><ele>181.83</ele><time>2013-06-15T09:57:00Z</time></trkpt><trkpt lat="54.340684" lon="27.099903"><ele>181.83</ele><time>2013-06-15T09:57:01Z</time></trkpt><trkpt lat="54.340734" lon="27.100162"><ele>182.31</ele><time>2013-06-15T09:57:15Z</time></trkpt><trkpt lat="54.340741" lon="27.100183"><ele>182.31</ele><time>2013-06-15T09:57:20Z</time></trkpt><trkpt lat="54.340752" lon="27.100208"><ele>182.31</ele><time>2013-06-15T09:57:21Z</time></trkpt><trkpt lat="54.340762" lon="27.100237"><ele>182.31</ele><time>2013-06-15T09:57:22Z</time></trkpt><trkpt lat="54.340776" lon="27.100269"><ele>182.31</ele><time>2013-06-15T09:57:23Z</time></trkpt><trkpt lat="54.340794" lon="27.100299"><ele>182.31</ele><time>2013-06-15T09:57:24Z</time></trkpt><trkpt lat="54.340812" lon="27.100325"><ele>182.31</ele><time>2013-06-15T09:57:25Z</time></trkpt><trkpt lat="54.341080" lon="27.100456"><ele>181.35</ele><time>2013-06-15T09:57:37Z</time></trkpt><trkpt lat="54.341394" lon="27.100084"><ele>180.38</ele><time>2013-06-15T09:57:51Z</time></trkpt><trkpt lat="54.341827" lon="27.099594"><ele>180.38</ele><time>2013-06-15T09:58:07Z</time></trkpt><trkpt lat="54.342310" lon="27.099054"><ele>181.35</ele><time>2013-06-15T09:58:24Z</time></trkpt><trkpt lat="54.342732" lon="27.098587"><ele>182.79</ele><time>2013-06-15T09:58:39Z</time></trkpt><trkpt lat="54.343120" lon="27.098132"><ele>183.75</ele><time>2013-06-15T09:58:53Z</time></trkpt><trkpt lat="54.343584" lon="27.097595"><ele>183.27</ele><time>2013-06-15T09:59:09Z</time></trkpt><trkpt lat="54.344050" lon="27.097040"><ele>183.27</ele><time>2013-06-15T09:59:25Z</time></trkpt><trkpt lat="54.344426" lon="27.096612"><ele>182.79</ele><time>2013-06-15T09:59:38Z</time></trkpt><trkpt lat="54.344806" lon="27.096159"><ele>182.79</ele><time>2013-06-15T09:59:52Z</time></trkpt><trkpt lat="54.345163" lon="27.095756"><ele>182.79</ele><time>2013-06-15T10:00:06Z</time></trkpt><trkpt lat="54.345334" lon="27.095586"><ele>182.79</ele><time>2013-06-15T10:00:19Z</time></trkpt><trkpt lat="54.345334" lon="27.095586"><ele>182.79</ele><time>2013-06-15T10:00:23Z</time></trkpt><trkpt lat="54.345352" lon="27.095603"><ele>183.75</ele><time>2013-06-15T10:00:30Z</time></trkpt><trkpt lat="54.345371" lon="27.095616"><ele>183.75</ele><time>2013-06-15T10:00:33Z</time></trkpt><trkpt lat="54.345383" lon="27.095678"><ele>183.27</ele><time>2013-06-15T10:00:37Z</time></trkpt><trkpt lat="54.345377" lon="27.095750"><ele>182.31</ele><time>2013-06-15T10:00:42Z</time></trkpt><trkpt lat="54.345291" lon="27.095840"><ele>181.83</ele><time>2013-06-15T10:00:51Z</time></trkpt><trkpt lat="54.345247" lon="27.095865"><ele>181.83</ele><time>2013-06-15T10:00:55Z</time></trkpt><trkpt lat="54.345152" lon="27.096020"><ele>179.42</ele><time>2013-06-15T10:01:06Z</time></trkpt><trkpt lat="54.345167" lon="27.096155"><ele>179.42</ele><time>2013-06-15T10:01:19Z</time></trkpt><trkpt lat="54.345192" lon="27.096174"><ele>178.94</ele><time>2013-06-15T10:04:41Z</time></trkpt><trkpt lat="54.345185" lon="27.096204"><ele>180.87</ele><time>2013-06-15T10:23:22Z</time></trkpt><trkpt lat="54.345175" lon="27.096220"><ele>180.87</ele><time>2013-06-15T10:24:30Z</time></trkpt><trkpt lat="54.345177" lon="27.096217"><ele>180.38</ele><time>2013-06-15T10:28:19Z</time></trkpt><trkpt lat="54.345207" lon="27.096229"><ele>174.62</ele><time>2013-06-15T10:44:59Z</time></trkpt><trkpt lat="54.345196" lon="27.096223"><ele>174.62</ele><time>2013-06-15T10:45:22Z</time></trkpt><trkpt lat="54.345189" lon="27.096215"><ele>175.58</ele><time>2013-06-15T10:45:38Z</time></trkpt><trkpt lat="54.345211" lon="27.096221"><ele>177.02</ele><time>2013-06-15T10:45:50Z</time></trkpt><trkpt lat="54.345215" lon="27.096226"><ele>177.50</ele><time>2013-06-15T10:46:24Z</time></trkpt><trkpt lat="54.345216" lon="27.096221"><ele>177.50</ele><time>2013-06-15T10:47:08Z</time></trkpt><trkpt lat="54.345182" lon="27.096232"><ele>177.50</ele><time>2013-06-15T10:47:19Z</time></trkpt><trkpt lat="54.345178" lon="27.096149"><ele>177.50</ele><time>2013-06-15T10:47:43Z</time></trkpt><trkpt lat="54.345188" lon="27.096107"><ele>178.46</ele><time>2013-06-15T10:47:48Z</time></trkpt><trkpt lat="54.345259" lon="27.096003"><ele>178.94</ele><time>2013-06-15T10:47:57Z</time></trkpt><trkpt lat="54.345363" lon="27.095835"><ele>177.98</ele><time>2013-06-15T10:48:08Z</time></trkpt><trkpt lat="54.345351" lon="27.095610"><ele>176.54</ele><time>2013-06-15T10:48:21Z</time></trkpt><trkpt lat="54.345363" lon="27.095549"><ele>176.54</ele><time>2013-06-15T10:48:34Z</time></trkpt><trkpt lat="54.345391" lon="27.095497"><ele>177.02</ele><time>2013-06-15T10:48:41Z</time></trkpt><trkpt lat="54.345441" lon="27.095433"><ele>177.50</ele><time>2013-06-15T10:48:45Z</time></trkpt><trkpt lat="54.345737" lon="27.095052"><ele>177.98</ele><time>2013-06-15T10:49:01Z</time></trkpt><trkpt lat="54.346030" lon="27.094653"><ele>178.46</ele><time>2013-06-15T10:49:14Z</time></trkpt><trkpt lat="54.346234" lon="27.094483"><ele>178.94</ele><time>2013-06-15T10:49:23Z</time></trkpt><trkpt lat="54.346501" lon="27.093847"><ele>177.50</ele><time>2013-06-15T10:49:37Z</time></trkpt><trkpt lat="54.346813" lon="27.093125"><ele>177.02</ele><time>2013-06-15T10:49:52Z</time></trkpt><trkpt lat="54.347123" lon="27.092446"><ele>180.38</ele><time>2013-06-15T10:50:05Z</time></trkpt><trkpt lat="54.347288" lon="27.092026"><ele>180.87</ele><time>2013-06-15T10:50:13Z</time></trkpt><trkpt lat="54.347557" lon="27.091413"><ele>179.42</ele><time>2013-06-15T10:50:26Z</time></trkpt><trkpt lat="54.347822" lon="27.090791"><ele>179.90</ele><time>2013-06-15T10:50:38Z</time></trkpt><trkpt lat="54.348133" lon="27.090086"><ele>174.62</ele><time>2013-06-15T10:50:52Z</time></trkpt><trkpt lat="54.348480" lon="27.089251"><ele>173.17</ele><time>2013-06-15T10:51:07Z</time></trkpt><trkpt lat="54.348722" lon="27.088607"><ele>169.81</ele><time>2013-06-15T10:51:19Z</time></trkpt><trkpt lat="54.349004" lon="27.088003"><ele>165.96</ele><time>2013-06-15T10:51:30Z</time></trkpt><trkpt lat="54.349384" lon="27.087222"><ele>155.87</ele><time>2013-06-15T10:51:44Z</time></trkpt><trkpt lat="54.349785" lon="27.086548"><ele>160.68</ele><time>2013-06-15T10:51:56Z</time></trkpt><trkpt lat="54.350256" lon="27.085949"><ele>165.48</ele><time>2013-06-15T10:52:10Z</time></trkpt><trkpt lat="54.350553" lon="27.085545"><ele>167.89</ele><time>2013-06-15T10:52:21Z</time></trkpt><trkpt lat="54.350841" lon="27.085177"><ele>168.85</ele><time>2013-06-15T10:52:32Z</time></trkpt><trkpt lat="54.351172" lon="27.084859"><ele>173.66</ele><time>2013-06-15T10:52:45Z</time></trkpt><trkpt lat="54.351560" lon="27.084533"><ele>172.69</ele><time>2013-06-15T10:52:57Z</time></trkpt><trkpt lat="54.352305" lon="27.083465"><ele>179.90</ele><time>2013-06-15T10:53:14Z</time></trkpt><trkpt lat="54.353082" lon="27.082705"><ele>184.71</ele><time>2013-06-15T10:53:35Z</time></trkpt><trkpt lat="54.353991" lon="27.082160"><ele>184.23</ele><time>2013-06-15T10:53:58Z</time></trkpt><trkpt lat="54.354817" lon="27.082029"><ele>184.23</ele><time>2013-06-15T10:54:15Z</time></trkpt><trkpt lat="54.355335" lon="27.082106"><ele>184.23</ele><time>2013-06-15T10:54:28Z</time></trkpt><trkpt lat="54.355500" lon="27.081764"><ele>184.23</ele><time>2013-06-15T10:54:38Z</time></trkpt><trkpt lat="54.355410" lon="27.081034"><ele>184.23</ele><time>2013-06-15T10:54:52Z</time></trkpt><trkpt lat="54.355401" lon="27.080916"><ele>184.23</ele><time>2013-06-15T10:54:55Z</time></trkpt><trkpt lat="54.355493" lon="27.080656"><ele>183.75</ele><time>2013-06-15T10:55:07Z</time></trkpt><trkpt lat="54.355500" lon="27.080632"><ele>183.75</ele><time>2013-06-15T10:55:21Z</time></trkpt><trkpt lat="54.355506" lon="27.080628"><ele>183.75</ele><time>2013-06-15T10:57:44Z</time></trkpt><trkpt lat="54.355508" lon="27.080623"><ele>183.27</ele><time>2013-06-15T10:58:17Z</time></trkpt><trkpt lat="54.355511" lon="27.080612"><ele>182.79</ele><time>2013-06-15T10:59:47Z</time></trkpt><trkpt lat="54.355519" lon="27.080611"><ele>182.79</ele><time>2013-06-15T11:02:02Z</time></trkpt><trkpt lat="54.355518" lon="27.080601"><ele>181.83</ele><time>2013-06-15T11:02:39Z</time></trkpt><trkpt lat="54.355518" lon="27.080601"><ele>181.83</ele><time>2013-06-15T11:03:00Z</time></trkpt><trkpt lat="54.355514" lon="27.080596"><ele>181.35</ele><time>2013-06-15T11:03:43Z</time></trkpt><trkpt lat="54.355505" lon="27.080584"><ele>181.35</ele><time>2013-06-15T11:05:30Z</time></trkpt><trkpt lat="54.355505" lon="27.080584"><ele>181.35</ele><time>2013-06-15T11:05:47Z</time></trkpt><trkpt lat="54.355504" lon="27.080583"><ele>180.87</ele><time>2013-06-15T11:06:19Z</time></trkpt><trkpt lat="54.355479" lon="27.080586"><ele>181.35</ele><time>2013-06-15T11:06:26Z</time></trkpt><trkpt lat="54.355313" lon="27.080427"><ele>183.27</ele><time>2013-06-15T11:06:36Z</time></trkpt><trkpt lat="54.355107" lon="27.079315"><ele>182.79</ele><time>2013-06-15T11:06:53Z</time></trkpt><trkpt lat="54.354898" lon="27.078259"><ele>182.31</ele><time>2013-06-15T11:07:07Z</time></trkpt><trkpt lat="54.354883" lon="27.078188"><ele>182.31</ele><time>2013-06-15T11:07:08Z</time></trkpt><trkpt lat="54.354671" lon="27.076957"><ele>179.42</ele><time>2013-06-15T11:07:24Z</time></trkpt><trkpt lat="54.354417" lon="27.075571"><ele>176.54</ele><time>2013-06-15T11:07:40Z</time></trkpt><trkpt lat="54.354134" lon="27.074028"><ele>176.06</ele><time>2013-06-15T11:07:56Z</time></trkpt><trkpt lat="54.353913" lon="27.072663"><ele>175.10</ele><time>2013-06-15T11:08:09Z</time></trkpt><trkpt lat="54.353620" lon="27.070912"><ele>173.17</ele><time>2013-06-15T11:08:27Z</time></trkpt><trkpt lat="54.353336" lon="27.069054"><ele>170.77</ele><time>2013-06-15T11:08:45Z</time></trkpt><trkpt lat="54.353190" lon="27.067134"><ele>169.33</ele><time>2013-06-15T11:09:03Z</time></trkpt><trkpt lat="54.353205" lon="27.065791"><ele>170.29</ele><time>2013-06-15T11:09:19Z</time></trkpt><trkpt lat="54.353309" lon="27.064321"><ele>171.73</ele><time>2013-06-15T11:09:37Z</time></trkpt><trkpt lat="54.353423" lon="27.062880"><ele>172.69</ele><time>2013-06-15T11:09:55Z</time></trkpt><trkpt lat="54.353531" lon="27.061765"><ele>174.14</ele><time>2013-06-15T11:10:12Z</time></trkpt><trkpt lat="54.353593" lon="27.060817"><ele>176.06</ele><time>2013-06-15T11:10:28Z</time></trkpt><trkpt lat="54.353642" lon="27.060156"><ele>177.98</ele><time>2013-06-15T11:10:38Z</time></trkpt><trkpt lat="54.353646" lon="27.060085"><ele>178.46</ele><time>2013-06-15T11:10:39Z</time></trkpt><trkpt lat="54.353743" lon="27.058943"><ele>179.42</ele><time>2013-06-15T11:10:55Z</time></trkpt><trkpt lat="54.353751" lon="27.058871"><ele>179.42</ele><time>2013-06-15T11:10:56Z</time></trkpt><trkpt lat="54.353760" lon="27.058798"><ele>179.42</ele><time>2013-06-15T11:10:57Z</time></trkpt><trkpt lat="54.353849" lon="27.057633"><ele>180.87</ele><time>2013-06-15T11:11:13Z</time></trkpt><trkpt lat="54.353903" lon="27.057065"><ele>180.87</ele><time>2013-06-15T11:11:21Z</time></trkpt><trkpt lat="54.354017" lon="27.055557"><ele>182.79</ele><time>2013-06-15T11:11:41Z</time></trkpt><trkpt lat="54.354053" lon="27.055189"><ele>183.75</ele><time>2013-06-15T11:11:46Z</time></trkpt><trkpt lat="54.354149" lon="27.053883"><ele>184.23</ele><time>2013-06-15T11:12:05Z</time></trkpt><trkpt lat="54.354251" lon="27.052644"><ele>185.19</ele><time>2013-06-15T11:12:22Z</time></trkpt><trkpt lat="54.354324" lon="27.051618"><ele>186.63</ele><time>2013-06-15T11:12:37Z</time></trkpt><trkpt lat="54.354407" lon="27.050432"><ele>188.08</ele><time>2013-06-15T11:12:54Z</time></trkpt><trkpt lat="54.354404" lon="27.049334"><ele>189.04</ele><time>2013-06-15T11:13:11Z</time></trkpt><trkpt lat="54.354271" lon="27.047958"><ele>189.52</ele><time>2013-06-15T11:13:30Z</time></trkpt><trkpt lat="54.353998" lon="27.046514"><ele>188.08</ele><time>2013-06-15T11:13:50Z</time></trkpt><trkpt lat="54.353693" lon="27.045216"><ele>187.59</ele><time>2013-06-15T11:14:09Z</time></trkpt><trkpt lat="54.353376" lon="27.043912"><ele>186.15</ele><time>2013-06-15T11:14:28Z</time></trkpt><trkpt lat="54.353010" lon="27.042307"><ele>186.15</ele><time>2013-06-15T11:14:51Z</time></trkpt><trkpt lat="54.352697" lon="27.040977"><ele>186.63</ele><time>2013-06-15T11:15:09Z</time></trkpt><trkpt lat="54.352352" lon="27.039421"><ele>185.19</ele><time>2013-06-15T11:15:27Z</time></trkpt><trkpt lat="54.352084" lon="27.037628"><ele>184.23</ele><time>2013-06-15T11:15:45Z</time></trkpt><trkpt lat="54.351816" lon="27.035494"><ele>182.79</ele><time>2013-06-15T11:16:05Z</time></trkpt><trkpt lat="54.351524" lon="27.033187"><ele>179.90</ele><time>2013-06-15T11:16:26Z</time></trkpt><trkpt lat="54.351255" lon="27.031168"><ele>177.50</ele><time>2013-06-15T11:16:44Z</time></trkpt><trkpt lat="54.350936" lon="27.029079"><ele>172.21</ele><time>2013-06-15T11:17:02Z</time></trkpt><trkpt lat="54.350570" lon="27.027298"><ele>168.85</ele><time>2013-06-15T11:17:18Z</time></trkpt><trkpt lat="54.350272" lon="27.025914"><ele>169.81</ele><time>2013-06-15T11:17:33Z</time></trkpt><trkpt lat="54.349961" lon="27.024387"><ele>170.77</ele><time>2013-06-15T11:17:49Z</time></trkpt><trkpt lat="54.349467" lon="27.022770"><ele>170.77</ele><time>2013-06-15T11:18:06Z</time></trkpt><trkpt lat="54.348787" lon="27.021138"><ele>173.66</ele><time>2013-06-15T11:18:27Z</time></trkpt><trkpt lat="54.348315" lon="27.020050"><ele>176.06</ele><time>2013-06-15T11:18:44Z</time></trkpt><trkpt lat="54.347922" lon="27.019122"><ele>178.94</ele><time>2013-06-15T11:18:58Z</time></trkpt><trkpt lat="54.347432" lon="27.017936"><ele>182.79</ele><time>2013-06-15T11:19:17Z</time></trkpt><trkpt lat="54.347004" lon="27.016922"><ele>185.19</ele><time>2013-06-15T11:19:34Z</time></trkpt><trkpt lat="54.346979" lon="27.016863"><ele>185.19</ele><time>2013-06-15T11:19:35Z</time></trkpt><trkpt lat="54.346847" lon="27.016570"><ele>186.15</ele><time>2013-06-15T11:19:40Z</time></trkpt><trkpt lat="54.346821" lon="27.016513"><ele>186.15</ele><time>2013-06-15T11:19:41Z</time></trkpt><trkpt lat="54.346425" lon="27.015540"><ele>186.15</ele><time>2013-06-15T11:19:55Z</time></trkpt><trkpt lat="54.345924" lon="27.014418"><ele>188.08</ele><time>2013-06-15T11:20:13Z</time></trkpt><trkpt lat="54.345494" lon="27.013427"><ele>191.44</ele><time>2013-06-15T11:20:30Z</time></trkpt><trkpt lat="54.344950" lon="27.012268"><ele>188.56</ele><time>2013-06-15T11:20:48Z</time></trkpt><trkpt lat="54.344371" lon="27.011068"><ele>188.56</ele><time>2013-06-15T11:21:07Z</time></trkpt><trkpt lat="54.343898" lon="27.009996"><ele>187.59</ele><time>2013-06-15T11:21:23Z</time></trkpt><trkpt lat="54.343405" lon="27.008713"><ele>185.67</ele><time>2013-06-15T11:21:40Z</time></trkpt><trkpt lat="54.342829" lon="27.007093"><ele>183.75</ele><time>2013-06-15T11:21:59Z</time></trkpt><trkpt lat="54.342348" lon="27.005732"><ele>182.79</ele><time>2013-06-15T11:22:15Z</time></trkpt><trkpt lat="54.341739" lon="27.003978"><ele>182.31</ele><time>2013-06-15T11:22:34Z</time></trkpt><trkpt lat="54.341097" lon="27.002188"><ele>181.83</ele><time>2013-06-15T11:22:54Z</time></trkpt><trkpt lat="54.340450" lon="27.000700"><ele>179.42</ele><time>2013-06-15T11:23:11Z</time></trkpt><trkpt lat="54.339748" lon="26.999522"><ele>178.94</ele><time>2013-06-15T11:23:27Z</time></trkpt><trkpt lat="54.339061" lon="26.998398"><ele>176.06</ele><time>2013-06-15T11:23:43Z</time></trkpt><trkpt lat="54.338801" lon="26.997933"><ele>176.06</ele><time>2013-06-15T11:23:50Z</time></trkpt><trkpt lat="54.338682" lon="26.997725"><ele>175.58</ele><time>2013-06-15T11:23:54Z</time></trkpt><trkpt lat="54.338377" lon="26.997130"><ele>175.10</ele><time>2013-06-15T11:24:07Z</time></trkpt><trkpt lat="54.338075" lon="26.996492"><ele>176.54</ele><time>2013-06-15T11:24:22Z</time></trkpt><trkpt lat="54.338016" lon="26.996339"><ele>176.54</ele><time>2013-06-15T11:24:32Z</time></trkpt><trkpt lat="54.338014" lon="26.996340"><ele>176.06</ele><time>2013-06-15T11:25:22Z</time></trkpt><trkpt lat="54.338005" lon="26.996348"><ele>175.10</ele><time>2013-06-15T11:28:20Z</time></trkpt><trkpt lat="54.337988" lon="26.996321"><ele>175.10</ele><time>2013-06-15T11:28:21Z</time></trkpt><trkpt lat="54.337977" lon="26.996292"><ele>175.10</ele><time>2013-06-15T11:28:22Z</time></trkpt><trkpt lat="54.337965" lon="26.996259"><ele>174.62</ele><time>2013-06-15T11:28:23Z</time></trkpt><trkpt lat="54.337950" lon="26.996221"><ele>175.10</ele><time>2013-06-15T11:28:24Z</time></trkpt><trkpt lat="54.337932" lon="26.996178"><ele>175.10</ele><time>2013-06-15T11:28:25Z</time></trkpt><trkpt lat="54.337911" lon="26.996128"><ele>175.10</ele><time>2013-06-15T11:28:26Z</time></trkpt><trkpt lat="54.337497" lon="26.995242"><ele>175.10</ele><time>2013-06-15T11:28:40Z</time></trkpt><trkpt lat="54.337005" lon="26.994190"><ele>173.66</ele><time>2013-06-15T11:28:56Z</time></trkpt><trkpt lat="54.336795" lon="26.993707"><ele>174.62</ele><time>2013-06-15T11:29:04Z</time></trkpt><trkpt lat="54.336280" lon="26.992517"><ele>174.62</ele><time>2013-06-15T11:29:22Z</time></trkpt><trkpt lat="54.336198" lon="26.992351"><ele>174.62</ele><time>2013-06-15T11:29:25Z</time></trkpt><trkpt lat="54.335633" lon="26.991049"><ele>174.62</ele><time>2013-06-15T11:29:44Z</time></trkpt><trkpt lat="54.335178" lon="26.990101"><ele>174.14</ele><time>2013-06-15T11:30:00Z</time></trkpt><trkpt lat="54.335074" lon="26.989849"><ele>174.62</ele><time>2013-06-15T11:30:14Z</time></trkpt><trkpt lat="54.334959" lon="26.989621"><ele>173.17</ele><time>2013-06-15T11:31:57Z</time></trkpt><trkpt lat="54.334562" lon="26.988728"><ele>170.77</ele><time>2013-06-15T11:32:12Z</time></trkpt><trkpt lat="54.334454" lon="26.988447"><ele>170.29</ele><time>2013-06-15T11:32:17Z</time></trkpt><trkpt lat="54.334151" lon="26.987545"><ele>169.81</ele><time>2013-06-15T11:32:31Z</time></trkpt><trkpt lat="54.333822" lon="26.986478"><ele>171.25</ele><time>2013-06-15T11:32:47Z</time></trkpt><trkpt lat="54.333512" lon="26.985527"><ele>170.29</ele><time>2013-06-15T11:33:00Z</time></trkpt><trkpt lat="54.333293" lon="26.984567"><ele>168.85</ele><time>2013-06-15T11:33:12Z</time></trkpt><trkpt lat="54.333141" lon="26.983453"><ele>166.45</ele><time>2013-06-15T11:33:24Z</time></trkpt><trkpt lat="54.332997" lon="26.981859"><ele>162.60</ele><time>2013-06-15T11:33:42Z</time></trkpt><trkpt lat="54.332889" lon="26.980418"><ele>159.24</ele><time>2013-06-15T11:34:01Z</time></trkpt><trkpt lat="54.332813" lon="26.979126"><ele>160.68</ele><time>2013-06-15T11:34:18Z</time></trkpt><trkpt lat="54.332796" lon="26.977941"><ele>162.12</ele><time>2013-06-15T11:34:33Z</time></trkpt><trkpt lat="54.332810" lon="26.976227"><ele>163.56</ele><time>2013-06-15T11:34:53Z</time></trkpt><trkpt lat="54.332806" lon="26.975631"><ele>164.04</ele><time>2013-06-15T11:35:00Z</time></trkpt><trkpt lat="54.332806" lon="26.975551"><ele>164.04</ele><time>2013-06-15T11:35:01Z</time></trkpt><trkpt lat="54.332764" lon="26.974040"><ele>163.08</ele><time>2013-06-15T11:35:20Z</time></trkpt><trkpt lat="54.332632" lon="26.972926"><ele>161.64</ele><time>2013-06-15T11:35:36Z</time></trkpt><trkpt lat="54.332514" lon="26.972270"><ele>161.16</ele><time>2013-06-15T11:35:49Z</time></trkpt><trkpt lat="54.332360" lon="26.971329"><ele>161.16</ele><time>2013-06-15T11:36:04Z</time></trkpt><trkpt lat="54.332273" lon="26.970835"><ele>161.64</ele><time>2013-06-15T11:36:11Z</time></trkpt><trkpt lat="54.332207" lon="26.970329"><ele>162.60</ele><time>2013-06-15T11:36:18Z</time></trkpt><trkpt lat="54.332024" lon="26.969307"><ele>162.60</ele><time>2013-06-15T11:36:34Z</time></trkpt><trkpt lat="54.331911" lon="26.968672"><ele>161.64</ele><time>2013-06-15T11:36:51Z</time></trkpt><trkpt lat="54.331963" lon="26.968525"><ele>162.12</ele><time>2013-06-15T11:37:04Z</time></trkpt><trkpt lat="54.331955" lon="26.968339"><ele>162.12</ele><time>2013-06-15T11:37:11Z</time></trkpt><trkpt lat="54.331968" lon="26.968303"><ele>162.12</ele><time>2013-06-15T11:37:12Z</time></trkpt><trkpt lat="54.331984" lon="26.968271"><ele>162.12</ele><time>2013-06-15T11:37:13Z</time></trkpt><trkpt lat="54.332138" lon="26.967729"><ele>161.16</ele><time>2013-06-15T11:37:24Z</time></trkpt><trkpt lat="54.332187" lon="26.967261"><ele>160.20</ele><time>2013-06-15T11:37:34Z</time></trkpt><trkpt lat="54.332211" lon="26.967032"><ele>160.68</ele><time>2013-06-15T11:37:42Z</time></trkpt><trkpt lat="54.332218" lon="26.967007"><ele>160.68</ele><time>2013-06-15T11:37:43Z</time></trkpt><trkpt lat="54.332224" lon="26.966974"><ele>160.68</ele><time>2013-06-15T11:37:44Z</time></trkpt><trkpt lat="54.332231" lon="26.966944"><ele>161.16</ele><time>2013-06-15T11:37:45Z</time></trkpt><trkpt lat="54.332462" lon="26.966447"><ele>163.56</ele><time>2013-06-15T11:37:56Z</time></trkpt><trkpt lat="54.332690" lon="26.965911"><ele>166.45</ele><time>2013-06-15T11:38:08Z</time></trkpt><trkpt lat="54.332792" lon="26.965506"><ele>168.85</ele><time>2013-06-15T11:38:19Z</time></trkpt><trkpt lat="54.332906" lon="26.965124"><ele>170.77</ele><time>2013-06-15T11:38:33Z</time></trkpt><trkpt lat="54.333028" lon="26.964409"><ele>171.25</ele><time>2013-06-15T11:38:47Z</time></trkpt><trkpt lat="54.333150" lon="26.963681"><ele>169.81</ele><time>2013-06-15T11:38:59Z</time></trkpt><trkpt lat="54.333202" lon="26.963066"><ele>165.96</ele><time>2013-06-15T11:39:11Z</time></trkpt><trkpt lat="54.333258" lon="26.962615"><ele>160.68</ele><time>2013-06-15T11:39:23Z</time></trkpt><trkpt lat="54.333357" lon="26.962056"><ele>158.75</ele><time>2013-06-15T11:39:35Z</time></trkpt><trkpt lat="54.333439" lon="26.961708"><ele>156.83</ele><time>2013-06-15T11:39:43Z</time></trkpt><trkpt lat="54.333605" lon="26.961018"><ele>159.24</ele><time>2013-06-15T11:39:56Z</time></trkpt><trkpt lat="54.333782" lon="26.960538"><ele>156.83</ele><time>2013-06-15T11:40:08Z</time></trkpt><trkpt lat="54.333965" lon="26.959723"><ele>152.99</ele><time>2013-06-15T11:40:18Z</time></trkpt><trkpt lat="54.334047" lon="26.959511"><ele>152.03</ele><time>2013-06-15T11:40:22Z</time></trkpt><trkpt lat="54.334255" lon="26.958950"><ele>156.35</ele><time>2013-06-15T11:40:34Z</time></trkpt><trkpt lat="54.334437" lon="26.958371"><ele>161.16</ele><time>2013-06-15T11:40:47Z</time></trkpt><trkpt lat="54.334745" lon="26.957523"><ele>163.56</ele><time>2013-06-15T11:41:03Z</time></trkpt><trkpt lat="54.334942" lon="26.956880"><ele>166.93</ele><time>2013-06-15T11:41:15Z</time></trkpt><trkpt lat="54.335096" lon="26.956235"><ele>169.81</ele><time>2013-06-15T11:41:27Z</time></trkpt><trkpt lat="54.335234" lon="26.955603"><ele>170.29</ele><time>2013-06-15T11:41:39Z</time></trkpt><trkpt lat="54.335391" lon="26.955039"><ele>171.73</ele><time>2013-06-15T11:41:50Z</time></trkpt><trkpt lat="54.335486" lon="26.954465"><ele>174.14</ele><time>2013-06-15T11:42:02Z</time></trkpt><trkpt lat="54.335561" lon="26.953899"><ele>174.62</ele><time>2013-06-15T11:42:13Z</time></trkpt><trkpt lat="54.335600" lon="26.953524"><ele>173.17</ele><time>2013-06-15T11:42:22Z</time></trkpt><trkpt lat="54.335650" lon="26.953007"><ele>169.81</ele><time>2013-06-15T11:42:36Z</time></trkpt><trkpt lat="54.335699" lon="26.952795"><ele>168.37</ele><time>2013-06-15T11:42:41Z</time></trkpt><trkpt lat="54.335776" lon="26.952455"><ele>166.93</ele><time>2013-06-15T11:42:50Z</time></trkpt><trkpt lat="54.336001" lon="26.951901"><ele>171.25</ele><time>2013-06-15T11:43:01Z</time></trkpt><trkpt lat="54.336095" lon="26.951516"><ele>174.14</ele><time>2013-06-15T11:43:13Z</time></trkpt><trkpt lat="54.336215" lon="26.950998"><ele>172.69</ele><time>2013-06-15T11:43:26Z</time></trkpt><trkpt lat="54.336326" lon="26.950550"><ele>170.29</ele><time>2013-06-15T11:43:36Z</time></trkpt><trkpt lat="54.336462" lon="26.950006"><ele>171.25</ele><time>2013-06-15T11:43:47Z</time></trkpt><trkpt lat="54.336587" lon="26.949344"><ele>172.21</ele><time>2013-06-15T11:43:58Z</time></trkpt><trkpt lat="54.336725" lon="26.948628"><ele>171.73</ele><time>2013-06-15T11:44:14Z</time></trkpt><trkpt lat="54.336838" lon="26.948168"><ele>172.21</ele><time>2013-06-15T11:44:27Z</time></trkpt><trkpt lat="54.336924" lon="26.947510"><ele>169.81</ele><time>2013-06-15T11:44:40Z</time></trkpt><trkpt lat="54.337000" lon="26.946842"><ele>165.96</ele><time>2013-06-15T11:44:51Z</time></trkpt><trkpt lat="54.337076" lon="26.946557"><ele>163.08</ele><time>2013-06-15T11:44:58Z</time></trkpt><trkpt lat="54.337138" lon="26.945997"><ele>157.79</ele><time>2013-06-15T11:45:12Z</time></trkpt><trkpt lat="54.337177" lon="26.945265"><ele>152.99</ele><time>2013-06-15T11:45:26Z</time></trkpt><trkpt lat="54.337294" lon="26.944528"><ele>151.54</ele><time>2013-06-15T11:45:40Z</time></trkpt><trkpt lat="54.337347" lon="26.943968"><ele>151.06</ele><time>2013-06-15T11:45:53Z</time></trkpt><trkpt lat="54.337410" lon="26.943692"><ele>152.51</ele><time>2013-06-15T11:45:58Z</time></trkpt><trkpt lat="54.337568" lon="26.943179"><ele>156.35</ele><time>2013-06-15T11:46:07Z</time></trkpt><trkpt lat="54.337582" lon="26.943015"><ele>155.87</ele><time>2013-06-15T11:46:11Z</time></trkpt><trkpt lat="54.337415" lon="26.942716"><ele>153.95</ele><time>2013-06-15T11:46:24Z</time></trkpt><trkpt lat="54.337607" lon="26.942020"><ele>154.43</ele><time>2013-06-15T11:46:37Z</time></trkpt><trkpt lat="54.337714" lon="26.941698"><ele>153.47</ele><time>2013-06-15T11:46:42Z</time></trkpt><trkpt lat="54.337827" lon="26.941370"><ele>155.87</ele><time>2013-06-15T11:46:50Z</time></trkpt><trkpt lat="54.337845" lon="26.940951"><ele>156.35</ele><time>2013-06-15T11:47:01Z</time></trkpt><trkpt lat="54.338040" lon="26.940360"><ele>156.83</ele><time>2013-06-15T11:47:13Z</time></trkpt><trkpt lat="54.338326" lon="26.939663"><ele>162.60</ele><time>2013-06-15T11:47:25Z</time></trkpt><trkpt lat="54.338362" lon="26.939539"><ele>162.12</ele><time>2013-06-15T11:47:28Z</time></trkpt><trkpt lat="54.338384" lon="26.939346"><ele>159.24</ele><time>2013-06-15T11:47:34Z</time></trkpt><trkpt lat="54.338403" lon="26.939214"><ele>157.79</ele><time>2013-06-15T11:47:37Z</time></trkpt><trkpt lat="54.338417" lon="26.939005"><ele>154.91</ele><time>2013-06-15T11:47:43Z</time></trkpt><trkpt lat="54.338464" lon="26.938705"><ele>151.54</ele><time>2013-06-15T11:47:51Z</time></trkpt><trkpt lat="54.338509" lon="26.938510"><ele>149.62</ele><time>2013-06-15T11:47:56Z</time></trkpt><trkpt lat="54.338507" lon="26.938422"><ele>148.18</ele><time>2013-06-15T11:47:58Z</time></trkpt><trkpt lat="54.338604" lon="26.937880"><ele>142.41</ele><time>2013-06-15T11:48:11Z</time></trkpt><trkpt lat="54.338635" lon="26.937404"><ele>141.93</ele><time>2013-06-15T11:48:22Z</time></trkpt><trkpt lat="54.338639" lon="26.937239"><ele>142.41</ele><time>2013-06-15T11:48:26Z</time></trkpt><trkpt lat="54.338736" lon="26.936665"><ele>144.82</ele><time>2013-06-15T11:48:40Z</time></trkpt><trkpt lat="54.338845" lon="26.935990"><ele>146.26</ele><time>2013-06-15T11:48:56Z</time></trkpt><trkpt lat="54.338937" lon="26.935464"><ele>149.62</ele><time>2013-06-15T11:49:06Z</time></trkpt><trkpt lat="54.339014" lon="26.934847"><ele>152.99</ele><time>2013-06-15T11:49:18Z</time></trkpt><trkpt lat="54.339063" lon="26.934331"><ele>161.64</ele><time>2013-06-15T11:49:30Z</time></trkpt><trkpt lat="54.339067" lon="26.933796"><ele>171.25</ele><time>2013-06-15T11:49:42Z</time></trkpt><trkpt lat="54.339087" lon="26.933115"><ele>177.50</ele><time>2013-06-15T11:49:54Z</time></trkpt><trkpt lat="54.339023" lon="26.932585"><ele>178.94</ele><time>2013-06-15T11:50:06Z</time></trkpt><trkpt lat="54.338901" lon="26.931954"><ele>176.54</ele><time>2013-06-15T11:50:20Z</time></trkpt><trkpt lat="54.338826" lon="26.931393"><ele>175.58</ele><time>2013-06-15T11:50:33Z</time></trkpt><trkpt lat="54.338756" lon="26.930908"><ele>172.69</ele><time>2013-06-15T11:50:48Z</time></trkpt><trkpt lat="54.338644" lon="26.929912"><ele>170.77</ele><time>2013-06-15T11:51:00Z</time></trkpt><trkpt lat="54.338601" lon="26.929322"><ele>163.08</ele><time>2013-06-15T11:51:14Z</time></trkpt><trkpt lat="54.338570" lon="26.929043"><ele>158.75</ele><time>2013-06-15T11:51:24Z</time></trkpt><trkpt lat="54.338534" lon="26.928881"><ele>157.31</ele><time>2013-06-15T11:51:28Z</time></trkpt><trkpt lat="54.338290" lon="26.927749"><ele>159.24</ele><time>2013-06-15T11:51:41Z</time></trkpt><trkpt lat="54.338191" lon="26.926894"><ele>162.60</ele><time>2013-06-15T11:51:56Z</time></trkpt><trkpt lat="54.338132" lon="26.926433"><ele>166.45</ele><time>2013-06-15T11:52:07Z</time></trkpt><trkpt lat="54.338146" lon="26.925896"><ele>172.21</ele><time>2013-06-15T11:52:19Z</time></trkpt><trkpt lat="54.338283" lon="26.925484"><ele>176.06</ele><time>2013-06-15T11:52:34Z</time></trkpt><trkpt lat="54.338335" lon="26.925253"><ele>177.50</ele><time>2013-06-15T11:52:42Z</time></trkpt><trkpt lat="54.338295" lon="26.924229"><ele>177.98</ele><time>2013-06-15T11:52:57Z</time></trkpt><trkpt lat="54.338238" lon="26.923999"><ele>174.14</ele><time>2013-06-15T11:53:13Z</time></trkpt><trkpt lat="54.338272" lon="26.923854"><ele>176.06</ele><time>2013-06-15T11:53:20Z</time></trkpt><trkpt lat="54.338388" lon="26.923478"><ele>177.50</ele><time>2013-06-15T11:53:28Z</time></trkpt><trkpt lat="54.338730" lon="26.923016"><ele>179.42</ele><time>2013-06-15T11:53:42Z</time></trkpt><trkpt lat="54.338913" lon="26.922811"><ele>182.31</ele><time>2013-06-15T11:53:53Z</time></trkpt><trkpt lat="54.339153" lon="26.922512"><ele>183.75</ele><time>2013-06-15T11:54:03Z</time></trkpt><trkpt lat="54.339424" lon="26.922204"><ele>187.11</ele><time>2013-06-15T11:54:15Z</time></trkpt><trkpt lat="54.339785" lon="26.921828"><ele>192.88</ele><time>2013-06-15T11:54:30Z</time></trkpt><trkpt lat="54.340048" lon="26.921552"><ele>195.28</ele><time>2013-06-15T11:54:41Z</time></trkpt><trkpt lat="54.340222" lon="26.921335"><ele>194.80</ele><time>2013-06-15T11:54:49Z</time></trkpt><trkpt lat="54.340298" lon="26.921279"><ele>193.84</ele><time>2013-06-15T11:54:53Z</time></trkpt><trkpt lat="54.340618" lon="26.920781"><ele>193.36</ele><time>2013-06-15T11:55:07Z</time></trkpt><trkpt lat="54.340705" lon="26.920653"><ele>195.28</ele><time>2013-06-15T11:55:12Z</time></trkpt><trkpt lat="54.340918" lon="26.920239"><ele>196.73</ele><time>2013-06-15T11:55:23Z</time></trkpt><trkpt lat="54.341169" lon="26.919732"><ele>202.49</ele><time>2013-06-15T11:55:36Z</time></trkpt><trkpt lat="54.341364" lon="26.919313"><ele>206.82</ele><time>2013-06-15T11:55:46Z</time></trkpt><trkpt lat="54.341614" lon="26.918789"><ele>206.82</ele><time>2013-06-15T11:55:57Z</time></trkpt><trkpt lat="54.342008" lon="26.918013"><ele>193.36</ele><time>2013-06-15T11:56:10Z</time></trkpt><trkpt lat="54.342232" lon="26.917456"><ele>190.00</ele><time>2013-06-15T11:56:19Z</time></trkpt><trkpt lat="54.342366" lon="26.916906"><ele>190.00</ele><time>2013-06-15T11:56:29Z</time></trkpt><trkpt lat="54.342388" lon="26.916784"><ele>189.04</ele><time>2013-06-15T11:56:31Z</time></trkpt><trkpt lat="54.342529" lon="26.916376"><ele>187.11</ele><time>2013-06-15T11:56:37Z</time></trkpt><trkpt lat="54.342695" lon="26.915663"><ele>187.11</ele><time>2013-06-15T11:56:49Z</time></trkpt><trkpt lat="54.342904" lon="26.914971"><ele>189.04</ele><time>2013-06-15T11:57:01Z</time></trkpt><trkpt lat="54.342953" lon="26.914263"><ele>186.63</ele><time>2013-06-15T11:57:15Z</time></trkpt><trkpt lat="54.343111" lon="26.913682"><ele>185.67</ele><time>2013-06-15T11:57:27Z</time></trkpt><trkpt lat="54.343284" lon="26.913080"><ele>183.27</ele><time>2013-06-15T11:57:39Z</time></trkpt><trkpt lat="54.343346" lon="26.912615"><ele>180.87</ele><time>2013-06-15T11:57:50Z</time></trkpt><trkpt lat="54.343477" lon="26.912153"><ele>181.35</ele><time>2013-06-15T11:58:01Z</time></trkpt><trkpt lat="54.343517" lon="26.911808"><ele>180.38</ele><time>2013-06-15T11:58:08Z</time></trkpt><trkpt lat="54.343737" lon="26.911014"><ele>178.94</ele><time>2013-06-15T11:58:22Z</time></trkpt><trkpt lat="54.343759" lon="26.910495"><ele>181.83</ele><time>2013-06-15T11:58:34Z</time></trkpt><trkpt lat="54.343876" lon="26.909901"><ele>185.19</ele><time>2013-06-15T11:58:48Z</time></trkpt><trkpt lat="54.343891" lon="26.909536"><ele>184.71</ele><time>2013-06-15T11:58:58Z</time></trkpt><trkpt lat="54.343919" lon="26.909196"><ele>186.15</ele><time>2013-06-15T11:59:10Z</time></trkpt><trkpt lat="54.343943" lon="26.908918"><ele>187.59</ele><time>2013-06-15T11:59:21Z</time></trkpt><trkpt lat="54.343910" lon="26.908805"><ele>190.00</ele><time>2013-06-15T11:59:48Z</time></trkpt><trkpt lat="54.343936" lon="26.908723"><ele>193.36</ele><time>2013-06-15T12:00:12Z</time></trkpt><trkpt lat="54.343875" lon="26.908665"><ele>191.92</ele><time>2013-06-15T12:00:20Z</time></trkpt><trkpt lat="54.343967" lon="26.908703"><ele>195.28</ele><time>2013-06-15T12:00:33Z</time></trkpt><trkpt lat="54.344036" lon="26.908728"><ele>199.13</ele><time>2013-06-15T12:01:36Z</time></trkpt><trkpt lat="54.344112" lon="26.908649"><ele>202.01</ele><time>2013-06-15T12:01:47Z</time></trkpt><trkpt lat="54.344121" lon="26.908627"><ele>204.42</ele><time>2013-06-15T12:01:57Z</time></trkpt><trkpt lat="54.344144" lon="26.908575"><ele>203.94</ele><time>2013-06-15T12:02:02Z</time></trkpt><trkpt lat="54.344142" lon="26.908505"><ele>200.09</ele><time>2013-06-15T12:02:16Z</time></trkpt><trkpt lat="54.344000" lon="26.908442"><ele>202.49</ele><time>2013-06-15T12:12:16Z</time></trkpt><trkpt lat="54.344019" lon="26.908386"><ele>202.01</ele><time>2013-06-15T12:12:19Z</time></trkpt><trkpt lat="54.343988" lon="26.908279"><ele>201.53</ele><time>2013-06-15T12:12:24Z</time></trkpt><trkpt lat="54.344036" lon="26.907742"><ele>208.74</ele><time>2013-06-15T12:12:37Z</time></trkpt><trkpt lat="54.343926" lon="26.907181"><ele>213.07</ele><time>2013-06-15T12:12:47Z</time></trkpt><trkpt lat="54.343925" lon="26.906649"><ele>207.78</ele><time>2013-06-15T12:12:56Z</time></trkpt><trkpt lat="54.344030" lon="26.906025"><ele>204.42</ele><time>2013-06-15T12:13:07Z</time></trkpt><trkpt lat="54.344062" lon="26.905754"><ele>203.94</ele><time>2013-06-15T12:13:11Z</time></trkpt><trkpt lat="54.344214" lon="26.905050"><ele>209.70</ele><time>2013-06-15T12:13:21Z</time></trkpt><trkpt lat="54.344319" lon="26.904235"><ele>218.36</ele><time>2013-06-15T12:13:33Z</time></trkpt><trkpt lat="54.344273" lon="26.903622"><ele>223.16</ele><time>2013-06-15T12:13:44Z</time></trkpt><trkpt lat="54.344076" lon="26.902894"><ele>220.76</ele><time>2013-06-15T12:13:58Z</time></trkpt><trkpt lat="54.343893" lon="26.902436"><ele>213.55</ele><time>2013-06-15T12:14:08Z</time></trkpt><trkpt lat="54.343952" lon="26.901781"><ele>211.15</ele><time>2013-06-15T12:14:18Z</time></trkpt><trkpt lat="54.343960" lon="26.901436"><ele>209.22</ele><time>2013-06-15T12:14:26Z</time></trkpt><trkpt lat="54.343969" lon="26.900749"><ele>205.86</ele><time>2013-06-15T12:14:38Z</time></trkpt><trkpt lat="54.343958" lon="26.900650"><ele>203.46</ele><time>2013-06-15T12:14:49Z</time></trkpt><trkpt lat="54.343916" lon="26.900491"><ele>202.01</ele><time>2013-06-15T12:15:01Z</time></trkpt><trkpt lat="54.343901" lon="26.900397"><ele>202.98</ele><time>2013-06-15T12:15:05Z</time></trkpt><trkpt lat="54.343866" lon="26.900148"><ele>202.98</ele><time>2013-06-15T12:15:14Z</time></trkpt><trkpt lat="54.343889" lon="26.899888"><ele>199.13</ele><time>2013-06-15T12:15:25Z</time></trkpt><trkpt lat="54.343899" lon="26.899625"><ele>193.36</ele><time>2013-06-15T12:15:44Z</time></trkpt><trkpt lat="54.343926" lon="26.899431"><ele>190.96</ele><time>2013-06-15T12:15:49Z</time></trkpt><trkpt lat="54.343938" lon="26.899239"><ele>190.96</ele><time>2013-06-15T12:15:53Z</time></trkpt><trkpt lat="54.344022" lon="26.898680"><ele>194.32</ele><time>2013-06-15T12:16:04Z</time></trkpt><trkpt lat="54.344092" lon="26.898012"><ele>197.69</ele><time>2013-06-15T12:16:16Z</time></trkpt><trkpt lat="54.344095" lon="26.897476"><ele>205.86</ele><time>2013-06-15T12:16:27Z</time></trkpt><trkpt lat="54.344136" lon="26.897047"><ele>214.03</ele><time>2013-06-15T12:16:37Z</time></trkpt><trkpt lat="54.344142" lon="26.896538"><ele>221.24</ele><time>2013-06-15T12:16:48Z</time></trkpt><trkpt lat="54.344065" lon="26.896064"><ele>220.76</ele><time>2013-06-15T12:17:00Z</time></trkpt><trkpt lat="54.343973" lon="26.895540"><ele>213.07</ele><time>2013-06-15T12:17:13Z</time></trkpt><trkpt lat="54.343864" lon="26.895109"><ele>207.78</ele><time>2013-06-15T12:17:24Z</time></trkpt><trkpt lat="54.343668" lon="26.894654"><ele>201.53</ele><time>2013-06-15T12:17:37Z</time></trkpt><trkpt lat="54.343607" lon="26.894516"><ele>197.69</ele><time>2013-06-15T12:17:47Z</time></trkpt><trkpt lat="54.343573" lon="26.894401"><ele>194.80</ele><time>2013-06-15T12:18:01Z</time></trkpt><trkpt lat="54.343553" lon="26.894352"><ele>194.80</ele><time>2013-06-15T12:18:14Z</time></trkpt><trkpt lat="54.343551" lon="26.894348"><ele>194.80</ele><time>2013-06-15T12:18:22Z</time></trkpt><trkpt lat="54.343554" lon="26.894117"><ele>195.28</ele><time>2013-06-15T12:18:27Z</time></trkpt><trkpt lat="54.343557" lon="26.893658"><ele>195.28</ele><time>2013-06-15T12:18:40Z</time></trkpt><trkpt lat="54.343547" lon="26.893592"><ele>193.36</ele><time>2013-06-15T12:18:45Z</time></trkpt><trkpt lat="54.343511" lon="26.893203"><ele>194.80</ele><time>2013-06-15T12:18:52Z</time></trkpt><trkpt lat="54.343560" lon="26.892557"><ele>202.98</ele><time>2013-06-15T12:19:03Z</time></trkpt><trkpt lat="54.343451" lon="26.892022"><ele>201.05</ele><time>2013-06-15T12:19:13Z</time></trkpt><trkpt lat="54.343525" lon="26.891234"><ele>194.80</ele><time>2013-06-15T12:19:25Z</time></trkpt><trkpt lat="54.343562" lon="26.890445"><ele>193.36</ele><time>2013-06-15T12:19:37Z</time></trkpt><trkpt lat="54.343569" lon="26.889788"><ele>195.28</ele><time>2013-06-15T12:19:48Z</time></trkpt><trkpt lat="54.343569" lon="26.889132"><ele>199.13</ele><time>2013-06-15T12:19:58Z</time></trkpt><trkpt lat="54.343458" lon="26.888516"><ele>204.90</ele><time>2013-06-15T12:20:10Z</time></trkpt><trkpt lat="54.343498" lon="26.887809"><ele>215.47</ele><time>2013-06-15T12:20:23Z</time></trkpt><trkpt lat="54.343551" lon="26.887182"><ele>213.55</ele><time>2013-06-15T12:20:34Z</time></trkpt><trkpt lat="54.343616" lon="26.886512"><ele>205.38</ele><time>2013-06-15T12:20:46Z</time></trkpt><trkpt lat="54.343624" lon="26.886478"><ele>204.90</ele><time>2013-06-15T12:20:47Z</time></trkpt><trkpt lat="54.343691" lon="26.885852"><ele>197.21</ele><time>2013-06-15T12:20:58Z</time></trkpt><trkpt lat="54.343603" lon="26.885168"><ele>195.28</ele><time>2013-06-15T12:21:11Z</time></trkpt><trkpt lat="54.343640" lon="26.884577"><ele>192.40</ele><time>2013-06-15T12:21:23Z</time></trkpt><trkpt lat="54.343657" lon="26.884172"><ele>192.40</ele><time>2013-06-15T12:21:33Z</time></trkpt><trkpt lat="54.343637" lon="26.883639"><ele>192.88</ele><time>2013-06-15T12:21:44Z</time></trkpt><trkpt lat="54.343720" lon="26.883052"><ele>193.84</ele><time>2013-06-15T12:21:57Z</time></trkpt><trkpt lat="54.343765" lon="26.882551"><ele>190.00</ele><time>2013-06-15T12:22:07Z</time></trkpt><trkpt lat="54.343803" lon="26.882328"><ele>186.63</ele><time>2013-06-15T12:22:17Z</time></trkpt><trkpt lat="54.343812" lon="26.882268"><ele>185.19</ele><time>2013-06-15T12:22:32Z</time></trkpt><trkpt lat="54.343776" lon="26.881775"><ele>182.31</ele><time>2013-06-15T12:22:45Z</time></trkpt><trkpt lat="54.343705" lon="26.881206"><ele>179.42</ele><time>2013-06-15T12:22:56Z</time></trkpt><trkpt lat="54.343745" lon="26.881018"><ele>178.46</ele><time>2013-06-15T12:23:03Z</time></trkpt><trkpt lat="54.343809" lon="26.880836"><ele>176.54</ele><time>2013-06-15T12:23:07Z</time></trkpt><trkpt lat="54.343831" lon="26.880763"><ele>176.54</ele><time>2013-06-15T12:23:09Z</time></trkpt><trkpt lat="54.343824" lon="26.880660"><ele>176.54</ele><time>2013-06-15T12:23:20Z</time></trkpt><trkpt lat="54.343761" lon="26.880398"><ele>177.50</ele><time>2013-06-15T12:23:33Z</time></trkpt><trkpt lat="54.343742" lon="26.880079"><ele>179.90</ele><time>2013-06-15T12:23:48Z</time></trkpt><trkpt lat="54.343736" lon="26.879776"><ele>184.71</ele><time>2013-06-15T12:24:03Z</time></trkpt><trkpt lat="54.343733" lon="26.879600"><ele>188.08</ele><time>2013-06-15T12:24:13Z</time></trkpt><trkpt lat="54.343737" lon="26.879374"><ele>192.88</ele><time>2013-06-15T12:24:23Z</time></trkpt><trkpt lat="54.343737" lon="26.879167"><ele>196.25</ele><time>2013-06-15T12:24:33Z</time></trkpt><trkpt lat="54.343665" lon="26.878804"><ele>200.57</ele><time>2013-06-15T12:24:48Z</time></trkpt><trkpt lat="54.343696" lon="26.878669"><ele>201.53</ele><time>2013-06-15T12:25:02Z</time></trkpt><trkpt lat="54.343697" lon="26.878653"><ele>201.53</ele><time>2013-06-15T12:25:03Z</time></trkpt><trkpt lat="54.343708" lon="26.878578"><ele>201.53</ele><time>2013-06-15T12:25:09Z</time></trkpt><trkpt lat="54.343717" lon="26.878412"><ele>202.01</ele><time>2013-06-15T12:25:15Z</time></trkpt><trkpt lat="54.343761" lon="26.878190"><ele>203.46</ele><time>2013-06-15T12:25:30Z</time></trkpt><trkpt lat="54.343812" lon="26.877877"><ele>204.42</ele><time>2013-06-15T12:25:44Z</time></trkpt><trkpt lat="54.343854" lon="26.877675"><ele>205.38</ele><time>2013-06-15T12:26:04Z</time></trkpt><trkpt lat="54.343904" lon="26.877397"><ele>199.61</ele><time>2013-06-15T12:26:10Z</time></trkpt><trkpt lat="54.343913" lon="26.877141"><ele>193.36</ele><time>2013-06-15T12:26:15Z</time></trkpt><trkpt lat="54.343397" lon="26.876437"><ele>190.00</ele><time>2013-06-15T12:26:31Z</time></trkpt><trkpt lat="54.342752" lon="26.875738"><ele>174.14</ele><time>2013-06-15T12:26:47Z</time></trkpt><trkpt lat="54.342166" lon="26.875074"><ele>169.33</ele><time>2013-06-15T12:27:03Z</time></trkpt><trkpt lat="54.341851" lon="26.874677"><ele>167.89</ele><time>2013-06-15T12:27:12Z</time></trkpt><trkpt lat="54.341430" lon="26.873861"><ele>165.00</ele><time>2013-06-15T12:27:27Z</time></trkpt><trkpt lat="54.340916" lon="26.872811"><ele>163.56</ele><time>2013-06-15T12:27:45Z</time></trkpt><trkpt lat="54.340448" lon="26.871864"><ele>162.60</ele><time>2013-06-15T12:28:01Z</time></trkpt><trkpt lat="54.339970" lon="26.870876"><ele>162.60</ele><time>2013-06-15T12:28:18Z</time></trkpt><trkpt lat="54.339430" lon="26.869765"><ele>161.64</ele><time>2013-06-15T12:28:37Z</time></trkpt><trkpt lat="54.338975" lon="26.868842"><ele>162.12</ele><time>2013-06-15T12:28:54Z</time></trkpt><trkpt lat="54.338504" lon="26.867867"><ele>160.68</ele><time>2013-06-15T12:29:11Z</time></trkpt><trkpt lat="54.337996" lon="26.866813"><ele>161.16</ele><time>2013-06-15T12:29:29Z</time></trkpt><trkpt lat="54.337883" lon="26.866647"><ele>160.68</ele><time>2013-06-15T12:29:32Z</time></trkpt><trkpt lat="54.337396" lon="26.865677"><ele>160.68</ele><time>2013-06-15T12:29:48Z</time></trkpt><trkpt lat="54.337323" lon="26.865619"><ele>160.68</ele><time>2013-06-15T12:29:50Z</time></trkpt><trkpt lat="54.337241" lon="26.865586"><ele>160.20</ele><time>2013-06-15T12:29:52Z</time></trkpt><trkpt lat="54.337200" lon="26.865584"><ele>160.20</ele><time>2013-06-15T12:29:53Z</time></trkpt><trkpt lat="54.337159" lon="26.865590"><ele>160.20</ele><time>2013-06-15T12:29:54Z</time></trkpt><trkpt lat="54.336527" lon="26.865738"><ele>160.20</ele><time>2013-06-15T12:30:09Z</time></trkpt><trkpt lat="54.335948" lon="26.865919"><ele>160.20</ele><time>2013-06-15T12:30:23Z</time></trkpt><trkpt lat="54.335395" lon="26.866284"><ele>159.72</ele><time>2013-06-15T12:30:37Z</time></trkpt><trkpt lat="54.335226" lon="26.866352"><ele>159.72</ele><time>2013-06-15T12:30:42Z</time></trkpt><trkpt lat="54.335199" lon="26.866327"><ele>159.72</ele><time>2013-06-15T12:30:43Z</time></trkpt><trkpt lat="54.335126" lon="26.866275"><ele>160.20</ele><time>2013-06-15T12:30:46Z</time></trkpt><trkpt lat="54.335101" lon="26.866282"><ele>160.20</ele><time>2013-06-15T12:30:47Z</time></trkpt><trkpt lat="54.335073" lon="26.866297"><ele>160.20</ele><time>2013-06-15T12:30:48Z</time></trkpt><trkpt lat="54.335045" lon="26.866320"><ele>160.20</ele><time>2013-06-15T12:30:49Z</time></trkpt><trkpt lat="54.335015" lon="26.866346"><ele>160.20</ele><time>2013-06-15T12:30:50Z</time></trkpt><trkpt lat="54.334845" lon="26.866516"><ele>159.72</ele><time>2013-06-15T12:30:58Z</time></trkpt><trkpt lat="54.334714" lon="26.866607"><ele>158.27</ele><time>2013-06-15T12:31:08Z</time></trkpt><trkpt lat="54.334194" lon="26.867046"><ele>157.79</ele><time>2013-06-15T12:31:23Z</time></trkpt><trkpt lat="54.333632" lon="26.867517"><ele>157.79</ele><time>2013-06-15T12:31:38Z</time></trkpt><trkpt lat="54.332881" lon="26.868163"><ele>157.79</ele><time>2013-06-15T12:31:56Z</time></trkpt><trkpt lat="54.331994" lon="26.868936"><ele>157.31</ele><time>2013-06-15T12:32:15Z</time></trkpt><trkpt lat="54.331133" lon="26.869733"><ele>156.35</ele><time>2013-06-15T12:32:35Z</time></trkpt><trkpt lat="54.330634" lon="26.870533"><ele>155.87</ele><time>2013-06-15T12:32:51Z</time></trkpt><trkpt lat="54.330428" lon="26.870979"><ele>155.87</ele><time>2013-06-15T12:33:06Z</time></trkpt><trkpt lat="54.330418" lon="26.870984"><ele>155.87</ele><time>2013-06-15T12:33:26Z</time></trkpt><trkpt lat="54.330411" lon="26.870988"><ele>156.35</ele><time>2013-06-15T12:33:33Z</time></trkpt><trkpt lat="54.330398" lon="26.870980"><ele>156.35</ele><time>2013-06-15T12:33:34Z</time></trkpt><trkpt lat="54.330381" lon="26.870972"><ele>156.83</ele><time>2013-06-15T12:33:35Z</time></trkpt><trkpt lat="54.330364" lon="26.870964"><ele>156.83</ele><time>2013-06-15T12:33:36Z</time></trkpt><trkpt lat="54.330345" lon="26.870949"><ele>157.31</ele><time>2013-06-15T12:33:37Z</time></trkpt><trkpt lat="54.329824" lon="26.870762"><ele>160.68</ele><time>2013-06-15T12:33:51Z</time></trkpt><trkpt lat="54.329183" lon="26.870586"><ele>162.60</ele><time>2013-06-15T12:34:05Z</time></trkpt><trkpt lat="54.328985" lon="26.870536"><ele>162.60</ele><time>2013-06-15T12:34:09Z</time></trkpt><trkpt lat="54.328189" lon="26.870323"><ele>163.08</ele><time>2013-06-15T12:34:26Z</time></trkpt><trkpt lat="54.327858" lon="26.870234"><ele>164.52</ele><time>2013-06-15T12:34:33Z</time></trkpt><trkpt lat="54.327807" lon="26.870218"><ele>164.04</ele><time>2013-06-15T12:34:34Z</time></trkpt><trkpt lat="54.327035" lon="26.870003"><ele>165.00</ele><time>2013-06-15T12:34:49Z</time></trkpt><trkpt lat="54.326350" lon="26.869822"><ele>166.45</ele><time>2013-06-15T12:35:02Z</time></trkpt><trkpt lat="54.325382" lon="26.869561"><ele>166.45</ele><time>2013-06-15T12:35:19Z</time></trkpt><trkpt lat="54.324643" lon="26.869370"><ele>166.93</ele><time>2013-06-15T12:35:33Z</time></trkpt><trkpt lat="54.323928" lon="26.869167"><ele>168.85</ele><time>2013-06-15T12:35:47Z</time></trkpt><trkpt lat="54.322918" lon="26.868905"><ele>169.33</ele><time>2013-06-15T12:36:06Z</time></trkpt><trkpt lat="54.322249" lon="26.868728"><ele>169.33</ele><time>2013-06-15T12:36:19Z</time></trkpt><trkpt lat="54.321945" lon="26.868647"><ele>169.81</ele><time>2013-06-15T12:36:25Z</time></trkpt><trkpt lat="54.321123" lon="26.868414"><ele>169.81</ele><time>2013-06-15T12:36:41Z</time></trkpt><trkpt lat="54.320784" lon="26.868324"><ele>169.33</ele><time>2013-06-15T12:36:48Z</time></trkpt><trkpt lat="54.320018" lon="26.868116"><ele>171.73</ele><time>2013-06-15T12:37:04Z</time></trkpt><trkpt lat="54.319340" lon="26.867936"><ele>173.66</ele><time>2013-06-15T12:37:19Z</time></trkpt><trkpt lat="54.318618" lon="26.867750"><ele>172.69</ele><time>2013-06-15T12:37:34Z</time></trkpt><trkpt lat="54.318029" lon="26.867587"><ele>174.62</ele><time>2013-06-15T12:37:48Z</time></trkpt><trkpt lat="54.317950" lon="26.867526"><ele>174.62</ele><time>2013-06-15T12:37:51Z</time></trkpt><trkpt lat="54.317930" lon="26.867494"><ele>174.62</ele><time>2013-06-15T12:37:52Z</time></trkpt><trkpt lat="54.317905" lon="26.867473"><ele>174.62</ele><time>2013-06-15T12:37:53Z</time></trkpt><trkpt lat="54.317875" lon="26.867461"><ele>175.10</ele><time>2013-06-15T12:37:54Z</time></trkpt><trkpt lat="54.317845" lon="26.867457"><ele>175.10</ele><time>2013-06-15T12:37:55Z</time></trkpt><trkpt lat="54.317815" lon="26.867450"><ele>175.10</ele><time>2013-06-15T12:37:56Z</time></trkpt><trkpt lat="54.317787" lon="26.867430"><ele>174.62</ele><time>2013-06-15T12:37:57Z</time></trkpt><trkpt lat="54.317761" lon="26.867396"><ele>174.62</ele><time>2013-06-15T12:37:58Z</time></trkpt><trkpt lat="54.317740" lon="26.867355"><ele>174.14</ele><time>2013-06-15T12:37:59Z</time></trkpt><trkpt lat="54.317726" lon="26.867305"><ele>174.14</ele><time>2013-06-15T12:38:00Z</time></trkpt><trkpt lat="54.317716" lon="26.867250"><ele>173.66</ele><time>2013-06-15T12:38:01Z</time></trkpt><trkpt lat="54.317709" lon="26.867195"><ele>173.17</ele><time>2013-06-15T12:38:02Z</time></trkpt><trkpt lat="54.317637" lon="26.866463"><ele>171.25</ele><time>2013-06-15T12:38:15Z</time></trkpt><trkpt lat="54.317632" lon="26.866393"><ele>170.77</ele><time>2013-06-15T12:38:16Z</time></trkpt><trkpt lat="54.317579" lon="26.865192"><ele>167.41</ele><time>2013-06-15T12:38:32Z</time></trkpt><trkpt lat="54.317408" lon="26.863718"><ele>167.41</ele><time>2013-06-15T12:38:49Z</time></trkpt><trkpt lat="54.317298" lon="26.863318"><ele>167.89</ele><time>2013-06-15T12:38:54Z</time></trkpt><trkpt lat="54.316949" lon="26.862113"><ele>167.89</ele><time>2013-06-15T12:39:09Z</time></trkpt><trkpt lat="54.316926" lon="26.862031"><ele>167.89</ele><time>2013-06-15T12:39:10Z</time></trkpt><trkpt lat="54.316505" lon="26.860520"><ele>170.29</ele><time>2013-06-15T12:39:28Z</time></trkpt><trkpt lat="54.316158" lon="26.859161"><ele>172.69</ele><time>2013-06-15T12:39:44Z</time></trkpt><trkpt lat="54.315769" lon="26.857785"><ele>173.66</ele><time>2013-06-15T12:40:02Z</time></trkpt><trkpt lat="54.315296" lon="26.856384"><ele>176.54</ele><time>2013-06-15T12:40:20Z</time></trkpt><trkpt lat="54.314674" lon="26.854710"><ele>174.62</ele><time>2013-06-15T12:40:41Z</time></trkpt><trkpt lat="54.314507" lon="26.854210"><ele>174.14</ele><time>2013-06-15T12:40:48Z</time></trkpt><trkpt lat="54.314499" lon="26.854144"><ele>174.14</ele><time>2013-06-15T12:40:49Z</time></trkpt><trkpt lat="54.314501" lon="26.854082"><ele>174.14</ele><time>2013-06-15T12:40:50Z</time></trkpt><trkpt lat="54.314513" lon="26.854027"><ele>174.14</ele><time>2013-06-15T12:40:51Z</time></trkpt><trkpt lat="54.314527" lon="26.853980"><ele>173.66</ele><time>2013-06-15T12:40:52Z</time></trkpt><trkpt lat="54.314555" lon="26.853683"><ele>173.17</ele><time>2013-06-15T12:41:03Z</time></trkpt><trkpt lat="54.314556" lon="26.853672"><ele>173.17</ele><time>2013-06-15T12:41:13Z</time></trkpt><trkpt lat="54.314546" lon="26.853655"><ele>173.17</ele><time>2013-06-15T12:41:14Z</time></trkpt><trkpt lat="54.314532" lon="26.853637"><ele>172.69</ele><time>2013-06-15T12:41:15Z</time></trkpt><trkpt lat="54.314520" lon="26.853626"><ele>172.21</ele><time>2013-06-15T12:41:16Z</time></trkpt><trkpt lat="54.314509" lon="26.853626"><ele>172.69</ele><time>2013-06-15T12:41:17Z</time></trkpt><trkpt lat="54.314498" lon="26.853628"><ele>172.69</ele><time>2013-06-15T12:41:18Z</time></trkpt><trkpt lat="54.314444" lon="26.853642"><ele>171.25</ele><time>2013-06-15T12:41:31Z</time></trkpt><trkpt lat="54.314433" lon="26.853655"><ele>171.25</ele><time>2013-06-15T12:41:32Z</time></trkpt><trkpt lat="54.314421" lon="26.853668"><ele>171.25</ele><time>2013-06-15T12:41:33Z</time></trkpt><trkpt lat="54.314407" lon="26.853677"><ele>170.77</ele><time>2013-06-15T12:41:34Z</time></trkpt><trkpt lat="54.314392" lon="26.853681"><ele>170.77</ele><time>2013-06-15T12:41:35Z</time></trkpt><trkpt lat="54.314356" lon="26.853702"><ele>171.25</ele><time>2013-06-15T12:41:38Z</time></trkpt><trkpt lat="54.314345" lon="26.853693"><ele>171.73</ele><time>2013-06-15T12:41:39Z</time></trkpt><trkpt lat="54.314132" lon="26.853548"><ele>172.21</ele><time>2013-06-15T12:41:55Z</time></trkpt><trkpt lat="54.313949" lon="26.853400"><ele>173.66</ele><time>2013-06-15T12:42:09Z</time></trkpt><trkpt lat="54.313940" lon="26.853388"><ele>173.66</ele><time>2013-06-15T12:42:10Z</time></trkpt><trkpt lat="54.313908" lon="26.853306"><ele>174.14</ele><time>2013-06-15T12:42:26Z</time></trkpt><trkpt lat="54.313904" lon="26.853284"><ele>173.17</ele><time>2013-06-15T12:42:45Z</time></trkpt><trkpt lat="54.313901" lon="26.853282"><ele>172.21</ele><time>2013-06-15T12:43:07Z</time></trkpt><trkpt lat="54.313902" lon="26.853269"><ele>172.21</ele><time>2013-06-15T12:43:20Z</time></trkpt><trkpt lat="54.313902" lon="26.853269"><ele>172.21</ele><time>2013-06-15T12:43:21Z</time></trkpt><trkpt lat="54.314027" lon="26.852851"><ele>170.29</ele><time>2013-06-15T12:43:34Z</time></trkpt><trkpt lat="54.314021" lon="26.852358"><ele>169.33</ele><time>2013-06-15T12:43:44Z</time></trkpt><trkpt lat="54.314104" lon="26.851126"><ele>170.77</ele><time>2013-06-15T12:43:58Z</time></trkpt><trkpt lat="54.314158" lon="26.849746"><ele>171.25</ele><time>2013-06-15T12:44:13Z</time></trkpt><trkpt lat="54.314260" lon="26.848364"><ele>172.21</ele><time>2013-06-15T12:44:29Z</time></trkpt><trkpt lat="54.314333" lon="26.847069"><ele>172.69</ele><time>2013-06-15T12:44:43Z</time></trkpt><trkpt lat="54.314407" lon="26.845951"><ele>173.17</ele><time>2013-06-15T12:44:55Z</time></trkpt><trkpt lat="54.314412" lon="26.845862"><ele>173.17</ele><time>2013-06-15T12:44:56Z</time></trkpt><trkpt lat="54.314458" lon="26.843914"><ele>173.17</ele><time>2013-06-15T12:45:16Z</time></trkpt><trkpt lat="54.314469" lon="26.842823"><ele>173.66</ele><time>2013-06-15T12:45:30Z</time></trkpt><trkpt lat="54.314493" lon="26.841462"><ele>173.17</ele><time>2013-06-15T12:45:48Z</time></trkpt><trkpt lat="54.314502" lon="26.840342"><ele>174.14</ele><time>2013-06-15T12:46:05Z</time></trkpt><trkpt lat="54.314521" lon="26.840156"><ele>173.66</ele><time>2013-06-15T12:46:09Z</time></trkpt><trkpt lat="54.314541" lon="26.840129"><ele>173.17</ele><time>2013-06-15T12:46:10Z</time></trkpt><trkpt lat="54.314565" lon="26.840109"><ele>173.17</ele><time>2013-06-15T12:46:11Z</time></trkpt><trkpt lat="54.314592" lon="26.840098"><ele>173.17</ele><time>2013-06-15T12:46:12Z</time></trkpt><trkpt lat="54.314622" lon="26.840091"><ele>173.17</ele><time>2013-06-15T12:46:13Z</time></trkpt><trkpt lat="54.314651" lon="26.840088"><ele>172.69</ele><time>2013-06-15T12:46:14Z</time></trkpt><trkpt lat="54.315037" lon="26.840132"><ele>172.21</ele><time>2013-06-15T12:46:26Z</time></trkpt><trkpt lat="54.315482" lon="26.840138"><ele>170.29</ele><time>2013-06-15T12:46:38Z</time></trkpt><trkpt lat="54.315594" lon="26.840114"><ele>170.29</ele><time>2013-06-15T12:46:41Z</time></trkpt><trkpt lat="54.315739" lon="26.839895"><ele>170.29</ele><time>2013-06-15T12:46:46Z</time></trkpt><trkpt lat="54.315762" lon="26.839832"><ele>170.29</ele><time>2013-06-15T12:46:47Z</time></trkpt><trkpt lat="54.315781" lon="26.839765"><ele>170.29</ele><time>2013-06-15T12:46:48Z</time></trkpt><trkpt lat="54.315882" lon="26.838815"><ele>172.21</ele><time>2013-06-15T12:47:03Z</time></trkpt><trkpt lat="54.315945" lon="26.837956"><ele>172.21</ele><time>2013-06-15T12:47:17Z</time></trkpt><trkpt lat="54.316001" lon="26.837841"><ele>172.21</ele><time>2013-06-15T12:47:28Z</time></trkpt><trkpt lat="54.316001" lon="26.837841"><ele>172.21</ele><time>2013-06-15T12:47:56Z</time></trkpt><trkpt lat="54.315998" lon="26.837845"><ele>172.21</ele><time>2013-06-15T12:48:36Z</time></trkpt><trkpt lat="54.315997" lon="26.837846"><ele>171.73</ele><time>2013-06-15T12:50:24Z</time></trkpt><trkpt lat="54.315991" lon="26.837848"><ele>171.25</ele><time>2013-06-15T12:52:21Z</time></trkpt><trkpt lat="54.315937" lon="26.837980"><ele>175.58</ele><time>2013-06-15T12:52:35Z</time></trkpt><trkpt lat="54.315848" lon="26.838068"><ele>178.46</ele><time>2013-06-15T12:52:46Z</time></trkpt><trkpt lat="54.315729" lon="26.838205"><ele>183.27</ele><time>2013-06-15T12:53:01Z</time></trkpt><trkpt lat="54.315708" lon="26.838250"><ele>179.90</ele><time>2013-06-15T12:53:17Z</time></trkpt><trkpt lat="54.315674" lon="26.838304"><ele>186.15</ele><time>2013-06-15T12:53:27Z</time></trkpt><trkpt lat="54.315591" lon="26.838481"><ele>190.96</ele><time>2013-06-15T12:53:41Z</time></trkpt><trkpt lat="54.315536" lon="26.838555"><ele>191.92</ele><time>2013-06-15T12:53:50Z</time></trkpt><trkpt lat="54.315492" lon="26.838834"><ele>192.40</ele><time>2013-06-15T12:54:04Z</time></trkpt><trkpt lat="54.315458" lon="26.838907"><ele>191.44</ele><time>2013-06-15T12:54:10Z</time></trkpt><trkpt lat="54.315448" lon="26.838935"><ele>191.44</ele><time>2013-06-15T12:54:12Z</time></trkpt><trkpt lat="54.315413" lon="26.838974"><ele>192.40</ele><time>2013-06-15T12:54:17Z</time></trkpt><trkpt lat="54.315408" lon="26.838964"><ele>192.40</ele><time>2013-06-15T12:54:27Z</time></trkpt><trkpt lat="54.315330" lon="26.839249"><ele>197.69</ele><time>2013-06-15T12:54:39Z</time></trkpt><trkpt lat="54.315236" lon="26.839633"><ele>200.57</ele><time>2013-06-15T12:54:46Z</time></trkpt><trkpt lat="54.315132" lon="26.839767"><ele>198.17</ele><time>2013-06-15T12:54:50Z</time></trkpt><trkpt lat="54.314741" lon="26.839739"><ele>191.92</ele><time>2013-06-15T12:55:03Z</time></trkpt><trkpt lat="54.314665" lon="26.839612"><ele>189.04</ele><time>2013-06-15T12:55:09Z</time></trkpt><trkpt lat="54.314647" lon="26.839573"><ele>188.56</ele><time>2013-06-15T12:55:11Z</time></trkpt><trkpt lat="54.314531" lon="26.839533"><ele>187.59</ele><time>2013-06-15T12:55:16Z</time></trkpt><trkpt lat="54.314282" lon="26.839723"><ele>190.96</ele><time>2013-06-15T12:55:29Z</time></trkpt><trkpt lat="54.313808" lon="26.839630"><ele>197.69</ele><time>2013-06-15T12:55:42Z</time></trkpt><trkpt lat="54.313195" lon="26.839525"><ele>202.01</ele><time>2013-06-15T12:55:57Z</time></trkpt><trkpt lat="54.312705" lon="26.839415"><ele>204.90</ele><time>2013-06-15T12:56:09Z</time></trkpt><trkpt lat="54.312019" lon="26.839264"><ele>203.94</ele><time>2013-06-15T12:56:27Z</time></trkpt><trkpt lat="54.311896" lon="26.839275"><ele>205.86</ele><time>2013-06-15T12:56:38Z</time></trkpt><trkpt lat="54.311896" lon="26.839275"><ele>205.86</ele><time>2013-06-15T12:56:55Z</time></trkpt><trkpt lat="54.311896" lon="26.839269"><ele>206.34</ele><time>2013-06-15T12:57:23Z</time></trkpt><trkpt lat="54.311893" lon="26.839271"><ele>206.34</ele><time>2013-06-15T12:58:00Z</time></trkpt><trkpt lat="54.311676" lon="26.839288"><ele>184.23</ele><time>2013-06-15T13:37:29Z</time></trkpt><trkpt lat="54.311674" lon="26.839267"><ele>183.75</ele><time>2013-06-15T13:37:51Z</time></trkpt><trkpt lat="54.311698" lon="26.839258"><ele>183.75</ele><time>2013-06-15T13:38:04Z</time></trkpt><trkpt lat="54.311711" lon="26.839261"><ele>183.75</ele><time>2013-06-15T13:38:05Z</time></trkpt><trkpt lat="54.311728" lon="26.839261"><ele>183.75</ele><time>2013-06-15T13:38:06Z</time></trkpt><trkpt lat="54.312109" lon="26.839358"><ele>182.79</ele><time>2013-06-15T13:38:18Z</time></trkpt><trkpt lat="54.312803" lon="26.839523"><ele>178.94</ele><time>2013-06-15T13:38:35Z</time></trkpt><trkpt lat="54.313061" lon="26.839577"><ele>178.46</ele><time>2013-06-15T13:38:41Z</time></trkpt><trkpt lat="54.313426" lon="26.839669"><ele>177.50</ele><time>2013-06-15T13:38:49Z</time></trkpt><trkpt lat="54.313466" lon="26.839680"><ele>177.50</ele><time>2013-06-15T13:38:50Z</time></trkpt><trkpt lat="54.313507" lon="26.839689"><ele>177.50</ele><time>2013-06-15T13:38:51Z</time></trkpt><trkpt lat="54.313548" lon="26.839696"><ele>177.50</ele><time>2013-06-15T13:38:52Z</time></trkpt><trkpt lat="54.313587" lon="26.839706"><ele>177.98</ele><time>2013-06-15T13:38:53Z</time></trkpt><trkpt lat="54.313626" lon="26.839715"><ele>177.98</ele><time>2013-06-15T13:38:54Z</time></trkpt><trkpt lat="54.313663" lon="26.839720"><ele>177.98</ele><time>2013-06-15T13:38:55Z</time></trkpt><trkpt lat="54.314156" lon="26.839872"><ele>178.94</ele><time>2013-06-15T13:39:09Z</time></trkpt><trkpt lat="54.314402" lon="26.840121"><ele>177.50</ele><time>2013-06-15T13:39:21Z</time></trkpt><trkpt lat="54.314808" lon="26.840121"><ele>175.58</ele><time>2013-06-15T13:39:35Z</time></trkpt><trkpt lat="54.315280" lon="26.840136"><ele>173.66</ele><time>2013-06-15T13:39:50Z</time></trkpt><trkpt lat="54.315658" lon="26.840161"><ele>175.58</ele><time>2013-06-15T13:40:03Z</time></trkpt><trkpt lat="54.315890" lon="26.840058"><ele>178.46</ele><time>2013-06-15T13:40:14Z</time></trkpt><trkpt lat="54.315891" lon="26.839715"><ele>179.42</ele><time>2013-06-15T13:40:25Z</time></trkpt><trkpt lat="54.315877" lon="26.838965"><ele>178.46</ele><time>2013-06-15T13:40:38Z</time></trkpt><trkpt lat="54.315923" lon="26.838055"><ele>177.50</ele><time>2013-06-15T13:40:54Z</time></trkpt><trkpt lat="54.315932" lon="26.837986"><ele>177.02</ele><time>2013-06-15T13:40:56Z</time></trkpt><trkpt lat="54.316094" lon="26.837868"><ele>172.69</ele><time>2013-06-15T13:41:06Z</time></trkpt><trkpt lat="54.316115" lon="26.837524"><ele>173.66</ele><time>2013-06-15T13:41:14Z</time></trkpt><trkpt lat="54.316132" lon="26.837410"><ele>174.14</ele><time>2013-06-15T13:41:17Z</time></trkpt><trkpt lat="54.316206" lon="26.837361"><ele>174.62</ele><time>2013-06-15T13:41:21Z</time></trkpt><trkpt lat="54.316312" lon="26.837325"><ele>174.62</ele><time>2013-06-15T13:41:30Z</time></trkpt><trkpt lat="54.316361" lon="26.837327"><ele>175.10</ele><time>2013-06-15T13:41:40Z</time></trkpt><trkpt lat="54.316355" lon="26.837353"><ele>175.58</ele><time>2013-06-15T13:41:49Z</time></trkpt><trkpt lat="54.316385" lon="26.837537"><ele>178.94</ele><time>2013-06-15T13:42:02Z</time></trkpt><trkpt lat="54.316385" lon="26.837536"><ele>178.46</ele><time>2013-06-15T13:42:58Z</time></trkpt><trkpt lat="54.316325" lon="26.837489"><ele>174.14</ele><time>2013-06-15T14:04:24Z</time></trkpt><trkpt lat="54.316361" lon="26.837921"><ele>174.14</ele><time>2013-06-15T14:04:33Z</time></trkpt><trkpt lat="54.316365" lon="26.839934"><ele>176.06</ele><time>2013-06-15T14:04:53Z</time></trkpt><trkpt lat="54.316390" lon="26.841865"><ele>176.06</ele><time>2013-06-15T14:05:14Z</time></trkpt><trkpt lat="54.316327" lon="26.843127"><ele>175.10</ele><time>2013-06-15T14:05:30Z</time></trkpt><trkpt lat="54.315569" lon="26.849395"><ele>222.20</ele><time>2013-06-15T14:07:02Z</time></trkpt></trkseg></trk></gpx>